<?xml version="1.0" encoding="UTF-8" standalone="no" ?>
<gpx xmlns="http://www.topografix.com/GPX/1/1" xmlns:xsi="http://www.w3.org/2001/XMLSchema-instance" xsi:schemaLocation="http://www.topografix.com/GPX/1/1 http://www.topografix.com/GPX/1/1/gpx.xsd" version="1.1" creator="VisuGPX - https://www.visugpx.com">
  <metadata>
    <name>Mont de Gebroulaz depuis Val Thorens</name>
    <desc><![CDATA[Ce sera la dernière de la saison, la neige reste abondante mais  le regel nocturne passe vite et nous finirons la descente sur un neige transformée de printemps. très bonnes traces, sauf vers et après le col de Gébroulaz ou elles ont été soufflées par le vent. Nous avons fini à pied mais des traces de ski partent du sommet et l'intégrale de la descente à ski est tout à fait possible.

Des photos sont disponibles sur le site du CAF de Lagnieu :

[url]https://goo.gl/photos/s6z39ogdMoKqax5f7[/url]]]></desc>
  </metadata>
  <trk>
    <name><![CDATA[Tracé actuel: 14 MAI 2017 08:38]]></name>
    <trkseg>
      <trkpt lat="45.29514" lon="6.58546">
        <ele>2246.26</ele>
        <time>2017-05-14T06:38:26Z</time>
      </trkpt>
      <trkpt lat="45.29516" lon="6.58545">
        <ele>2246.26</ele>
        <time>2017-05-14T06:38:27Z</time>
      </trkpt>
      <trkpt lat="45.29526" lon="6.58551">
        <ele>2247.22</ele>
        <time>2017-05-14T06:38:54Z</time>
      </trkpt>
      <trkpt lat="45.29529" lon="6.5856">
        <ele>2246.26</ele>
        <time>2017-05-14T06:39:26Z</time>
      </trkpt>
      <trkpt lat="45.29528" lon="6.58559">
        <ele>2249.14</ele>
        <time>2017-05-14T06:39:52Z</time>
      </trkpt>
      <trkpt lat="45.29528" lon="6.58559">
        <ele>2249.14</ele>
        <time>2017-05-14T06:39:53Z</time>
      </trkpt>
      <trkpt lat="45.29528" lon="6.58558">
        <ele>2250.58</ele>
        <time>2017-05-14T06:40:17Z</time>
      </trkpt>
      <trkpt lat="45.29522" lon="6.5856">
        <ele>2250.58</ele>
        <time>2017-05-14T06:40:34Z</time>
      </trkpt>
      <trkpt lat="45.29521" lon="6.58559">
        <ele>2252.51</ele>
        <time>2017-05-14T06:40:59Z</time>
      </trkpt>
      <trkpt lat="45.29524" lon="6.58561">
        <ele>2255.87</ele>
        <time>2017-05-14T06:41:15Z</time>
      </trkpt>
      <trkpt lat="45.29526" lon="6.58559">
        <ele>2256.83</ele>
        <time>2017-05-14T06:41:31Z</time>
      </trkpt>
      <trkpt lat="45.29524" lon="6.58558">
        <ele>2258.27</ele>
        <time>2017-05-14T06:41:53Z</time>
      </trkpt>
      <trkpt lat="45.29522" lon="6.5856">
        <ele>2259.24</ele>
        <time>2017-05-14T06:42:14Z</time>
      </trkpt>
      <trkpt lat="45.29523" lon="6.58558">
        <ele>2260.68</ele>
        <time>2017-05-14T06:42:28Z</time>
      </trkpt>
      <trkpt lat="45.29523" lon="6.58554">
        <ele>2262.6</ele>
        <time>2017-05-14T06:42:48Z</time>
      </trkpt>
      <trkpt lat="45.29522" lon="6.58551">
        <ele>2262.6</ele>
        <time>2017-05-14T06:42:52Z</time>
      </trkpt>
      <trkpt lat="45.2951" lon="6.5854">
        <ele>2262.12</ele>
        <time>2017-05-14T06:43:07Z</time>
      </trkpt>
      <trkpt lat="45.29503" lon="6.58529">
        <ele>2261.64</ele>
        <time>2017-05-14T06:43:20Z</time>
      </trkpt>
      <trkpt lat="45.29502" lon="6.58527">
        <ele>2261.16</ele>
        <time>2017-05-14T06:43:23Z</time>
      </trkpt>
      <trkpt lat="45.29489" lon="6.58535">
        <ele>2260.2</ele>
        <time>2017-05-14T06:43:36Z</time>
      </trkpt>
      <trkpt lat="45.29474" lon="6.58544">
        <ele>2260.68</ele>
        <time>2017-05-14T06:43:50Z</time>
      </trkpt>
      <trkpt lat="45.29471" lon="6.58543">
        <ele>2261.16</ele>
        <time>2017-05-14T06:44:03Z</time>
      </trkpt>
      <trkpt lat="45.29473" lon="6.58539">
        <ele>2262.6</ele>
        <time>2017-05-14T06:44:18Z</time>
      </trkpt>
      <trkpt lat="45.29472" lon="6.58539">
        <ele>2262.6</ele>
        <time>2017-05-14T06:44:31Z</time>
      </trkpt>
      <trkpt lat="45.29473" lon="6.58537">
        <ele>2263.56</ele>
        <time>2017-05-14T06:44:34Z</time>
      </trkpt>
      <trkpt lat="45.29469" lon="6.58539">
        <ele>2263.08</ele>
        <time>2017-05-14T06:44:54Z</time>
      </trkpt>
      <trkpt lat="45.29468" lon="6.58538">
        <ele>2265</ele>
        <time>2017-05-14T06:44:57Z</time>
      </trkpt>
      <trkpt lat="45.29469" lon="6.5854">
        <ele>2265.48</ele>
        <time>2017-05-14T06:45:11Z</time>
      </trkpt>
      <trkpt lat="45.29469" lon="6.58539">
        <ele>2265.48</ele>
        <time>2017-05-14T06:45:28Z</time>
      </trkpt>
      <trkpt lat="45.29468" lon="6.58537">
        <ele>2266.93</ele>
        <time>2017-05-14T06:45:38Z</time>
      </trkpt>
      <trkpt lat="45.29459" lon="6.5853">
        <ele>2265.96</ele>
        <time>2017-05-14T06:45:46Z</time>
      </trkpt>
      <trkpt lat="45.29442" lon="6.5851">
        <ele>2265.96</ele>
        <time>2017-05-14T06:46:01Z</time>
      </trkpt>
      <trkpt lat="45.29434" lon="6.58499">
        <ele>2266.93</ele>
        <time>2017-05-14T06:46:13Z</time>
      </trkpt>
      <trkpt lat="45.29425" lon="6.58488">
        <ele>2267.41</ele>
        <time>2017-05-14T06:46:26Z</time>
      </trkpt>
      <trkpt lat="45.29418" lon="6.58479">
        <ele>2268.37</ele>
        <time>2017-05-14T06:46:36Z</time>
      </trkpt>
      <trkpt lat="45.29415" lon="6.58471">
        <ele>2267.89</ele>
        <time>2017-05-14T06:46:43Z</time>
      </trkpt>
      <trkpt lat="45.29409" lon="6.58457">
        <ele>2267.41</ele>
        <time>2017-05-14T06:46:55Z</time>
      </trkpt>
      <trkpt lat="45.29406" lon="6.58451">
        <ele>2268.37</ele>
        <time>2017-05-14T06:47:02Z</time>
      </trkpt>
      <trkpt lat="45.294" lon="6.58435">
        <ele>2270.29</ele>
        <time>2017-05-14T06:47:16Z</time>
      </trkpt>
      <trkpt lat="45.29398" lon="6.58428">
        <ele>2270.29</ele>
        <time>2017-05-14T06:47:22Z</time>
      </trkpt>
      <trkpt lat="45.29397" lon="6.58422">
        <ele>2270.29</ele>
        <time>2017-05-14T06:47:27Z</time>
      </trkpt>
      <trkpt lat="45.29391" lon="6.58406">
        <ele>2272.21</ele>
        <time>2017-05-14T06:47:41Z</time>
      </trkpt>
      <trkpt lat="45.29386" lon="6.58397">
        <ele>2274.62</ele>
        <time>2017-05-14T06:47:49Z</time>
      </trkpt>
      <trkpt lat="45.29382" lon="6.58391">
        <ele>2272.69</ele>
        <time>2017-05-14T06:47:54Z</time>
      </trkpt>
      <trkpt lat="45.29373" lon="6.5838">
        <ele>2274.14</ele>
        <time>2017-05-14T06:48:08Z</time>
      </trkpt>
      <trkpt lat="45.29364" lon="6.58372">
        <ele>2275.1</ele>
        <time>2017-05-14T06:48:20Z</time>
      </trkpt>
      <trkpt lat="45.29357" lon="6.58362">
        <ele>2277.5</ele>
        <time>2017-05-14T06:48:33Z</time>
      </trkpt>
      <trkpt lat="45.29349" lon="6.58354">
        <ele>2278.94</ele>
        <time>2017-05-14T06:48:44Z</time>
      </trkpt>
      <trkpt lat="45.29345" lon="6.5835">
        <ele>2279.9</ele>
        <time>2017-05-14T06:48:50Z</time>
      </trkpt>
      <trkpt lat="45.29341" lon="6.58347">
        <ele>2279.42</ele>
        <time>2017-05-14T06:48:56Z</time>
      </trkpt>
      <trkpt lat="45.29331" lon="6.58337">
        <ele>2281.35</ele>
        <time>2017-05-14T06:49:09Z</time>
      </trkpt>
      <trkpt lat="45.29323" lon="6.58331">
        <ele>2282.31</ele>
        <time>2017-05-14T06:49:21Z</time>
      </trkpt>
      <trkpt lat="45.29312" lon="6.58327">
        <ele>2282.79</ele>
        <time>2017-05-14T06:49:33Z</time>
      </trkpt>
      <trkpt lat="45.29311" lon="6.58326">
        <ele>2283.27</ele>
        <time>2017-05-14T06:49:34Z</time>
      </trkpt>
      <trkpt lat="45.29299" lon="6.58326">
        <ele>2284.71</ele>
        <time>2017-05-14T06:49:47Z</time>
      </trkpt>
      <trkpt lat="45.29284" lon="6.58325">
        <ele>2285.67</ele>
        <time>2017-05-14T06:50:02Z</time>
      </trkpt>
      <trkpt lat="45.29279" lon="6.58325">
        <ele>2285.19</ele>
        <time>2017-05-14T06:50:08Z</time>
      </trkpt>
      <trkpt lat="45.29272" lon="6.58326">
        <ele>2286.63</ele>
        <time>2017-05-14T06:50:17Z</time>
      </trkpt>
      <trkpt lat="45.29266" lon="6.58326">
        <ele>2287.11</ele>
        <time>2017-05-14T06:50:23Z</time>
      </trkpt>
      <trkpt lat="45.29253" lon="6.5833">
        <ele>2287.59</ele>
        <time>2017-05-14T06:50:38Z</time>
      </trkpt>
      <trkpt lat="45.29239" lon="6.58332">
        <ele>2289.04</ele>
        <time>2017-05-14T06:50:53Z</time>
      </trkpt>
      <trkpt lat="45.29231" lon="6.58334">
        <ele>2288.56</ele>
        <time>2017-05-14T06:51:00Z</time>
      </trkpt>
      <trkpt lat="45.29227" lon="6.58334">
        <ele>2288.08</ele>
        <time>2017-05-14T06:51:04Z</time>
      </trkpt>
      <trkpt lat="45.29222" lon="6.58335">
        <ele>2289.04</ele>
        <time>2017-05-14T06:51:08Z</time>
      </trkpt>
      <trkpt lat="45.29212" lon="6.58336">
        <ele>2290.48</ele>
        <time>2017-05-14T06:51:20Z</time>
      </trkpt>
      <trkpt lat="45.292" lon="6.58337">
        <ele>2290.96</ele>
        <time>2017-05-14T06:51:33Z</time>
      </trkpt>
      <trkpt lat="45.29188" lon="6.58338">
        <ele>2292.4</ele>
        <time>2017-05-14T06:51:47Z</time>
      </trkpt>
      <trkpt lat="45.29187" lon="6.58339">
        <ele>2292.88</ele>
        <time>2017-05-14T06:51:48Z</time>
      </trkpt>
      <trkpt lat="45.29174" lon="6.58341">
        <ele>2295.28</ele>
        <time>2017-05-14T06:52:03Z</time>
      </trkpt>
      <trkpt lat="45.29163" lon="6.58341">
        <ele>2296.25</ele>
        <time>2017-05-14T06:52:16Z</time>
      </trkpt>
      <trkpt lat="45.29152" lon="6.58342">
        <ele>2296.73</ele>
        <time>2017-05-14T06:52:28Z</time>
      </trkpt>
      <trkpt lat="45.29144" lon="6.58344">
        <ele>2297.69</ele>
        <time>2017-05-14T06:52:37Z</time>
      </trkpt>
      <trkpt lat="45.2913" lon="6.58345">
        <ele>2299.13</ele>
        <time>2017-05-14T06:52:51Z</time>
      </trkpt>
      <trkpt lat="45.29126" lon="6.58344">
        <ele>2299.61</ele>
        <time>2017-05-14T06:52:57Z</time>
      </trkpt>
      <trkpt lat="45.29111" lon="6.58346">
        <ele>2298.65</ele>
        <time>2017-05-14T06:53:11Z</time>
      </trkpt>
      <trkpt lat="45.29095" lon="6.58347">
        <ele>2299.13</ele>
        <time>2017-05-14T06:53:25Z</time>
      </trkpt>
      <trkpt lat="45.29093" lon="6.58347">
        <ele>2299.13</ele>
        <time>2017-05-14T06:53:27Z</time>
      </trkpt>
      <trkpt lat="45.29086" lon="6.58347">
        <ele>2298.65</ele>
        <time>2017-05-14T06:53:34Z</time>
      </trkpt>
      <trkpt lat="45.29083" lon="6.58348">
        <ele>2298.17</ele>
        <time>2017-05-14T06:53:36Z</time>
      </trkpt>
      <trkpt lat="45.29069" lon="6.58349">
        <ele>2300.09</ele>
        <time>2017-05-14T06:53:50Z</time>
      </trkpt>
      <trkpt lat="45.29057" lon="6.58353">
        <ele>2300.57</ele>
        <time>2017-05-14T06:54:01Z</time>
      </trkpt>
      <trkpt lat="45.29056" lon="6.58353">
        <ele>2301.05</ele>
        <time>2017-05-14T06:54:03Z</time>
      </trkpt>
      <trkpt lat="45.29041" lon="6.58355">
        <ele>2302.01</ele>
        <time>2017-05-14T06:54:17Z</time>
      </trkpt>
      <trkpt lat="45.29035" lon="6.58356">
        <ele>2302.49</ele>
        <time>2017-05-14T06:54:22Z</time>
      </trkpt>
      <trkpt lat="45.29034" lon="6.58356">
        <ele>2302.49</ele>
        <time>2017-05-14T06:54:24Z</time>
      </trkpt>
      <trkpt lat="45.29031" lon="6.58357">
        <ele>2302.98</ele>
        <time>2017-05-14T06:54:27Z</time>
      </trkpt>
      <trkpt lat="45.29016" lon="6.58359">
        <ele>2303.94</ele>
        <time>2017-05-14T06:54:41Z</time>
      </trkpt>
      <trkpt lat="45.2901" lon="6.58359">
        <ele>2303.94</ele>
        <time>2017-05-14T06:54:48Z</time>
      </trkpt>
      <trkpt lat="45.29004" lon="6.58359">
        <ele>2305.38</ele>
        <time>2017-05-14T06:54:54Z</time>
      </trkpt>
      <trkpt lat="45.28991" lon="6.58359">
        <ele>2306.34</ele>
        <time>2017-05-14T06:55:07Z</time>
      </trkpt>
      <trkpt lat="45.28979" lon="6.58359">
        <ele>2307.3</ele>
        <time>2017-05-14T06:55:20Z</time>
      </trkpt>
      <trkpt lat="45.28964" lon="6.5836">
        <ele>2308.26</ele>
        <time>2017-05-14T06:55:34Z</time>
      </trkpt>
      <trkpt lat="45.28951" lon="6.5836">
        <ele>2309.22</ele>
        <time>2017-05-14T06:55:48Z</time>
      </trkpt>
      <trkpt lat="45.28941" lon="6.58363">
        <ele>2310.19</ele>
        <time>2017-05-14T06:56:00Z</time>
      </trkpt>
      <trkpt lat="45.28938" lon="6.58364">
        <ele>2311.15</ele>
        <time>2017-05-14T06:56:04Z</time>
      </trkpt>
      <trkpt lat="45.28926" lon="6.58368">
        <ele>2311.63</ele>
        <time>2017-05-14T06:56:18Z</time>
      </trkpt>
      <trkpt lat="45.28916" lon="6.58372">
        <ele>2313.07</ele>
        <time>2017-05-14T06:56:30Z</time>
      </trkpt>
      <trkpt lat="45.28908" lon="6.58382">
        <ele>2314.99</ele>
        <time>2017-05-14T06:56:44Z</time>
      </trkpt>
      <trkpt lat="45.28899" lon="6.58388">
        <ele>2315.95</ele>
        <time>2017-05-14T06:56:57Z</time>
      </trkpt>
      <trkpt lat="45.28886" lon="6.58393">
        <ele>2317.88</ele>
        <time>2017-05-14T06:57:11Z</time>
      </trkpt>
      <trkpt lat="45.28874" lon="6.58398">
        <ele>2320.28</ele>
        <time>2017-05-14T06:57:25Z</time>
      </trkpt>
      <trkpt lat="45.28862" lon="6.58401">
        <ele>2321.24</ele>
        <time>2017-05-14T06:57:39Z</time>
      </trkpt>
      <trkpt lat="45.28853" lon="6.58406">
        <ele>2321.72</ele>
        <time>2017-05-14T06:57:51Z</time>
      </trkpt>
      <trkpt lat="45.28841" lon="6.5841">
        <ele>2323.16</ele>
        <time>2017-05-14T06:58:04Z</time>
      </trkpt>
      <trkpt lat="45.28828" lon="6.58417">
        <ele>2324.61</ele>
        <time>2017-05-14T06:58:18Z</time>
      </trkpt>
      <trkpt lat="45.28825" lon="6.58418">
        <ele>2324.61</ele>
        <time>2017-05-14T06:58:21Z</time>
      </trkpt>
      <trkpt lat="45.28821" lon="6.58419">
        <ele>2325.09</ele>
        <time>2017-05-14T06:58:26Z</time>
      </trkpt>
      <trkpt lat="45.28812" lon="6.58424">
        <ele>2326.05</ele>
        <time>2017-05-14T06:58:37Z</time>
      </trkpt>
      <trkpt lat="45.28808" lon="6.58426">
        <ele>2326.53</ele>
        <time>2017-05-14T06:58:42Z</time>
      </trkpt>
      <trkpt lat="45.28803" lon="6.58427">
        <ele>2327.01</ele>
        <time>2017-05-14T06:58:47Z</time>
      </trkpt>
      <trkpt lat="45.28798" lon="6.5843">
        <ele>2327.97</ele>
        <time>2017-05-14T06:58:52Z</time>
      </trkpt>
      <trkpt lat="45.28788" lon="6.58435">
        <ele>2329.41</ele>
        <time>2017-05-14T06:59:05Z</time>
      </trkpt>
      <trkpt lat="45.28782" lon="6.58437">
        <ele>2329.89</ele>
        <time>2017-05-14T06:59:11Z</time>
      </trkpt>
      <trkpt lat="45.28771" lon="6.58439">
        <ele>2330.85</ele>
        <time>2017-05-14T06:59:24Z</time>
      </trkpt>
      <trkpt lat="45.28758" lon="6.58441">
        <ele>2331.81</ele>
        <time>2017-05-14T06:59:38Z</time>
      </trkpt>
      <trkpt lat="45.28745" lon="6.58441">
        <ele>2332.3</ele>
        <time>2017-05-14T06:59:51Z</time>
      </trkpt>
      <trkpt lat="45.28734" lon="6.5844">
        <ele>2332.3</ele>
        <time>2017-05-14T07:00:03Z</time>
      </trkpt>
      <trkpt lat="45.28723" lon="6.5844">
        <ele>2333.26</ele>
        <time>2017-05-14T07:00:15Z</time>
      </trkpt>
      <trkpt lat="45.28715" lon="6.58439">
        <ele>2333.26</ele>
        <time>2017-05-14T07:00:23Z</time>
      </trkpt>
      <trkpt lat="45.28706" lon="6.58439">
        <ele>2334.22</ele>
        <time>2017-05-14T07:00:31Z</time>
      </trkpt>
      <trkpt lat="45.28692" lon="6.58443">
        <ele>2335.18</ele>
        <time>2017-05-14T07:00:45Z</time>
      </trkpt>
      <trkpt lat="45.2869" lon="6.58444">
        <ele>2335.18</ele>
        <time>2017-05-14T07:00:49Z</time>
      </trkpt>
      <trkpt lat="45.28678" lon="6.58446">
        <ele>2335.66</ele>
        <time>2017-05-14T07:01:02Z</time>
      </trkpt>
      <trkpt lat="45.28674" lon="6.58448">
        <ele>2336.62</ele>
        <time>2017-05-14T07:01:08Z</time>
      </trkpt>
      <trkpt lat="45.28668" lon="6.58448">
        <ele>2337.58</ele>
        <time>2017-05-14T07:01:17Z</time>
      </trkpt>
      <trkpt lat="45.28662" lon="6.58451">
        <ele>2338.54</ele>
        <time>2017-05-14T07:01:25Z</time>
      </trkpt>
      <trkpt lat="45.28652" lon="6.58457">
        <ele>2339.02</ele>
        <time>2017-05-14T07:01:38Z</time>
      </trkpt>
      <trkpt lat="45.28651" lon="6.58457">
        <ele>2339.51</ele>
        <time>2017-05-14T07:01:39Z</time>
      </trkpt>
      <trkpt lat="45.28647" lon="6.58459">
        <ele>2340.47</ele>
        <time>2017-05-14T07:01:43Z</time>
      </trkpt>
      <trkpt lat="45.28643" lon="6.58458">
        <ele>2339.99</ele>
        <time>2017-05-14T07:01:48Z</time>
      </trkpt>
      <trkpt lat="45.28633" lon="6.58461">
        <ele>2341.43</ele>
        <time>2017-05-14T07:02:00Z</time>
      </trkpt>
      <trkpt lat="45.28622" lon="6.58462">
        <ele>2341.91</ele>
        <time>2017-05-14T07:02:13Z</time>
      </trkpt>
      <trkpt lat="45.28617" lon="6.58463">
        <ele>2342.87</ele>
        <time>2017-05-14T07:02:24Z</time>
      </trkpt>
      <trkpt lat="45.28612" lon="6.58463">
        <ele>2343.35</ele>
        <time>2017-05-14T07:02:29Z</time>
      </trkpt>
      <trkpt lat="45.28601" lon="6.58463">
        <ele>2344.79</ele>
        <time>2017-05-14T07:02:42Z</time>
      </trkpt>
      <trkpt lat="45.28592" lon="6.58463">
        <ele>2345.75</ele>
        <time>2017-05-14T07:02:51Z</time>
      </trkpt>
      <trkpt lat="45.28581" lon="6.58462">
        <ele>2347.68</ele>
        <time>2017-05-14T07:03:04Z</time>
      </trkpt>
      <trkpt lat="45.28578" lon="6.58462">
        <ele>2348.16</ele>
        <time>2017-05-14T07:03:07Z</time>
      </trkpt>
      <trkpt lat="45.28574" lon="6.58462">
        <ele>2348.64</ele>
        <time>2017-05-14T07:03:14Z</time>
      </trkpt>
      <trkpt lat="45.28562" lon="6.5846">
        <ele>2351.52</ele>
        <time>2017-05-14T07:03:28Z</time>
      </trkpt>
      <trkpt lat="45.28548" lon="6.58457">
        <ele>2353.44</ele>
        <time>2017-05-14T07:03:43Z</time>
      </trkpt>
      <trkpt lat="45.28547" lon="6.58456">
        <ele>2353.93</ele>
        <time>2017-05-14T07:03:44Z</time>
      </trkpt>
      <trkpt lat="45.28543" lon="6.58454">
        <ele>2354.89</ele>
        <time>2017-05-14T07:03:57Z</time>
      </trkpt>
      <trkpt lat="45.28533" lon="6.58458">
        <ele>2356.33</ele>
        <time>2017-05-14T07:04:09Z</time>
      </trkpt>
      <trkpt lat="45.28521" lon="6.58466">
        <ele>2359.69</ele>
        <time>2017-05-14T07:04:23Z</time>
      </trkpt>
      <trkpt lat="45.28513" lon="6.58473">
        <ele>2361.62</ele>
        <time>2017-05-14T07:04:33Z</time>
      </trkpt>
      <trkpt lat="45.28501" lon="6.58483">
        <ele>2363.54</ele>
        <time>2017-05-14T07:04:48Z</time>
      </trkpt>
      <trkpt lat="45.285" lon="6.58485">
        <ele>2364.5</ele>
        <time>2017-05-14T07:04:50Z</time>
      </trkpt>
      <trkpt lat="45.28495" lon="6.58488">
        <ele>2364.98</ele>
        <time>2017-05-14T07:04:57Z</time>
      </trkpt>
      <trkpt lat="45.28488" lon="6.58496">
        <ele>2367.38</ele>
        <time>2017-05-14T07:05:09Z</time>
      </trkpt>
      <trkpt lat="45.28486" lon="6.58503">
        <ele>2368.35</ele>
        <time>2017-05-14T07:05:16Z</time>
      </trkpt>
      <trkpt lat="45.28482" lon="6.58506">
        <ele>2369.79</ele>
        <time>2017-05-14T07:05:30Z</time>
      </trkpt>
      <trkpt lat="45.28481" lon="6.58505">
        <ele>2369.31</ele>
        <time>2017-05-14T07:05:48Z</time>
      </trkpt>
      <trkpt lat="45.28482" lon="6.58503">
        <ele>2369.79</ele>
        <time>2017-05-14T07:06:03Z</time>
      </trkpt>
      <trkpt lat="45.28481" lon="6.58504">
        <ele>2370.27</ele>
        <time>2017-05-14T07:06:34Z</time>
      </trkpt>
      <trkpt lat="45.28479" lon="6.58504">
        <ele>2370.75</ele>
        <time>2017-05-14T07:06:50Z</time>
      </trkpt>
      <trkpt lat="45.28474" lon="6.58515">
        <ele>2372.19</ele>
        <time>2017-05-14T07:07:03Z</time>
      </trkpt>
      <trkpt lat="45.28469" lon="6.58523">
        <ele>2374.11</ele>
        <time>2017-05-14T07:07:16Z</time>
      </trkpt>
      <trkpt lat="45.28463" lon="6.58531">
        <ele>2375.55</ele>
        <time>2017-05-14T07:07:27Z</time>
      </trkpt>
      <trkpt lat="45.28455" lon="6.58539">
        <ele>2377.96</ele>
        <time>2017-05-14T07:07:40Z</time>
      </trkpt>
      <trkpt lat="45.28451" lon="6.58548">
        <ele>2378.44</ele>
        <time>2017-05-14T07:07:53Z</time>
      </trkpt>
      <trkpt lat="45.28444" lon="6.58556">
        <ele>2381.32</ele>
        <time>2017-05-14T07:08:06Z</time>
      </trkpt>
      <trkpt lat="45.28434" lon="6.58566">
        <ele>2383.25</ele>
        <time>2017-05-14T07:08:20Z</time>
      </trkpt>
      <trkpt lat="45.28428" lon="6.58578">
        <ele>2385.17</ele>
        <time>2017-05-14T07:08:35Z</time>
      </trkpt>
      <trkpt lat="45.28423" lon="6.5859">
        <ele>2386.61</ele>
        <time>2017-05-14T07:08:48Z</time>
      </trkpt>
      <trkpt lat="45.28417" lon="6.586">
        <ele>2388.05</ele>
        <time>2017-05-14T07:09:00Z</time>
      </trkpt>
      <trkpt lat="45.28411" lon="6.5861">
        <ele>2389.49</ele>
        <time>2017-05-14T07:09:12Z</time>
      </trkpt>
      <trkpt lat="45.28411" lon="6.58612">
        <ele>2389.49</ele>
        <time>2017-05-14T07:09:14Z</time>
      </trkpt>
      <trkpt lat="45.28401" lon="6.58626">
        <ele>2391.42</ele>
        <time>2017-05-14T07:09:30Z</time>
      </trkpt>
      <trkpt lat="45.28396" lon="6.58636">
        <ele>2392.86</ele>
        <time>2017-05-14T07:09:42Z</time>
      </trkpt>
      <trkpt lat="45.28392" lon="6.58649">
        <ele>2394.3</ele>
        <time>2017-05-14T07:09:55Z</time>
      </trkpt>
      <trkpt lat="45.28386" lon="6.58661">
        <ele>2396.22</ele>
        <time>2017-05-14T07:10:08Z</time>
      </trkpt>
      <trkpt lat="45.28382" lon="6.58669">
        <ele>2396.22</ele>
        <time>2017-05-14T07:10:16Z</time>
      </trkpt>
      <trkpt lat="45.28379" lon="6.58678">
        <ele>2397.67</ele>
        <time>2017-05-14T07:10:25Z</time>
      </trkpt>
      <trkpt lat="45.28375" lon="6.58684">
        <ele>2398.63</ele>
        <time>2017-05-14T07:10:33Z</time>
      </trkpt>
      <trkpt lat="45.28368" lon="6.58697">
        <ele>2400.07</ele>
        <time>2017-05-14T07:10:46Z</time>
      </trkpt>
      <trkpt lat="45.28363" lon="6.58709">
        <ele>2401.99</ele>
        <time>2017-05-14T07:11:00Z</time>
      </trkpt>
      <trkpt lat="45.2836" lon="6.58718">
        <ele>2402.47</ele>
        <time>2017-05-14T07:11:09Z</time>
      </trkpt>
      <trkpt lat="45.28353" lon="6.58733">
        <ele>2403.43</ele>
        <time>2017-05-14T07:11:24Z</time>
      </trkpt>
      <trkpt lat="45.28352" lon="6.58735">
        <ele>2404.39</ele>
        <time>2017-05-14T07:11:25Z</time>
      </trkpt>
      <trkpt lat="45.28348" lon="6.58742">
        <ele>2404.88</ele>
        <time>2017-05-14T07:11:33Z</time>
      </trkpt>
      <trkpt lat="45.28342" lon="6.5875">
        <ele>2405.36</ele>
        <time>2017-05-14T07:11:41Z</time>
      </trkpt>
      <trkpt lat="45.28333" lon="6.58763">
        <ele>2405.36</ele>
        <time>2017-05-14T07:11:54Z</time>
      </trkpt>
      <trkpt lat="45.28328" lon="6.58771">
        <ele>2406.8</ele>
        <time>2017-05-14T07:12:02Z</time>
      </trkpt>
      <trkpt lat="45.28321" lon="6.58786">
        <ele>2407.76</ele>
        <time>2017-05-14T07:12:15Z</time>
      </trkpt>
      <trkpt lat="45.28315" lon="6.58801">
        <ele>2408.72</ele>
        <time>2017-05-14T07:12:29Z</time>
      </trkpt>
      <trkpt lat="45.28309" lon="6.58814">
        <ele>2410.16</ele>
        <time>2017-05-14T07:12:43Z</time>
      </trkpt>
      <trkpt lat="45.28308" lon="6.58818">
        <ele>2410.16</ele>
        <time>2017-05-14T07:12:46Z</time>
      </trkpt>
      <trkpt lat="45.28306" lon="6.58832">
        <ele>2411.12</ele>
        <time>2017-05-14T07:12:57Z</time>
      </trkpt>
      <trkpt lat="45.283" lon="6.58846">
        <ele>2412.09</ele>
        <time>2017-05-14T07:13:10Z</time>
      </trkpt>
      <trkpt lat="45.28298" lon="6.58854">
        <ele>2412.57</ele>
        <time>2017-05-14T07:13:17Z</time>
      </trkpt>
      <trkpt lat="45.28293" lon="6.58867">
        <ele>2413.05</ele>
        <time>2017-05-14T07:13:28Z</time>
      </trkpt>
      <trkpt lat="45.2829" lon="6.58876">
        <ele>2413.53</ele>
        <time>2017-05-14T07:13:35Z</time>
      </trkpt>
      <trkpt lat="45.28282" lon="6.5889">
        <ele>2414.97</ele>
        <time>2017-05-14T07:13:49Z</time>
      </trkpt>
      <trkpt lat="45.28282" lon="6.58891">
        <ele>2414.49</ele>
        <time>2017-05-14T07:13:50Z</time>
      </trkpt>
      <trkpt lat="45.28274" lon="6.58906">
        <ele>2416.41</ele>
        <time>2017-05-14T07:14:04Z</time>
      </trkpt>
      <trkpt lat="45.2827" lon="6.58923">
        <ele>2417.85</ele>
        <time>2017-05-14T07:14:19Z</time>
      </trkpt>
      <trkpt lat="45.28264" lon="6.58935">
        <ele>2419.78</ele>
        <time>2017-05-14T07:14:31Z</time>
      </trkpt>
      <trkpt lat="45.28259" lon="6.58946">
        <ele>2420.74</ele>
        <time>2017-05-14T07:14:44Z</time>
      </trkpt>
      <trkpt lat="45.28256" lon="6.58954">
        <ele>2422.18</ele>
        <time>2017-05-14T07:14:53Z</time>
      </trkpt>
      <trkpt lat="45.28254" lon="6.58958">
        <ele>2423.14</ele>
        <time>2017-05-14T07:14:59Z</time>
      </trkpt>
      <trkpt lat="45.28249" lon="6.5897">
        <ele>2424.1</ele>
        <time>2017-05-14T07:15:11Z</time>
      </trkpt>
      <trkpt lat="45.28242" lon="6.58982">
        <ele>2426.5</ele>
        <time>2017-05-14T07:15:24Z</time>
      </trkpt>
      <trkpt lat="45.28241" lon="6.58983">
        <ele>2426.5</ele>
        <time>2017-05-14T07:15:25Z</time>
      </trkpt>
      <trkpt lat="45.28237" lon="6.58997">
        <ele>2428.91</ele>
        <time>2017-05-14T07:15:39Z</time>
      </trkpt>
      <trkpt lat="45.28235" lon="6.59003">
        <ele>2430.35</ele>
        <time>2017-05-14T07:15:45Z</time>
      </trkpt>
      <trkpt lat="45.28229" lon="6.59015">
        <ele>2431.79</ele>
        <time>2017-05-14T07:15:58Z</time>
      </trkpt>
      <trkpt lat="45.28226" lon="6.59022">
        <ele>2433.23</ele>
        <time>2017-05-14T07:16:05Z</time>
      </trkpt>
      <trkpt lat="45.28225" lon="6.59025">
        <ele>2432.75</ele>
        <time>2017-05-14T07:16:08Z</time>
      </trkpt>
      <trkpt lat="45.28219" lon="6.59035">
        <ele>2436.12</ele>
        <time>2017-05-14T07:16:19Z</time>
      </trkpt>
      <trkpt lat="45.28214" lon="6.59046">
        <ele>2438.52</ele>
        <time>2017-05-14T07:16:31Z</time>
      </trkpt>
      <trkpt lat="45.28209" lon="6.59057">
        <ele>2440.44</ele>
        <time>2017-05-14T07:16:45Z</time>
      </trkpt>
      <trkpt lat="45.28207" lon="6.59062">
        <ele>2441.89</ele>
        <time>2017-05-14T07:16:52Z</time>
      </trkpt>
      <trkpt lat="45.28199" lon="6.59073">
        <ele>2444.29</ele>
        <time>2017-05-14T07:17:07Z</time>
      </trkpt>
      <trkpt lat="45.28193" lon="6.59079">
        <ele>2445.73</ele>
        <time>2017-05-14T07:17:19Z</time>
      </trkpt>
      <trkpt lat="45.28188" lon="6.59086">
        <ele>2449.1</ele>
        <time>2017-05-14T07:17:31Z</time>
      </trkpt>
      <trkpt lat="45.28182" lon="6.59097">
        <ele>2451.98</ele>
        <time>2017-05-14T07:17:47Z</time>
      </trkpt>
      <trkpt lat="45.28181" lon="6.5911">
        <ele>2454.86</ele>
        <time>2017-05-14T07:18:03Z</time>
      </trkpt>
      <trkpt lat="45.28173" lon="6.59118">
        <ele>2456.79</ele>
        <time>2017-05-14T07:18:16Z</time>
      </trkpt>
      <trkpt lat="45.28168" lon="6.5912">
        <ele>2458.71</ele>
        <time>2017-05-14T07:18:28Z</time>
      </trkpt>
      <trkpt lat="45.28157" lon="6.59126">
        <ele>2460.15</ele>
        <time>2017-05-14T07:18:42Z</time>
      </trkpt>
      <trkpt lat="45.28153" lon="6.59129">
        <ele>2463.04</ele>
        <time>2017-05-14T07:18:54Z</time>
      </trkpt>
      <trkpt lat="45.28145" lon="6.59132">
        <ele>2465.92</ele>
        <time>2017-05-14T07:19:07Z</time>
      </trkpt>
      <trkpt lat="45.28145" lon="6.59133">
        <ele>2466.4</ele>
        <time>2017-05-14T07:19:08Z</time>
      </trkpt>
      <trkpt lat="45.28137" lon="6.59133">
        <ele>2468.32</ele>
        <time>2017-05-14T07:19:22Z</time>
      </trkpt>
      <trkpt lat="45.28129" lon="6.59135">
        <ele>2471.21</ele>
        <time>2017-05-14T07:19:36Z</time>
      </trkpt>
      <trkpt lat="45.2812" lon="6.59136">
        <ele>2472.65</ele>
        <time>2017-05-14T07:19:51Z</time>
      </trkpt>
      <trkpt lat="45.28113" lon="6.59142">
        <ele>2475.05</ele>
        <time>2017-05-14T07:20:04Z</time>
      </trkpt>
      <trkpt lat="45.28116" lon="6.59147">
        <ele>2476.49</ele>
        <time>2017-05-14T07:20:15Z</time>
      </trkpt>
      <trkpt lat="45.28115" lon="6.59156">
        <ele>2479.86</ele>
        <time>2017-05-14T07:20:27Z</time>
      </trkpt>
      <trkpt lat="45.28115" lon="6.59168">
        <ele>2483.22</ele>
        <time>2017-05-14T07:20:42Z</time>
      </trkpt>
      <trkpt lat="45.28112" lon="6.59179">
        <ele>2485.63</ele>
        <time>2017-05-14T07:20:56Z</time>
      </trkpt>
      <trkpt lat="45.28111" lon="6.59191">
        <ele>2488.51</ele>
        <time>2017-05-14T07:21:09Z</time>
      </trkpt>
      <trkpt lat="45.28109" lon="6.59204">
        <ele>2491.39</ele>
        <time>2017-05-14T07:21:26Z</time>
      </trkpt>
      <trkpt lat="45.28106" lon="6.59219">
        <ele>2494.28</ele>
        <time>2017-05-14T07:21:43Z</time>
      </trkpt>
      <trkpt lat="45.28105" lon="6.59228">
        <ele>2496.2</ele>
        <time>2017-05-14T07:21:56Z</time>
      </trkpt>
      <trkpt lat="45.28102" lon="6.59235">
        <ele>2498.12</ele>
        <time>2017-05-14T07:22:08Z</time>
      </trkpt>
      <trkpt lat="45.28097" lon="6.59241">
        <ele>2500.05</ele>
        <time>2017-05-14T07:22:20Z</time>
      </trkpt>
      <trkpt lat="45.2809" lon="6.59249">
        <ele>2502.93</ele>
        <time>2017-05-14T07:22:34Z</time>
      </trkpt>
      <trkpt lat="45.28083" lon="6.59258">
        <ele>2504.85</ele>
        <time>2017-05-14T07:22:50Z</time>
      </trkpt>
      <trkpt lat="45.28077" lon="6.59263">
        <ele>2506.77</ele>
        <time>2017-05-14T07:23:04Z</time>
      </trkpt>
      <trkpt lat="45.28072" lon="6.59269">
        <ele>2508.7</ele>
        <time>2017-05-14T07:23:17Z</time>
      </trkpt>
      <trkpt lat="45.28067" lon="6.59275">
        <ele>2511.1</ele>
        <time>2017-05-14T07:23:29Z</time>
      </trkpt>
      <trkpt lat="45.28064" lon="6.5928">
        <ele>2513.02</ele>
        <time>2017-05-14T07:23:38Z</time>
      </trkpt>
      <trkpt lat="45.28056" lon="6.59287">
        <ele>2515.43</ele>
        <time>2017-05-14T07:23:51Z</time>
      </trkpt>
      <trkpt lat="45.28053" lon="6.59292">
        <ele>2516.39</ele>
        <time>2017-05-14T07:24:02Z</time>
      </trkpt>
      <trkpt lat="45.28045" lon="6.59301">
        <ele>2518.79</ele>
        <time>2017-05-14T07:24:18Z</time>
      </trkpt>
      <trkpt lat="45.28041" lon="6.59305">
        <ele>2520.71</ele>
        <time>2017-05-14T07:24:30Z</time>
      </trkpt>
      <trkpt lat="45.28034" lon="6.59309">
        <ele>2524.08</ele>
        <time>2017-05-14T07:24:45Z</time>
      </trkpt>
      <trkpt lat="45.28029" lon="6.59318">
        <ele>2525.52</ele>
        <time>2017-05-14T07:25:01Z</time>
      </trkpt>
      <trkpt lat="45.2802" lon="6.59329">
        <ele>2528.4</ele>
        <time>2017-05-14T07:25:17Z</time>
      </trkpt>
      <trkpt lat="45.28015" lon="6.59334">
        <ele>2529.85</ele>
        <time>2017-05-14T07:25:31Z</time>
      </trkpt>
      <trkpt lat="45.28009" lon="6.59341">
        <ele>2532.25</ele>
        <time>2017-05-14T07:25:42Z</time>
      </trkpt>
      <trkpt lat="45.28004" lon="6.59346">
        <ele>2533.69</ele>
        <time>2017-05-14T07:25:53Z</time>
      </trkpt>
      <trkpt lat="45.27996" lon="6.59357">
        <ele>2536.58</ele>
        <time>2017-05-14T07:26:09Z</time>
      </trkpt>
      <trkpt lat="45.27989" lon="6.59365">
        <ele>2538.98</ele>
        <time>2017-05-14T07:26:23Z</time>
      </trkpt>
      <trkpt lat="45.27983" lon="6.59373">
        <ele>2539.46</ele>
        <time>2017-05-14T07:26:37Z</time>
      </trkpt>
      <trkpt lat="45.27978" lon="6.59378">
        <ele>2541.86</ele>
        <time>2017-05-14T07:26:48Z</time>
      </trkpt>
      <trkpt lat="45.27972" lon="6.59385">
        <ele>2543.79</ele>
        <time>2017-05-14T07:27:00Z</time>
      </trkpt>
      <trkpt lat="45.27968" lon="6.59394">
        <ele>2544.75</ele>
        <time>2017-05-14T07:27:13Z</time>
      </trkpt>
      <trkpt lat="45.27965" lon="6.594">
        <ele>2547.15</ele>
        <time>2017-05-14T07:27:25Z</time>
      </trkpt>
      <trkpt lat="45.27962" lon="6.59407">
        <ele>2548.59</ele>
        <time>2017-05-14T07:27:37Z</time>
      </trkpt>
      <trkpt lat="45.27954" lon="6.59416">
        <ele>2550.03</ele>
        <time>2017-05-14T07:27:51Z</time>
      </trkpt>
      <trkpt lat="45.27947" lon="6.59425">
        <ele>2552.44</ele>
        <time>2017-05-14T07:28:04Z</time>
      </trkpt>
      <trkpt lat="45.27939" lon="6.59432">
        <ele>2553.88</ele>
        <time>2017-05-14T07:28:20Z</time>
      </trkpt>
      <trkpt lat="45.27931" lon="6.59441">
        <ele>2556.76</ele>
        <time>2017-05-14T07:28:35Z</time>
      </trkpt>
      <trkpt lat="45.27925" lon="6.5945">
        <ele>2557.73</ele>
        <time>2017-05-14T07:28:48Z</time>
      </trkpt>
      <trkpt lat="45.27919" lon="6.59459">
        <ele>2559.65</ele>
        <time>2017-05-14T07:29:01Z</time>
      </trkpt>
      <trkpt lat="45.27912" lon="6.59471">
        <ele>2562.53</ele>
        <time>2017-05-14T07:29:17Z</time>
      </trkpt>
      <trkpt lat="45.27907" lon="6.5948">
        <ele>2562.53</ele>
        <time>2017-05-14T07:29:30Z</time>
      </trkpt>
      <trkpt lat="45.27899" lon="6.59491">
        <ele>2565.9</ele>
        <time>2017-05-14T07:29:46Z</time>
      </trkpt>
      <trkpt lat="45.27892" lon="6.59502">
        <ele>2567.34</ele>
        <time>2017-05-14T07:30:01Z</time>
      </trkpt>
      <trkpt lat="45.27887" lon="6.59511">
        <ele>2569.26</ele>
        <time>2017-05-14T07:30:15Z</time>
      </trkpt>
      <trkpt lat="45.27882" lon="6.59521">
        <ele>2571.18</ele>
        <time>2017-05-14T07:30:29Z</time>
      </trkpt>
      <trkpt lat="45.27876" lon="6.59529">
        <ele>2573.59</ele>
        <time>2017-05-14T07:30:42Z</time>
      </trkpt>
      <trkpt lat="45.2787" lon="6.59539">
        <ele>2575.03</ele>
        <time>2017-05-14T07:30:56Z</time>
      </trkpt>
      <trkpt lat="45.27866" lon="6.59549">
        <ele>2576.47</ele>
        <time>2017-05-14T07:31:11Z</time>
      </trkpt>
      <trkpt lat="45.2786" lon="6.5956">
        <ele>2578.87</ele>
        <time>2017-05-14T07:31:26Z</time>
      </trkpt>
      <trkpt lat="45.27855" lon="6.59567">
        <ele>2580.32</ele>
        <time>2017-05-14T07:31:37Z</time>
      </trkpt>
      <trkpt lat="45.27848" lon="6.59573">
        <ele>2583.2</ele>
        <time>2017-05-14T07:31:50Z</time>
      </trkpt>
      <trkpt lat="45.27842" lon="6.59581">
        <ele>2585.12</ele>
        <time>2017-05-14T07:32:03Z</time>
      </trkpt>
      <trkpt lat="45.27838" lon="6.59588">
        <ele>2586.56</ele>
        <time>2017-05-14T07:32:15Z</time>
      </trkpt>
      <trkpt lat="45.27833" lon="6.59597">
        <ele>2589.45</ele>
        <time>2017-05-14T07:32:28Z</time>
      </trkpt>
      <trkpt lat="45.27828" lon="6.59607">
        <ele>2591.85</ele>
        <time>2017-05-14T07:32:43Z</time>
      </trkpt>
      <trkpt lat="45.27822" lon="6.59614">
        <ele>2594.74</ele>
        <time>2017-05-14T07:32:56Z</time>
      </trkpt>
      <trkpt lat="45.27815" lon="6.59623">
        <ele>2596.66</ele>
        <time>2017-05-14T07:33:12Z</time>
      </trkpt>
      <trkpt lat="45.27808" lon="6.59634">
        <ele>2598.58</ele>
        <time>2017-05-14T07:33:27Z</time>
      </trkpt>
      <trkpt lat="45.27804" lon="6.59641">
        <ele>2600.98</ele>
        <time>2017-05-14T07:33:40Z</time>
      </trkpt>
      <trkpt lat="45.278" lon="6.59653">
        <ele>2603.39</ele>
        <time>2017-05-14T07:33:55Z</time>
      </trkpt>
      <trkpt lat="45.27793" lon="6.59664">
        <ele>2605.79</ele>
        <time>2017-05-14T07:34:09Z</time>
      </trkpt>
      <trkpt lat="45.27788" lon="6.59675">
        <ele>2608.19</ele>
        <time>2017-05-14T07:34:23Z</time>
      </trkpt>
      <trkpt lat="45.27781" lon="6.59682">
        <ele>2610.12</ele>
        <time>2017-05-14T07:34:35Z</time>
      </trkpt>
      <trkpt lat="45.27776" lon="6.5969">
        <ele>2612.04</ele>
        <time>2017-05-14T07:34:47Z</time>
      </trkpt>
      <trkpt lat="45.27769" lon="6.59699">
        <ele>2613.96</ele>
        <time>2017-05-14T07:35:01Z</time>
      </trkpt>
      <trkpt lat="45.27763" lon="6.59709">
        <ele>2615.4</ele>
        <time>2017-05-14T07:35:15Z</time>
      </trkpt>
      <trkpt lat="45.27755" lon="6.59718">
        <ele>2617.81</ele>
        <time>2017-05-14T07:35:30Z</time>
      </trkpt>
      <trkpt lat="45.27748" lon="6.59727">
        <ele>2619.25</ele>
        <time>2017-05-14T07:35:44Z</time>
      </trkpt>
      <trkpt lat="45.27743" lon="6.59736">
        <ele>2621.65</ele>
        <time>2017-05-14T07:35:57Z</time>
      </trkpt>
      <trkpt lat="45.27741" lon="6.5974">
        <ele>2622.61</ele>
        <time>2017-05-14T07:36:03Z</time>
      </trkpt>
      <trkpt lat="45.27735" lon="6.5975">
        <ele>2624.06</ele>
        <time>2017-05-14T07:36:17Z</time>
      </trkpt>
      <trkpt lat="45.27729" lon="6.59758">
        <ele>2626.46</ele>
        <time>2017-05-14T07:36:30Z</time>
      </trkpt>
      <trkpt lat="45.27724" lon="6.59767">
        <ele>2628.38</ele>
        <time>2017-05-14T07:36:42Z</time>
      </trkpt>
      <trkpt lat="45.27716" lon="6.59775">
        <ele>2630.3</ele>
        <time>2017-05-14T07:36:55Z</time>
      </trkpt>
      <trkpt lat="45.27711" lon="6.59783">
        <ele>2633.67</ele>
        <time>2017-05-14T07:37:07Z</time>
      </trkpt>
      <trkpt lat="45.27705" lon="6.59793">
        <ele>2635.11</ele>
        <time>2017-05-14T07:37:19Z</time>
      </trkpt>
      <trkpt lat="45.27699" lon="6.598">
        <ele>2637.03</ele>
        <time>2017-05-14T07:37:32Z</time>
      </trkpt>
      <trkpt lat="45.27693" lon="6.59809">
        <ele>2640.88</ele>
        <time>2017-05-14T07:37:45Z</time>
      </trkpt>
      <trkpt lat="45.27688" lon="6.59816">
        <ele>2642.32</ele>
        <time>2017-05-14T07:37:56Z</time>
      </trkpt>
      <trkpt lat="45.27682" lon="6.59825">
        <ele>2645.21</ele>
        <time>2017-05-14T07:38:09Z</time>
      </trkpt>
      <trkpt lat="45.2768" lon="6.59827">
        <ele>2646.17</ele>
        <time>2017-05-14T07:38:13Z</time>
      </trkpt>
      <trkpt lat="45.27675" lon="6.59834">
        <ele>2648.57</ele>
        <time>2017-05-14T07:38:26Z</time>
      </trkpt>
      <trkpt lat="45.27669" lon="6.59842">
        <ele>2650.97</ele>
        <time>2017-05-14T07:38:39Z</time>
      </trkpt>
      <trkpt lat="45.27662" lon="6.59848">
        <ele>2653.38</ele>
        <time>2017-05-14T07:38:51Z</time>
      </trkpt>
      <trkpt lat="45.27657" lon="6.59854">
        <ele>2654.82</ele>
        <time>2017-05-14T07:39:02Z</time>
      </trkpt>
      <trkpt lat="45.27652" lon="6.59861">
        <ele>2657.22</ele>
        <time>2017-05-14T07:39:14Z</time>
      </trkpt>
      <trkpt lat="45.27645" lon="6.59867">
        <ele>2659.14</ele>
        <time>2017-05-14T07:39:26Z</time>
      </trkpt>
      <trkpt lat="45.2764" lon="6.59874">
        <ele>2661.55</ele>
        <time>2017-05-14T07:39:38Z</time>
      </trkpt>
      <trkpt lat="45.27634" lon="6.59883">
        <ele>2663.47</ele>
        <time>2017-05-14T07:39:52Z</time>
      </trkpt>
      <trkpt lat="45.27627" lon="6.59891">
        <ele>2665.39</ele>
        <time>2017-05-14T07:40:05Z</time>
      </trkpt>
      <trkpt lat="45.27621" lon="6.59899">
        <ele>2667.8</ele>
        <time>2017-05-14T07:40:18Z</time>
      </trkpt>
      <trkpt lat="45.27614" lon="6.59907">
        <ele>2669.72</ele>
        <time>2017-05-14T07:40:31Z</time>
      </trkpt>
      <trkpt lat="45.27609" lon="6.59916">
        <ele>2671.64</ele>
        <time>2017-05-14T07:40:44Z</time>
      </trkpt>
      <trkpt lat="45.27604" lon="6.59926">
        <ele>2673.56</ele>
        <time>2017-05-14T07:40:56Z</time>
      </trkpt>
      <trkpt lat="45.27597" lon="6.59934">
        <ele>2674.52</ele>
        <time>2017-05-14T07:41:08Z</time>
      </trkpt>
      <trkpt lat="45.2759" lon="6.59942">
        <ele>2677.41</ele>
        <time>2017-05-14T07:41:22Z</time>
      </trkpt>
      <trkpt lat="45.27584" lon="6.59952">
        <ele>2678.37</ele>
        <time>2017-05-14T07:41:36Z</time>
      </trkpt>
      <trkpt lat="45.27579" lon="6.59964">
        <ele>2680.77</ele>
        <time>2017-05-14T07:41:50Z</time>
      </trkpt>
      <trkpt lat="45.27575" lon="6.59973">
        <ele>2681.73</ele>
        <time>2017-05-14T07:42:01Z</time>
      </trkpt>
      <trkpt lat="45.27574" lon="6.59975">
        <ele>2683.18</ele>
        <time>2017-05-14T07:42:03Z</time>
      </trkpt>
      <trkpt lat="45.27568" lon="6.59985">
        <ele>2684.62</ele>
        <time>2017-05-14T07:42:17Z</time>
      </trkpt>
      <trkpt lat="45.27563" lon="6.59995">
        <ele>2685.1</ele>
        <time>2017-05-14T07:42:30Z</time>
      </trkpt>
      <trkpt lat="45.27562" lon="6.59998">
        <ele>2686.54</ele>
        <time>2017-05-14T07:42:33Z</time>
      </trkpt>
      <trkpt lat="45.27558" lon="6.60011">
        <ele>2688.94</ele>
        <time>2017-05-14T07:42:48Z</time>
      </trkpt>
      <trkpt lat="45.27552" lon="6.60023">
        <ele>2690.87</ele>
        <time>2017-05-14T07:43:02Z</time>
      </trkpt>
      <trkpt lat="45.27546" lon="6.60035">
        <ele>2692.79</ele>
        <time>2017-05-14T07:43:16Z</time>
      </trkpt>
      <trkpt lat="45.27541" lon="6.60048">
        <ele>2693.75</ele>
        <time>2017-05-14T07:43:30Z</time>
      </trkpt>
      <trkpt lat="45.27537" lon="6.60059">
        <ele>2695.67</ele>
        <time>2017-05-14T07:43:43Z</time>
      </trkpt>
      <trkpt lat="45.27532" lon="6.6007">
        <ele>2698.56</ele>
        <time>2017-05-14T07:43:56Z</time>
      </trkpt>
      <trkpt lat="45.27527" lon="6.60081">
        <ele>2700</ele>
        <time>2017-05-14T07:44:09Z</time>
      </trkpt>
      <trkpt lat="45.27524" lon="6.60091">
        <ele>2701.92</ele>
        <time>2017-05-14T07:44:22Z</time>
      </trkpt>
      <trkpt lat="45.27523" lon="6.60092">
        <ele>2701.92</ele>
        <time>2017-05-14T07:44:23Z</time>
      </trkpt>
      <trkpt lat="45.27519" lon="6.60103">
        <ele>2703.85</ele>
        <time>2017-05-14T07:44:36Z</time>
      </trkpt>
      <trkpt lat="45.27515" lon="6.60115">
        <ele>2705.77</ele>
        <time>2017-05-14T07:44:49Z</time>
      </trkpt>
      <trkpt lat="45.27513" lon="6.60126">
        <ele>2707.69</ele>
        <time>2017-05-14T07:45:02Z</time>
      </trkpt>
      <trkpt lat="45.27511" lon="6.60139">
        <ele>2710.09</ele>
        <time>2017-05-14T07:45:16Z</time>
      </trkpt>
      <trkpt lat="45.27509" lon="6.60151">
        <ele>2711.54</ele>
        <time>2017-05-14T07:45:30Z</time>
      </trkpt>
      <trkpt lat="45.27506" lon="6.60162">
        <ele>2714.42</ele>
        <time>2017-05-14T07:45:44Z</time>
      </trkpt>
      <trkpt lat="45.27504" lon="6.60175">
        <ele>2716.82</ele>
        <time>2017-05-14T07:45:58Z</time>
      </trkpt>
      <trkpt lat="45.27502" lon="6.60187">
        <ele>2718.27</ele>
        <time>2017-05-14T07:46:13Z</time>
      </trkpt>
      <trkpt lat="45.27501" lon="6.602">
        <ele>2721.15</ele>
        <time>2017-05-14T07:46:27Z</time>
      </trkpt>
      <trkpt lat="45.27499" lon="6.60209">
        <ele>2722.59</ele>
        <time>2017-05-14T07:46:39Z</time>
      </trkpt>
      <trkpt lat="45.27497" lon="6.60222">
        <ele>2724.51</ele>
        <time>2017-05-14T07:46:53Z</time>
      </trkpt>
      <trkpt lat="45.27495" lon="6.60234">
        <ele>2726.44</ele>
        <time>2017-05-14T07:47:06Z</time>
      </trkpt>
      <trkpt lat="45.27492" lon="6.60246">
        <ele>2728.84</ele>
        <time>2017-05-14T07:47:20Z</time>
      </trkpt>
      <trkpt lat="45.2749" lon="6.60258">
        <ele>2730.76</ele>
        <time>2017-05-14T07:47:33Z</time>
      </trkpt>
      <trkpt lat="45.27489" lon="6.60268">
        <ele>2732.2</ele>
        <time>2017-05-14T07:47:45Z</time>
      </trkpt>
      <trkpt lat="45.27489" lon="6.60279">
        <ele>2734.61</ele>
        <time>2017-05-14T07:47:58Z</time>
      </trkpt>
      <trkpt lat="45.27486" lon="6.60292">
        <ele>2736.05</ele>
        <time>2017-05-14T07:48:12Z</time>
      </trkpt>
      <trkpt lat="45.27485" lon="6.603">
        <ele>2738.93</ele>
        <time>2017-05-14T07:48:27Z</time>
      </trkpt>
      <trkpt lat="45.27482" lon="6.60315">
        <ele>2740.38</ele>
        <time>2017-05-14T07:48:41Z</time>
      </trkpt>
      <trkpt lat="45.27481" lon="6.60324">
        <ele>2742.78</ele>
        <time>2017-05-14T07:48:53Z</time>
      </trkpt>
      <trkpt lat="45.2748" lon="6.60331">
        <ele>2744.22</ele>
        <time>2017-05-14T07:49:05Z</time>
      </trkpt>
      <trkpt lat="45.2748" lon="6.60333">
        <ele>2744.7</ele>
        <time>2017-05-14T07:49:09Z</time>
      </trkpt>
      <trkpt lat="45.27479" lon="6.60339">
        <ele>2745.66</ele>
        <time>2017-05-14T07:49:17Z</time>
      </trkpt>
      <trkpt lat="45.27476" lon="6.60352">
        <ele>2748.55</ele>
        <time>2017-05-14T07:49:32Z</time>
      </trkpt>
      <trkpt lat="45.27473" lon="6.60363">
        <ele>2748.55</ele>
        <time>2017-05-14T07:49:44Z</time>
      </trkpt>
      <trkpt lat="45.27471" lon="6.60371">
        <ele>2751.43</ele>
        <time>2017-05-14T07:49:58Z</time>
      </trkpt>
      <trkpt lat="45.27466" lon="6.60384">
        <ele>2753.83</ele>
        <time>2017-05-14T07:50:12Z</time>
      </trkpt>
      <trkpt lat="45.27464" lon="6.60391">
        <ele>2754.8</ele>
        <time>2017-05-14T07:50:20Z</time>
      </trkpt>
      <trkpt lat="45.27461" lon="6.60401">
        <ele>2756.72</ele>
        <time>2017-05-14T07:50:34Z</time>
      </trkpt>
      <trkpt lat="45.27458" lon="6.60414">
        <ele>2759.12</ele>
        <time>2017-05-14T07:50:53Z</time>
      </trkpt>
      <trkpt lat="45.27456" lon="6.60421">
        <ele>2760.56</ele>
        <time>2017-05-14T07:51:05Z</time>
      </trkpt>
      <trkpt lat="45.27452" lon="6.60431">
        <ele>2762.49</ele>
        <time>2017-05-14T07:51:18Z</time>
      </trkpt>
      <trkpt lat="45.27452" lon="6.60431">
        <ele>2762.49</ele>
        <time>2017-05-14T07:51:19Z</time>
      </trkpt>
      <trkpt lat="45.27449" lon="6.60442">
        <ele>2764.89</ele>
        <time>2017-05-14T07:51:37Z</time>
      </trkpt>
      <trkpt lat="45.27445" lon="6.6045">
        <ele>2767.29</ele>
        <time>2017-05-14T07:51:53Z</time>
      </trkpt>
      <trkpt lat="45.27441" lon="6.60458">
        <ele>2769.21</ele>
        <time>2017-05-14T07:52:07Z</time>
      </trkpt>
      <trkpt lat="45.27438" lon="6.60468">
        <ele>2770.66</ele>
        <time>2017-05-14T07:52:19Z</time>
      </trkpt>
      <trkpt lat="45.27433" lon="6.60477">
        <ele>2773.06</ele>
        <time>2017-05-14T07:52:36Z</time>
      </trkpt>
      <trkpt lat="45.27429" lon="6.60492">
        <ele>2775.94</ele>
        <time>2017-05-14T07:52:56Z</time>
      </trkpt>
      <trkpt lat="45.27422" lon="6.60505">
        <ele>2777.39</ele>
        <time>2017-05-14T07:53:14Z</time>
      </trkpt>
      <trkpt lat="45.27414" lon="6.6051">
        <ele>2779.31</ele>
        <time>2017-05-14T07:53:27Z</time>
      </trkpt>
      <trkpt lat="45.274" lon="6.60519">
        <ele>2781.71</ele>
        <time>2017-05-14T07:53:45Z</time>
      </trkpt>
      <trkpt lat="45.27393" lon="6.60525">
        <ele>2784.12</ele>
        <time>2017-05-14T07:53:59Z</time>
      </trkpt>
      <trkpt lat="45.27387" lon="6.60534">
        <ele>2786.04</ele>
        <time>2017-05-14T07:54:13Z</time>
      </trkpt>
      <trkpt lat="45.27378" lon="6.60539">
        <ele>2787.96</ele>
        <time>2017-05-14T07:54:29Z</time>
      </trkpt>
      <trkpt lat="45.27371" lon="6.60544">
        <ele>2789.88</ele>
        <time>2017-05-14T07:54:40Z</time>
      </trkpt>
      <trkpt lat="45.27367" lon="6.60557">
        <ele>2792.77</ele>
        <time>2017-05-14T07:54:59Z</time>
      </trkpt>
      <trkpt lat="45.27361" lon="6.60568">
        <ele>2794.21</ele>
        <time>2017-05-14T07:55:11Z</time>
      </trkpt>
      <trkpt lat="45.27352" lon="6.60574">
        <ele>2795.65</ele>
        <time>2017-05-14T07:55:28Z</time>
      </trkpt>
      <trkpt lat="45.27345" lon="6.60579">
        <ele>2797.57</ele>
        <time>2017-05-14T07:55:40Z</time>
      </trkpt>
      <trkpt lat="45.27341" lon="6.60588">
        <ele>2798.54</ele>
        <time>2017-05-14T07:55:52Z</time>
      </trkpt>
      <trkpt lat="45.27335" lon="6.60599">
        <ele>2800.46</ele>
        <time>2017-05-14T07:56:06Z</time>
      </trkpt>
      <trkpt lat="45.2733" lon="6.6061">
        <ele>2801.9</ele>
        <time>2017-05-14T07:56:22Z</time>
      </trkpt>
      <trkpt lat="45.27324" lon="6.60624">
        <ele>2804.3</ele>
        <time>2017-05-14T07:56:40Z</time>
      </trkpt>
      <trkpt lat="45.27319" lon="6.60634">
        <ele>2806.71</ele>
        <time>2017-05-14T07:56:52Z</time>
      </trkpt>
      <trkpt lat="45.27309" lon="6.60642">
        <ele>2808.63</ele>
        <time>2017-05-14T07:57:10Z</time>
      </trkpt>
      <trkpt lat="45.27303" lon="6.60647">
        <ele>2810.07</ele>
        <time>2017-05-14T07:57:24Z</time>
      </trkpt>
      <trkpt lat="45.27296" lon="6.60652">
        <ele>2812.47</ele>
        <time>2017-05-14T07:57:36Z</time>
      </trkpt>
      <trkpt lat="45.2729" lon="6.6065">
        <ele>2813.92</ele>
        <time>2017-05-14T07:57:47Z</time>
      </trkpt>
      <trkpt lat="45.27289" lon="6.60654">
        <ele>2814.88</ele>
        <time>2017-05-14T07:57:51Z</time>
      </trkpt>
      <trkpt lat="45.27285" lon="6.60667">
        <ele>2816.32</ele>
        <time>2017-05-14T07:58:04Z</time>
      </trkpt>
      <trkpt lat="45.27279" lon="6.6068">
        <ele>2817.28</ele>
        <time>2017-05-14T07:58:17Z</time>
      </trkpt>
      <trkpt lat="45.27276" lon="6.60693">
        <ele>2819.2</ele>
        <time>2017-05-14T07:58:32Z</time>
      </trkpt>
      <trkpt lat="45.27267" lon="6.607">
        <ele>2821.61</ele>
        <time>2017-05-14T07:58:47Z</time>
      </trkpt>
      <trkpt lat="45.27262" lon="6.60701">
        <ele>2823.05</ele>
        <time>2017-05-14T07:58:58Z</time>
      </trkpt>
      <trkpt lat="45.27255" lon="6.60703">
        <ele>2825.45</ele>
        <time>2017-05-14T07:59:12Z</time>
      </trkpt>
      <trkpt lat="45.27244" lon="6.60706">
        <ele>2828.82</ele>
        <time>2017-05-14T07:59:29Z</time>
      </trkpt>
      <trkpt lat="45.27234" lon="6.60708">
        <ele>2830.74</ele>
        <time>2017-05-14T07:59:43Z</time>
      </trkpt>
      <trkpt lat="45.27228" lon="6.6071">
        <ele>2832.18</ele>
        <time>2017-05-14T07:59:54Z</time>
      </trkpt>
      <trkpt lat="45.27224" lon="6.60713">
        <ele>2834.1</ele>
        <time>2017-05-14T08:00:05Z</time>
      </trkpt>
      <trkpt lat="45.27216" lon="6.60719">
        <ele>2835.55</ele>
        <time>2017-05-14T08:00:18Z</time>
      </trkpt>
      <trkpt lat="45.27208" lon="6.60721">
        <ele>2838.43</ele>
        <time>2017-05-14T08:00:36Z</time>
      </trkpt>
      <trkpt lat="45.27207" lon="6.60721">
        <ele>2838.91</ele>
        <time>2017-05-14T08:00:38Z</time>
      </trkpt>
      <trkpt lat="45.27199" lon="6.60727">
        <ele>2841.31</ele>
        <time>2017-05-14T08:00:54Z</time>
      </trkpt>
      <trkpt lat="45.27198" lon="6.60734">
        <ele>2843.24</ele>
        <time>2017-05-14T08:01:05Z</time>
      </trkpt>
      <trkpt lat="45.27201" lon="6.60751">
        <ele>2846.6</ele>
        <time>2017-05-14T08:01:26Z</time>
      </trkpt>
      <trkpt lat="45.27196" lon="6.60754">
        <ele>2848.04</ele>
        <time>2017-05-14T08:01:36Z</time>
      </trkpt>
      <trkpt lat="45.27186" lon="6.60761">
        <ele>2849.97</ele>
        <time>2017-05-14T08:01:50Z</time>
      </trkpt>
      <trkpt lat="45.27178" lon="6.60762">
        <ele>2852.37</ele>
        <time>2017-05-14T08:02:03Z</time>
      </trkpt>
      <trkpt lat="45.27181" lon="6.60773">
        <ele>2854.29</ele>
        <time>2017-05-14T08:02:20Z</time>
      </trkpt>
      <trkpt lat="45.27185" lon="6.6078">
        <ele>2856.69</ele>
        <time>2017-05-14T08:02:33Z</time>
      </trkpt>
      <trkpt lat="45.27187" lon="6.60792">
        <ele>2859.58</ele>
        <time>2017-05-14T08:02:49Z</time>
      </trkpt>
      <trkpt lat="45.2719" lon="6.60799">
        <ele>2861.02</ele>
        <time>2017-05-14T08:03:03Z</time>
      </trkpt>
      <trkpt lat="45.2719" lon="6.60807">
        <ele>2862.94</ele>
        <time>2017-05-14T08:03:13Z</time>
      </trkpt>
      <trkpt lat="45.27193" lon="6.60817">
        <ele>2864.39</ele>
        <time>2017-05-14T08:03:27Z</time>
      </trkpt>
      <trkpt lat="45.27195" lon="6.60832">
        <ele>2866.31</ele>
        <time>2017-05-14T08:03:43Z</time>
      </trkpt>
      <trkpt lat="45.27193" lon="6.60835">
        <ele>2867.27</ele>
        <time>2017-05-14T08:03:47Z</time>
      </trkpt>
      <trkpt lat="45.27185" lon="6.60837">
        <ele>2870.15</ele>
        <time>2017-05-14T08:04:02Z</time>
      </trkpt>
      <trkpt lat="45.2718" lon="6.60843">
        <ele>2872.08</ele>
        <time>2017-05-14T08:04:19Z</time>
      </trkpt>
      <trkpt lat="45.27171" lon="6.60857">
        <ele>2875.44</ele>
        <time>2017-05-14T08:04:39Z</time>
      </trkpt>
      <trkpt lat="45.27164" lon="6.60866">
        <ele>2877.36</ele>
        <time>2017-05-14T08:04:53Z</time>
      </trkpt>
      <trkpt lat="45.2716" lon="6.6087">
        <ele>2878.81</ele>
        <time>2017-05-14T08:05:04Z</time>
      </trkpt>
      <trkpt lat="45.27157" lon="6.60876">
        <ele>2881.21</ele>
        <time>2017-05-14T08:05:18Z</time>
      </trkpt>
      <trkpt lat="45.27155" lon="6.60885">
        <ele>2882.65</ele>
        <time>2017-05-14T08:05:31Z</time>
      </trkpt>
      <trkpt lat="45.27151" lon="6.609">
        <ele>2885.05</ele>
        <time>2017-05-14T08:05:47Z</time>
      </trkpt>
      <trkpt lat="45.27151" lon="6.60912">
        <ele>2886.5</ele>
        <time>2017-05-14T08:06:02Z</time>
      </trkpt>
      <trkpt lat="45.27148" lon="6.60923">
        <ele>2888.42</ele>
        <time>2017-05-14T08:06:16Z</time>
      </trkpt>
      <trkpt lat="45.27148" lon="6.60935">
        <ele>2890.82</ele>
        <time>2017-05-14T08:06:31Z</time>
      </trkpt>
      <trkpt lat="45.27148" lon="6.60949">
        <ele>2892.74</ele>
        <time>2017-05-14T08:06:46Z</time>
      </trkpt>
      <trkpt lat="45.27147" lon="6.60962">
        <ele>2894.67</ele>
        <time>2017-05-14T08:07:00Z</time>
      </trkpt>
      <trkpt lat="45.27147" lon="6.60975">
        <ele>2896.59</ele>
        <time>2017-05-14T08:07:16Z</time>
      </trkpt>
      <trkpt lat="45.27147" lon="6.60991">
        <ele>2898.03</ele>
        <time>2017-05-14T08:07:33Z</time>
      </trkpt>
      <trkpt lat="45.27145" lon="6.61005">
        <ele>2899.47</ele>
        <time>2017-05-14T08:07:48Z</time>
      </trkpt>
      <trkpt lat="45.27143" lon="6.61021">
        <ele>2901.4</ele>
        <time>2017-05-14T08:08:04Z</time>
      </trkpt>
      <trkpt lat="45.27144" lon="6.61035">
        <ele>2902.84</ele>
        <time>2017-05-14T08:08:18Z</time>
      </trkpt>
      <trkpt lat="45.27144" lon="6.61048">
        <ele>2903.8</ele>
        <time>2017-05-14T08:08:33Z</time>
      </trkpt>
      <trkpt lat="45.27143" lon="6.6106">
        <ele>2906.68</ele>
        <time>2017-05-14T08:08:47Z</time>
      </trkpt>
      <trkpt lat="45.27142" lon="6.61074">
        <ele>2908.13</ele>
        <time>2017-05-14T08:09:01Z</time>
      </trkpt>
      <trkpt lat="45.27139" lon="6.61087">
        <ele>2909.57</ele>
        <time>2017-05-14T08:09:15Z</time>
      </trkpt>
      <trkpt lat="45.27139" lon="6.61101">
        <ele>2911.49</ele>
        <time>2017-05-14T08:09:31Z</time>
      </trkpt>
      <trkpt lat="45.27135" lon="6.61113">
        <ele>2913.41</ele>
        <time>2017-05-14T08:09:44Z</time>
      </trkpt>
      <trkpt lat="45.27132" lon="6.61127">
        <ele>2915.34</ele>
        <time>2017-05-14T08:09:59Z</time>
      </trkpt>
      <trkpt lat="45.27128" lon="6.61141">
        <ele>2916.78</ele>
        <time>2017-05-14T08:10:12Z</time>
      </trkpt>
      <trkpt lat="45.27126" lon="6.61153">
        <ele>2918.7</ele>
        <time>2017-05-14T08:10:24Z</time>
      </trkpt>
      <trkpt lat="45.27123" lon="6.61165">
        <ele>2920.14</ele>
        <time>2017-05-14T08:10:39Z</time>
      </trkpt>
      <trkpt lat="45.27126" lon="6.61171">
        <ele>2922.54</ele>
        <time>2017-05-14T08:25:13Z</time>
      </trkpt>
      <trkpt lat="45.27121" lon="6.61184">
        <ele>2924.95</ele>
        <time>2017-05-14T08:27:22Z</time>
      </trkpt>
      <trkpt lat="45.27119" lon="6.61192">
        <ele>2928.31</ele>
        <time>2017-05-14T08:27:30Z</time>
      </trkpt>
      <trkpt lat="45.27115" lon="6.61203">
        <ele>2929.75</ele>
        <time>2017-05-14T08:27:44Z</time>
      </trkpt>
      <trkpt lat="45.2711" lon="6.61215">
        <ele>2931.68</ele>
        <time>2017-05-14T08:27:56Z</time>
      </trkpt>
      <trkpt lat="45.27106" lon="6.61226">
        <ele>2935.04</ele>
        <time>2017-05-14T08:28:09Z</time>
      </trkpt>
      <trkpt lat="45.27101" lon="6.61236">
        <ele>2935.52</ele>
        <time>2017-05-14T08:28:23Z</time>
      </trkpt>
      <trkpt lat="45.27097" lon="6.61243">
        <ele>2937.93</ele>
        <time>2017-05-14T08:28:34Z</time>
      </trkpt>
      <trkpt lat="45.27096" lon="6.61244">
        <ele>2936.97</ele>
        <time>2017-05-14T08:28:35Z</time>
      </trkpt>
      <trkpt lat="45.2709" lon="6.61248">
        <ele>2938.41</ele>
        <time>2017-05-14T08:28:50Z</time>
      </trkpt>
      <trkpt lat="45.27084" lon="6.61256">
        <ele>2939.37</ele>
        <time>2017-05-14T08:29:02Z</time>
      </trkpt>
      <trkpt lat="45.27081" lon="6.61263">
        <ele>2943.21</ele>
        <time>2017-05-14T08:29:13Z</time>
      </trkpt>
      <trkpt lat="45.27075" lon="6.61269">
        <ele>2944.66</ele>
        <time>2017-05-14T08:29:28Z</time>
      </trkpt>
      <trkpt lat="45.27072" lon="6.61277">
        <ele>2946.58</ele>
        <time>2017-05-14T08:29:41Z</time>
      </trkpt>
      <trkpt lat="45.27077" lon="6.61287">
        <ele>2950.42</ele>
        <time>2017-05-14T08:29:53Z</time>
      </trkpt>
      <trkpt lat="45.27081" lon="6.61297">
        <ele>2951.87</ele>
        <time>2017-05-14T08:30:06Z</time>
      </trkpt>
      <trkpt lat="45.27081" lon="6.61297">
        <ele>2951.87</ele>
        <time>2017-05-14T08:30:07Z</time>
      </trkpt>
      <trkpt lat="45.27081" lon="6.61305">
        <ele>2953.79</ele>
        <time>2017-05-14T08:30:19Z</time>
      </trkpt>
      <trkpt lat="45.27076" lon="6.6131">
        <ele>2956.19</ele>
        <time>2017-05-14T08:30:33Z</time>
      </trkpt>
      <trkpt lat="45.27073" lon="6.6131">
        <ele>2956.67</ele>
        <time>2017-05-14T08:30:37Z</time>
      </trkpt>
      <trkpt lat="45.27063" lon="6.6131">
        <ele>2959.56</ele>
        <time>2017-05-14T08:30:54Z</time>
      </trkpt>
      <trkpt lat="45.27059" lon="6.6131">
        <ele>2959.56</ele>
        <time>2017-05-14T08:30:58Z</time>
      </trkpt>
      <trkpt lat="45.27052" lon="6.61313">
        <ele>2961.48</ele>
        <time>2017-05-14T08:31:11Z</time>
      </trkpt>
      <trkpt lat="45.27052" lon="6.61313">
        <ele>2964.36</ele>
        <time>2017-05-14T08:31:13Z</time>
      </trkpt>
      <trkpt lat="45.27053" lon="6.61314">
        <ele>2960.52</ele>
        <time>2017-05-14T08:31:14Z</time>
      </trkpt>
      <trkpt lat="45.27054" lon="6.61314">
        <ele>2961.48</ele>
        <time>2017-05-14T08:31:15Z</time>
      </trkpt>
      <trkpt lat="45.27055" lon="6.61315">
        <ele>2962.44</ele>
        <time>2017-05-14T08:31:17Z</time>
      </trkpt>
      <trkpt lat="45.2706" lon="6.6132">
        <ele>2963.88</ele>
        <time>2017-05-14T08:31:30Z</time>
      </trkpt>
      <trkpt lat="45.27065" lon="6.61328">
        <ele>2965.32</ele>
        <time>2017-05-14T08:31:43Z</time>
      </trkpt>
      <trkpt lat="45.27067" lon="6.61333">
        <ele>2967.25</ele>
        <time>2017-05-14T08:31:52Z</time>
      </trkpt>
      <trkpt lat="45.27074" lon="6.61342">
        <ele>2969.17</ele>
        <time>2017-05-14T08:32:05Z</time>
      </trkpt>
      <trkpt lat="45.27077" lon="6.61344">
        <ele>2971.09</ele>
        <time>2017-05-14T08:32:14Z</time>
      </trkpt>
      <trkpt lat="45.27071" lon="6.61351">
        <ele>2971.57</ele>
        <time>2017-05-14T08:32:27Z</time>
      </trkpt>
      <trkpt lat="45.27068" lon="6.61353">
        <ele>2972.53</ele>
        <time>2017-05-14T08:32:32Z</time>
      </trkpt>
      <trkpt lat="45.2706" lon="6.61352">
        <ele>2973.5</ele>
        <time>2017-05-14T08:32:44Z</time>
      </trkpt>
      <trkpt lat="45.27061" lon="6.61352">
        <ele>2976.38</ele>
        <time>2017-05-14T08:32:46Z</time>
      </trkpt>
      <trkpt lat="45.27066" lon="6.61361">
        <ele>2976.86</ele>
        <time>2017-05-14T08:33:00Z</time>
      </trkpt>
      <trkpt lat="45.27066" lon="6.61367">
        <ele>2980.22</ele>
        <time>2017-05-14T08:33:09Z</time>
      </trkpt>
      <trkpt lat="45.27063" lon="6.61375">
        <ele>2981.67</ele>
        <time>2017-05-14T08:33:20Z</time>
      </trkpt>
      <trkpt lat="45.27058" lon="6.61381">
        <ele>2982.15</ele>
        <time>2017-05-14T08:33:35Z</time>
      </trkpt>
      <trkpt lat="45.27058" lon="6.61382">
        <ele>2985.03</ele>
        <time>2017-05-14T08:33:36Z</time>
      </trkpt>
      <trkpt lat="45.27053" lon="6.61393">
        <ele>2985.99</ele>
        <time>2017-05-14T08:33:51Z</time>
      </trkpt>
      <trkpt lat="45.27052" lon="6.61396">
        <ele>2985.51</ele>
        <time>2017-05-14T08:33:57Z</time>
      </trkpt>
      <trkpt lat="45.27052" lon="6.61397">
        <ele>2988.4</ele>
        <time>2017-05-14T08:34:00Z</time>
      </trkpt>
      <trkpt lat="45.27048" lon="6.61407">
        <ele>2989.36</ele>
        <time>2017-05-14T08:34:13Z</time>
      </trkpt>
      <trkpt lat="45.27047" lon="6.61413">
        <ele>2990.8</ele>
        <time>2017-05-14T08:34:25Z</time>
      </trkpt>
      <trkpt lat="45.27048" lon="6.61423">
        <ele>2994.16</ele>
        <time>2017-05-14T08:34:39Z</time>
      </trkpt>
      <trkpt lat="45.27049" lon="6.61428">
        <ele>2993.68</ele>
        <time>2017-05-14T08:34:48Z</time>
      </trkpt>
      <trkpt lat="45.27047" lon="6.61437">
        <ele>2998.01</ele>
        <time>2017-05-14T08:34:58Z</time>
      </trkpt>
      <trkpt lat="45.2705" lon="6.6145">
        <ele>2998.97</ele>
        <time>2017-05-14T08:35:13Z</time>
      </trkpt>
      <trkpt lat="45.27057" lon="6.61455">
        <ele>3001.37</ele>
        <time>2017-05-14T08:35:26Z</time>
      </trkpt>
      <trkpt lat="45.27057" lon="6.61455">
        <ele>3000.89</ele>
        <time>2017-05-14T08:35:27Z</time>
      </trkpt>
      <trkpt lat="45.27058" lon="6.61455">
        <ele>2999.93</ele>
        <time>2017-05-14T08:35:29Z</time>
      </trkpt>
      <trkpt lat="45.27059" lon="6.61456">
        <ele>3001.85</ele>
        <time>2017-05-14T08:35:31Z</time>
      </trkpt>
      <trkpt lat="45.2706" lon="6.61458">
        <ele>3001.85</ele>
        <time>2017-05-14T08:35:35Z</time>
      </trkpt>
      <trkpt lat="45.27065" lon="6.61468">
        <ele>3004.26</ele>
        <time>2017-05-14T08:35:52Z</time>
      </trkpt>
      <trkpt lat="45.27065" lon="6.61481">
        <ele>3005.7</ele>
        <time>2017-05-14T08:36:09Z</time>
      </trkpt>
      <trkpt lat="45.27059" lon="6.61485">
        <ele>3009.54</ele>
        <time>2017-05-14T08:36:24Z</time>
      </trkpt>
      <trkpt lat="45.27053" lon="6.6149">
        <ele>3010.99</ele>
        <time>2017-05-14T08:36:40Z</time>
      </trkpt>
      <trkpt lat="45.27051" lon="6.61491">
        <ele>3010.99</ele>
        <time>2017-05-14T08:36:43Z</time>
      </trkpt>
      <trkpt lat="45.27056" lon="6.61498">
        <ele>3012.91</ele>
        <time>2017-05-14T08:36:56Z</time>
      </trkpt>
      <trkpt lat="45.2706" lon="6.61506">
        <ele>3015.79</ele>
        <time>2017-05-14T08:37:08Z</time>
      </trkpt>
      <trkpt lat="45.2706" lon="6.61507">
        <ele>3015.79</ele>
        <time>2017-05-14T08:37:09Z</time>
      </trkpt>
      <trkpt lat="45.27065" lon="6.61513">
        <ele>3016.27</ele>
        <time>2017-05-14T08:37:21Z</time>
      </trkpt>
      <trkpt lat="45.2707" lon="6.61522">
        <ele>3018.68</ele>
        <time>2017-05-14T08:37:35Z</time>
      </trkpt>
      <trkpt lat="45.27076" lon="6.61528">
        <ele>3020.6</ele>
        <time>2017-05-14T08:37:49Z</time>
      </trkpt>
      <trkpt lat="45.27079" lon="6.61533">
        <ele>3023</ele>
        <time>2017-05-14T08:37:59Z</time>
      </trkpt>
      <trkpt lat="45.27076" lon="6.61535">
        <ele>3023</ele>
        <time>2017-05-14T08:38:06Z</time>
      </trkpt>
      <trkpt lat="45.2707" lon="6.61543">
        <ele>3025.89</ele>
        <time>2017-05-14T08:38:23Z</time>
      </trkpt>
      <trkpt lat="45.27061" lon="6.61546">
        <ele>3027.33</ele>
        <time>2017-05-14T08:38:35Z</time>
      </trkpt>
      <trkpt lat="45.27055" lon="6.61548">
        <ele>3029.73</ele>
        <time>2017-05-14T08:38:48Z</time>
      </trkpt>
      <trkpt lat="45.27053" lon="6.6155">
        <ele>3030.21</ele>
        <time>2017-05-14T08:38:58Z</time>
      </trkpt>
      <trkpt lat="45.27058" lon="6.61558">
        <ele>3032.62</ele>
        <time>2017-05-14T08:39:13Z</time>
      </trkpt>
      <trkpt lat="45.27062" lon="6.61567">
        <ele>3034.06</ele>
        <time>2017-05-14T08:39:28Z</time>
      </trkpt>
      <trkpt lat="45.27067" lon="6.61574">
        <ele>3035.98</ele>
        <time>2017-05-14T08:39:40Z</time>
      </trkpt>
      <trkpt lat="45.27073" lon="6.61581">
        <ele>3036.94</ele>
        <time>2017-05-14T08:39:54Z</time>
      </trkpt>
      <trkpt lat="45.27075" lon="6.61585">
        <ele>3038.86</ele>
        <time>2017-05-14T08:40:03Z</time>
      </trkpt>
      <trkpt lat="45.27075" lon="6.61586">
        <ele>3042.23</ele>
        <time>2017-05-14T08:40:06Z</time>
      </trkpt>
      <trkpt lat="45.27074" lon="6.61587">
        <ele>3036.94</ele>
        <time>2017-05-14T08:40:07Z</time>
      </trkpt>
      <trkpt lat="45.27072" lon="6.61588">
        <ele>3040.31</ele>
        <time>2017-05-14T08:40:13Z</time>
      </trkpt>
      <trkpt lat="45.2707" lon="6.6159">
        <ele>3040.31</ele>
        <time>2017-05-14T08:40:18Z</time>
      </trkpt>
      <trkpt lat="45.27063" lon="6.61594">
        <ele>3042.23</ele>
        <time>2017-05-14T08:40:31Z</time>
      </trkpt>
      <trkpt lat="45.27062" lon="6.61595">
        <ele>3042.71</ele>
        <time>2017-05-14T08:40:32Z</time>
      </trkpt>
      <trkpt lat="45.27056" lon="6.61596">
        <ele>3044.63</ele>
        <time>2017-05-14T08:40:44Z</time>
      </trkpt>
      <trkpt lat="45.27048" lon="6.61598">
        <ele>3046.07</ele>
        <time>2017-05-14T08:41:01Z</time>
      </trkpt>
      <trkpt lat="45.27045" lon="6.616">
        <ele>3047.52</ele>
        <time>2017-05-14T08:41:08Z</time>
      </trkpt>
      <trkpt lat="45.2705" lon="6.61606">
        <ele>3049.44</ele>
        <time>2017-05-14T08:41:22Z</time>
      </trkpt>
      <trkpt lat="45.27055" lon="6.61615">
        <ele>3050.4</ele>
        <time>2017-05-14T08:41:36Z</time>
      </trkpt>
      <trkpt lat="45.27057" lon="6.61621">
        <ele>3053.28</ele>
        <time>2017-05-14T08:41:49Z</time>
      </trkpt>
      <trkpt lat="45.27055" lon="6.61624">
        <ele>3053.28</ele>
        <time>2017-05-14T08:41:53Z</time>
      </trkpt>
      <trkpt lat="45.27047" lon="6.61627">
        <ele>3055.21</ele>
        <time>2017-05-14T08:42:04Z</time>
      </trkpt>
      <trkpt lat="45.27041" lon="6.61626">
        <ele>3058.09</ele>
        <time>2017-05-14T08:42:18Z</time>
      </trkpt>
      <trkpt lat="45.27038" lon="6.61627">
        <ele>3061.46</ele>
        <time>2017-05-14T08:42:29Z</time>
      </trkpt>
      <trkpt lat="45.27038" lon="6.61628">
        <ele>3057.13</ele>
        <time>2017-05-14T08:42:30Z</time>
      </trkpt>
      <trkpt lat="45.27039" lon="6.61631">
        <ele>3060.01</ele>
        <time>2017-05-14T08:42:35Z</time>
      </trkpt>
      <trkpt lat="45.2704" lon="6.61635">
        <ele>3060.01</ele>
        <time>2017-05-14T08:42:41Z</time>
      </trkpt>
      <trkpt lat="45.27044" lon="6.61645">
        <ele>3062.42</ele>
        <time>2017-05-14T08:42:56Z</time>
      </trkpt>
      <trkpt lat="45.27048" lon="6.61651">
        <ele>3064.82</ele>
        <time>2017-05-14T08:43:10Z</time>
      </trkpt>
      <trkpt lat="45.27042" lon="6.61655">
        <ele>3065.3</ele>
        <time>2017-05-14T08:43:23Z</time>
      </trkpt>
      <trkpt lat="45.27034" lon="6.61657">
        <ele>3066.74</ele>
        <time>2017-05-14T08:43:36Z</time>
      </trkpt>
      <trkpt lat="45.27033" lon="6.61657">
        <ele>3068.67</ele>
        <time>2017-05-14T08:43:41Z</time>
      </trkpt>
      <trkpt lat="45.27028" lon="6.61657">
        <ele>3070.11</ele>
        <time>2017-05-14T08:43:50Z</time>
      </trkpt>
      <trkpt lat="45.2703" lon="6.61667">
        <ele>3071.07</ele>
        <time>2017-05-14T08:44:04Z</time>
      </trkpt>
      <trkpt lat="45.2703" lon="6.61675">
        <ele>3074.43</ele>
        <time>2017-05-14T08:44:18Z</time>
      </trkpt>
      <trkpt lat="45.27029" lon="6.61675">
        <ele>3074.91</ele>
        <time>2017-05-14T08:44:19Z</time>
      </trkpt>
      <trkpt lat="45.27022" lon="6.6168">
        <ele>3075.88</ele>
        <time>2017-05-14T08:44:31Z</time>
      </trkpt>
      <trkpt lat="45.27021" lon="6.61681">
        <ele>3076.84</ele>
        <time>2017-05-14T08:44:35Z</time>
      </trkpt>
      <trkpt lat="45.27018" lon="6.61685">
        <ele>3078.76</ele>
        <time>2017-05-14T08:44:49Z</time>
      </trkpt>
      <trkpt lat="45.27012" lon="6.61689">
        <ele>3080.2</ele>
        <time>2017-05-14T08:45:01Z</time>
      </trkpt>
      <trkpt lat="45.27009" lon="6.61697">
        <ele>3082.6</ele>
        <time>2017-05-14T08:45:16Z</time>
      </trkpt>
      <trkpt lat="45.27008" lon="6.61705">
        <ele>3083.57</ele>
        <time>2017-05-14T08:45:30Z</time>
      </trkpt>
      <trkpt lat="45.2701" lon="6.61714">
        <ele>3085.97</ele>
        <time>2017-05-14T08:45:43Z</time>
      </trkpt>
      <trkpt lat="45.27012" lon="6.61719">
        <ele>3087.41</ele>
        <time>2017-05-14T08:45:56Z</time>
      </trkpt>
      <trkpt lat="45.27016" lon="6.61727">
        <ele>3089.33</ele>
        <time>2017-05-14T08:46:09Z</time>
      </trkpt>
      <trkpt lat="45.27016" lon="6.61728">
        <ele>3090.29</ele>
        <time>2017-05-14T08:46:12Z</time>
      </trkpt>
      <trkpt lat="45.2702" lon="6.61732">
        <ele>3090.78</ele>
        <time>2017-05-14T08:46:20Z</time>
      </trkpt>
      <trkpt lat="45.27027" lon="6.61737">
        <ele>3091.74</ele>
        <time>2017-05-14T08:46:34Z</time>
      </trkpt>
      <trkpt lat="45.27032" lon="6.61741">
        <ele>3093.18</ele>
        <time>2017-05-14T08:46:49Z</time>
      </trkpt>
      <trkpt lat="45.27033" lon="6.61742">
        <ele>3095.1</ele>
        <time>2017-05-14T08:46:51Z</time>
      </trkpt>
      <trkpt lat="45.27041" lon="6.61748">
        <ele>3096.54</ele>
        <time>2017-05-14T08:47:08Z</time>
      </trkpt>
      <trkpt lat="45.27042" lon="6.61748">
        <ele>3097.51</ele>
        <time>2017-05-14T08:47:11Z</time>
      </trkpt>
      <trkpt lat="45.27043" lon="6.61751">
        <ele>3096.06</ele>
        <time>2017-05-14T08:47:26Z</time>
      </trkpt>
      <trkpt lat="45.27043" lon="6.61752">
        <ele>3100.87</ele>
        <time>2017-05-14T08:47:28Z</time>
      </trkpt>
      <trkpt lat="45.27043" lon="6.61752">
        <ele>3098.95</ele>
        <time>2017-05-14T08:47:29Z</time>
      </trkpt>
      <trkpt lat="45.27049" lon="6.61755">
        <ele>3099.91</ele>
        <time>2017-05-14T08:47:41Z</time>
      </trkpt>
      <trkpt lat="45.27051" lon="6.61756">
        <ele>3100.87</ele>
        <time>2017-05-14T08:47:46Z</time>
      </trkpt>
      <trkpt lat="45.27057" lon="6.61762">
        <ele>3100.87</ele>
        <time>2017-05-14T08:48:01Z</time>
      </trkpt>
      <trkpt lat="45.27062" lon="6.61767">
        <ele>3104.71</ele>
        <time>2017-05-14T08:48:12Z</time>
      </trkpt>
      <trkpt lat="45.27064" lon="6.61769">
        <ele>3105.2</ele>
        <time>2017-05-14T08:48:18Z</time>
      </trkpt>
      <trkpt lat="45.27073" lon="6.6178">
        <ele>3106.64</ele>
        <time>2017-05-14T08:48:36Z</time>
      </trkpt>
      <trkpt lat="45.27081" lon="6.61787">
        <ele>3108.08</ele>
        <time>2017-05-14T08:48:49Z</time>
      </trkpt>
      <trkpt lat="45.27088" lon="6.61795">
        <ele>3108.56</ele>
        <time>2017-05-14T08:49:04Z</time>
      </trkpt>
      <trkpt lat="45.27094" lon="6.61802">
        <ele>3110.48</ele>
        <time>2017-05-14T08:49:17Z</time>
      </trkpt>
      <trkpt lat="45.271" lon="6.61808">
        <ele>3110</ele>
        <time>2017-05-14T08:49:29Z</time>
      </trkpt>
      <trkpt lat="45.27106" lon="6.61815">
        <ele>3113.37</ele>
        <time>2017-05-14T08:49:42Z</time>
      </trkpt>
      <trkpt lat="45.27112" lon="6.61822">
        <ele>3114.81</ele>
        <time>2017-05-14T08:49:54Z</time>
      </trkpt>
      <trkpt lat="45.27116" lon="6.61827">
        <ele>3115.77</ele>
        <time>2017-05-14T08:50:07Z</time>
      </trkpt>
      <trkpt lat="45.27121" lon="6.61833">
        <ele>3117.69</ele>
        <time>2017-05-14T08:50:20Z</time>
      </trkpt>
      <trkpt lat="45.27128" lon="6.61838">
        <ele>3117.69</ele>
        <time>2017-05-14T08:50:33Z</time>
      </trkpt>
      <trkpt lat="45.27134" lon="6.61844">
        <ele>3120.58</ele>
        <time>2017-05-14T08:50:51Z</time>
      </trkpt>
      <trkpt lat="45.27138" lon="6.61848">
        <ele>3121.54</ele>
        <time>2017-05-14T08:51:01Z</time>
      </trkpt>
      <trkpt lat="45.27142" lon="6.61852">
        <ele>3123.46</ele>
        <time>2017-05-14T08:51:16Z</time>
      </trkpt>
      <trkpt lat="45.27148" lon="6.61854">
        <ele>3125.38</ele>
        <time>2017-05-14T08:51:27Z</time>
      </trkpt>
      <trkpt lat="45.27154" lon="6.61857">
        <ele>3126.83</ele>
        <time>2017-05-14T08:51:38Z</time>
      </trkpt>
      <trkpt lat="45.27161" lon="6.6186">
        <ele>3128.75</ele>
        <time>2017-05-14T08:51:53Z</time>
      </trkpt>
      <trkpt lat="45.27166" lon="6.61863">
        <ele>3130.67</ele>
        <time>2017-05-14T08:52:06Z</time>
      </trkpt>
      <trkpt lat="45.27169" lon="6.61864">
        <ele>3131.15</ele>
        <time>2017-05-14T08:52:11Z</time>
      </trkpt>
      <trkpt lat="45.27174" lon="6.61867">
        <ele>3133.07</ele>
        <time>2017-05-14T08:52:25Z</time>
      </trkpt>
      <trkpt lat="45.27178" lon="6.61869">
        <ele>3134.52</ele>
        <time>2017-05-14T08:52:36Z</time>
      </trkpt>
      <trkpt lat="45.27184" lon="6.61872">
        <ele>3135.96</ele>
        <time>2017-05-14T08:52:49Z</time>
      </trkpt>
      <trkpt lat="45.27189" lon="6.61874">
        <ele>3138.36</ele>
        <time>2017-05-14T08:53:03Z</time>
      </trkpt>
      <trkpt lat="45.27196" lon="6.61875">
        <ele>3139.32</ele>
        <time>2017-05-14T08:53:17Z</time>
      </trkpt>
      <trkpt lat="45.272" lon="6.61876">
        <ele>3141.25</ele>
        <time>2017-05-14T08:53:28Z</time>
      </trkpt>
      <trkpt lat="45.27207" lon="6.61876">
        <ele>3142.21</ele>
        <time>2017-05-14T08:53:43Z</time>
      </trkpt>
      <trkpt lat="45.27215" lon="6.61877">
        <ele>3144.61</ele>
        <time>2017-05-14T08:53:57Z</time>
      </trkpt>
      <trkpt lat="45.2722" lon="6.61879">
        <ele>3145.09</ele>
        <time>2017-05-14T08:54:10Z</time>
      </trkpt>
      <trkpt lat="45.27221" lon="6.61879">
        <ele>3147.01</ele>
        <time>2017-05-14T08:54:13Z</time>
      </trkpt>
      <trkpt lat="45.27225" lon="6.61879">
        <ele>3147.49</ele>
        <time>2017-05-14T08:54:20Z</time>
      </trkpt>
      <trkpt lat="45.27231" lon="6.6188">
        <ele>3149.42</ele>
        <time>2017-05-14T08:54:32Z</time>
      </trkpt>
      <trkpt lat="45.27235" lon="6.6188">
        <ele>3150.38</ele>
        <time>2017-05-14T08:54:42Z</time>
      </trkpt>
      <trkpt lat="45.2724" lon="6.61883">
        <ele>3152.3</ele>
        <time>2017-05-14T08:54:56Z</time>
      </trkpt>
      <trkpt lat="45.27247" lon="6.61885">
        <ele>3153.74</ele>
        <time>2017-05-14T08:55:12Z</time>
      </trkpt>
      <trkpt lat="45.27249" lon="6.61885">
        <ele>3154.22</ele>
        <time>2017-05-14T08:55:19Z</time>
      </trkpt>
      <trkpt lat="45.2725" lon="6.61885">
        <ele>3155.18</ele>
        <time>2017-05-14T08:55:21Z</time>
      </trkpt>
      <trkpt lat="45.27255" lon="6.61885">
        <ele>3155.18</ele>
        <time>2017-05-14T08:55:31Z</time>
      </trkpt>
      <trkpt lat="45.27255" lon="6.61885">
        <ele>3158.55</ele>
        <time>2017-05-14T08:55:32Z</time>
      </trkpt>
      <trkpt lat="45.27256" lon="6.61885">
        <ele>3158.07</ele>
        <time>2017-05-14T08:55:33Z</time>
      </trkpt>
      <trkpt lat="45.27261" lon="6.61887">
        <ele>3158.07</ele>
        <time>2017-05-14T08:55:44Z</time>
      </trkpt>
      <trkpt lat="45.27265" lon="6.61887">
        <ele>3159.99</ele>
        <time>2017-05-14T08:55:56Z</time>
      </trkpt>
      <trkpt lat="45.2727" lon="6.61887">
        <ele>3160.95</ele>
        <time>2017-05-14T08:56:08Z</time>
      </trkpt>
      <trkpt lat="45.27274" lon="6.61887">
        <ele>3162.88</ele>
        <time>2017-05-14T08:56:18Z</time>
      </trkpt>
      <trkpt lat="45.27278" lon="6.61886">
        <ele>3164.32</ele>
        <time>2017-05-14T08:56:30Z</time>
      </trkpt>
      <trkpt lat="45.27279" lon="6.61886">
        <ele>3164.32</ele>
        <time>2017-05-14T08:56:31Z</time>
      </trkpt>
      <trkpt lat="45.27284" lon="6.61886">
        <ele>3165.28</ele>
        <time>2017-05-14T08:56:44Z</time>
      </trkpt>
      <trkpt lat="45.27289" lon="6.61882">
        <ele>3167.68</ele>
        <time>2017-05-14T08:56:55Z</time>
      </trkpt>
      <trkpt lat="45.27294" lon="6.61884">
        <ele>3170.08</ele>
        <time>2017-05-14T08:57:08Z</time>
      </trkpt>
      <trkpt lat="45.27296" lon="6.61881">
        <ele>3170.08</ele>
        <time>2017-05-14T08:57:15Z</time>
      </trkpt>
      <trkpt lat="45.27301" lon="6.61882">
        <ele>3170.57</ele>
        <time>2017-05-14T08:57:28Z</time>
      </trkpt>
      <trkpt lat="45.27305" lon="6.61882">
        <ele>3172.49</ele>
        <time>2017-05-14T08:57:40Z</time>
      </trkpt>
      <trkpt lat="45.27311" lon="6.61882">
        <ele>3173.45</ele>
        <time>2017-05-14T08:57:53Z</time>
      </trkpt>
      <trkpt lat="45.27313" lon="6.61881">
        <ele>3176.81</ele>
        <time>2017-05-14T08:57:58Z</time>
      </trkpt>
      <trkpt lat="45.27317" lon="6.61873">
        <ele>3176.33</ele>
        <time>2017-05-14T08:58:12Z</time>
      </trkpt>
      <trkpt lat="45.27321" lon="6.6187">
        <ele>3177.29</ele>
        <time>2017-05-14T08:58:24Z</time>
      </trkpt>
      <trkpt lat="45.27323" lon="6.61868">
        <ele>3178.74</ele>
        <time>2017-05-14T08:58:31Z</time>
      </trkpt>
      <trkpt lat="45.27325" lon="6.61867">
        <ele>3179.7</ele>
        <time>2017-05-14T08:58:35Z</time>
      </trkpt>
      <trkpt lat="45.27328" lon="6.61861">
        <ele>3180.18</ele>
        <time>2017-05-14T08:58:46Z</time>
      </trkpt>
      <trkpt lat="45.27331" lon="6.61859">
        <ele>3182.1</ele>
        <time>2017-05-14T08:58:57Z</time>
      </trkpt>
      <trkpt lat="45.27334" lon="6.61857">
        <ele>3183.06</ele>
        <time>2017-05-14T08:59:08Z</time>
      </trkpt>
      <trkpt lat="45.27338" lon="6.61854">
        <ele>3184.5</ele>
        <time>2017-05-14T08:59:18Z</time>
      </trkpt>
      <trkpt lat="45.27341" lon="6.61846">
        <ele>3185.95</ele>
        <time>2017-05-14T08:59:30Z</time>
      </trkpt>
      <trkpt lat="45.27342" lon="6.61835">
        <ele>3187.87</ele>
        <time>2017-05-14T08:59:41Z</time>
      </trkpt>
      <trkpt lat="45.27347" lon="6.61833">
        <ele>3188.83</ele>
        <time>2017-05-14T08:59:53Z</time>
      </trkpt>
      <trkpt lat="45.27352" lon="6.61841">
        <ele>3189.31</ele>
        <time>2017-05-14T09:00:03Z</time>
      </trkpt>
      <trkpt lat="45.27355" lon="6.61851">
        <ele>3191.23</ele>
        <time>2017-05-14T09:00:16Z</time>
      </trkpt>
      <trkpt lat="45.27356" lon="6.61854">
        <ele>3191.71</ele>
        <time>2017-05-14T09:00:21Z</time>
      </trkpt>
      <trkpt lat="45.27358" lon="6.61859">
        <ele>3193.16</ele>
        <time>2017-05-14T09:00:34Z</time>
      </trkpt>
      <trkpt lat="45.27361" lon="6.61865">
        <ele>3194.12</ele>
        <time>2017-05-14T09:00:45Z</time>
      </trkpt>
      <trkpt lat="45.27362" lon="6.61866">
        <ele>3195.56</ele>
        <time>2017-05-14T09:00:51Z</time>
      </trkpt>
      <trkpt lat="45.27363" lon="6.61868">
        <ele>3194.12</ele>
        <time>2017-05-14T09:00:53Z</time>
      </trkpt>
      <trkpt lat="45.27366" lon="6.61872">
        <ele>3195.56</ele>
        <time>2017-05-14T09:01:03Z</time>
      </trkpt>
      <trkpt lat="45.27369" lon="6.61877">
        <ele>3197.96</ele>
        <time>2017-05-14T09:01:15Z</time>
      </trkpt>
      <trkpt lat="45.27373" lon="6.61884">
        <ele>3198.92</ele>
        <time>2017-05-14T09:01:26Z</time>
      </trkpt>
      <trkpt lat="45.27378" lon="6.61889">
        <ele>3201.33</ele>
        <time>2017-05-14T09:01:37Z</time>
      </trkpt>
      <trkpt lat="45.27379" lon="6.61893">
        <ele>3200.37</ele>
        <time>2017-05-14T09:01:49Z</time>
      </trkpt>
      <trkpt lat="45.27382" lon="6.61899">
        <ele>3202.29</ele>
        <time>2017-05-14T09:02:01Z</time>
      </trkpt>
      <trkpt lat="45.27386" lon="6.61907">
        <ele>3203.25</ele>
        <time>2017-05-14T09:02:14Z</time>
      </trkpt>
      <trkpt lat="45.27389" lon="6.6191">
        <ele>3205.65</ele>
        <time>2017-05-14T09:02:26Z</time>
      </trkpt>
      <trkpt lat="45.27392" lon="6.61914">
        <ele>3206.13</ele>
        <time>2017-05-14T09:02:38Z</time>
      </trkpt>
      <trkpt lat="45.27396" lon="6.61911">
        <ele>3209.5</ele>
        <time>2017-05-14T09:02:48Z</time>
      </trkpt>
      <trkpt lat="45.27401" lon="6.61906">
        <ele>3209.02</ele>
        <time>2017-05-14T09:03:02Z</time>
      </trkpt>
      <trkpt lat="45.27405" lon="6.619">
        <ele>3211.42</ele>
        <time>2017-05-14T09:03:16Z</time>
      </trkpt>
      <trkpt lat="45.27407" lon="6.61896">
        <ele>3211.42</ele>
        <time>2017-05-14T09:03:23Z</time>
      </trkpt>
      <trkpt lat="45.27412" lon="6.61889">
        <ele>3214.31</ele>
        <time>2017-05-14T09:03:35Z</time>
      </trkpt>
      <trkpt lat="45.27419" lon="6.61883">
        <ele>3215.75</ele>
        <time>2017-05-14T09:03:52Z</time>
      </trkpt>
      <trkpt lat="45.27424" lon="6.61876">
        <ele>3216.23</ele>
        <time>2017-05-14T09:04:05Z</time>
      </trkpt>
      <trkpt lat="45.27431" lon="6.61871">
        <ele>3217.67</ele>
        <time>2017-05-14T09:04:17Z</time>
      </trkpt>
      <trkpt lat="45.27437" lon="6.61867">
        <ele>3219.11</ele>
        <time>2017-05-14T09:04:28Z</time>
      </trkpt>
      <trkpt lat="45.27441" lon="6.61863">
        <ele>3220.55</ele>
        <time>2017-05-14T09:04:42Z</time>
      </trkpt>
      <trkpt lat="45.27448" lon="6.61859">
        <ele>3221.52</ele>
        <time>2017-05-14T09:04:55Z</time>
      </trkpt>
      <trkpt lat="45.27454" lon="6.61855">
        <ele>3224.88</ele>
        <time>2017-05-14T09:05:04Z</time>
      </trkpt>
      <trkpt lat="45.27461" lon="6.61848">
        <ele>3225.84</ele>
        <time>2017-05-14T09:05:19Z</time>
      </trkpt>
      <trkpt lat="45.27466" lon="6.61842">
        <ele>3227.76</ele>
        <time>2017-05-14T09:05:33Z</time>
      </trkpt>
      <trkpt lat="45.2747" lon="6.61836">
        <ele>3229.21</ele>
        <time>2017-05-14T09:05:47Z</time>
      </trkpt>
      <trkpt lat="45.2747" lon="6.61833">
        <ele>3230.17</ele>
        <time>2017-05-14T09:05:55Z</time>
      </trkpt>
      <trkpt lat="45.27473" lon="6.6183">
        <ele>3232.57</ele>
        <time>2017-05-14T09:06:07Z</time>
      </trkpt>
      <trkpt lat="45.27474" lon="6.61835">
        <ele>3233.05</ele>
        <time>2017-05-14T09:06:11Z</time>
      </trkpt>
      <trkpt lat="45.27476" lon="6.61843">
        <ele>3234.01</ele>
        <time>2017-05-14T09:06:23Z</time>
      </trkpt>
      <trkpt lat="45.27478" lon="6.61854">
        <ele>3234.97</ele>
        <time>2017-05-14T09:06:37Z</time>
      </trkpt>
      <trkpt lat="45.27482" lon="6.61862">
        <ele>3236.9</ele>
        <time>2017-05-14T09:06:51Z</time>
      </trkpt>
      <trkpt lat="45.27484" lon="6.61872">
        <ele>3238.82</ele>
        <time>2017-05-14T09:07:04Z</time>
      </trkpt>
      <trkpt lat="45.27486" lon="6.61877">
        <ele>3241.22</ele>
        <time>2017-05-14T09:07:18Z</time>
      </trkpt>
      <trkpt lat="45.2749" lon="6.61869">
        <ele>3242.66</ele>
        <time>2017-05-14T09:07:31Z</time>
      </trkpt>
      <trkpt lat="45.27493" lon="6.61863">
        <ele>3244.11</ele>
        <time>2017-05-14T09:07:45Z</time>
      </trkpt>
      <trkpt lat="45.27501" lon="6.61858">
        <ele>3245.55</ele>
        <time>2017-05-14T09:08:01Z</time>
      </trkpt>
      <trkpt lat="45.27504" lon="6.61856">
        <ele>3246.99</ele>
        <time>2017-05-14T09:08:14Z</time>
      </trkpt>
      <trkpt lat="45.27504" lon="6.61857">
        <ele>3247.95</ele>
        <time>2017-05-14T09:08:31Z</time>
      </trkpt>
      <trkpt lat="45.27505" lon="6.61858">
        <ele>3247.95</ele>
        <time>2017-05-14T09:08:54Z</time>
      </trkpt>
      <trkpt lat="45.27507" lon="6.61867">
        <ele>3249.39</ele>
        <time>2017-05-14T09:09:07Z</time>
      </trkpt>
      <trkpt lat="45.2751" lon="6.6188">
        <ele>3250.35</ele>
        <time>2017-05-14T09:09:20Z</time>
      </trkpt>
      <trkpt lat="45.27511" lon="6.6189">
        <ele>3252.76</ele>
        <time>2017-05-14T09:09:35Z</time>
      </trkpt>
      <trkpt lat="45.27514" lon="6.61902">
        <ele>3254.68</ele>
        <time>2017-05-14T09:09:48Z</time>
      </trkpt>
      <trkpt lat="45.27515" lon="6.61913">
        <ele>3255.64</ele>
        <time>2017-05-14T09:10:06Z</time>
      </trkpt>
      <trkpt lat="45.27516" lon="6.61924">
        <ele>3257.08</ele>
        <time>2017-05-14T09:10:19Z</time>
      </trkpt>
      <trkpt lat="45.27517" lon="6.61932">
        <ele>3258.05</ele>
        <time>2017-05-14T09:10:34Z</time>
      </trkpt>
      <trkpt lat="45.27518" lon="6.61943">
        <ele>3259.97</ele>
        <time>2017-05-14T09:10:47Z</time>
      </trkpt>
      <trkpt lat="45.2752" lon="6.61951">
        <ele>3259.97</ele>
        <time>2017-05-14T09:11:00Z</time>
      </trkpt>
      <trkpt lat="45.27518" lon="6.61951">
        <ele>3261.89</ele>
        <time>2017-05-14T09:11:21Z</time>
      </trkpt>
      <trkpt lat="45.2752" lon="6.61963">
        <ele>3262.85</ele>
        <time>2017-05-14T09:11:36Z</time>
      </trkpt>
      <trkpt lat="45.27522" lon="6.61972">
        <ele>3264.77</ele>
        <time>2017-05-14T09:11:50Z</time>
      </trkpt>
      <trkpt lat="45.27524" lon="6.61984">
        <ele>3265.74</ele>
        <time>2017-05-14T09:12:04Z</time>
      </trkpt>
      <trkpt lat="45.27522" lon="6.61993">
        <ele>3268.14</ele>
        <time>2017-05-14T09:12:18Z</time>
      </trkpt>
      <trkpt lat="45.27523" lon="6.61998">
        <ele>3269.58</ele>
        <time>2017-05-14T09:12:26Z</time>
      </trkpt>
      <trkpt lat="45.27522" lon="6.62005">
        <ele>3270.06</ele>
        <time>2017-05-14T09:12:42Z</time>
      </trkpt>
      <trkpt lat="45.27523" lon="6.6201">
        <ele>3270.54</ele>
        <time>2017-05-14T09:12:57Z</time>
      </trkpt>
      <trkpt lat="45.2752" lon="6.62018">
        <ele>3273.43</ele>
        <time>2017-05-14T09:13:10Z</time>
      </trkpt>
      <trkpt lat="45.27519" lon="6.62027">
        <ele>3274.39</ele>
        <time>2017-05-14T09:13:22Z</time>
      </trkpt>
      <trkpt lat="45.27519" lon="6.62037">
        <ele>3275.83</ele>
        <time>2017-05-14T09:13:34Z</time>
      </trkpt>
      <trkpt lat="45.27519" lon="6.62039">
        <ele>3276.79</ele>
        <time>2017-05-14T09:13:36Z</time>
      </trkpt>
      <trkpt lat="45.27519" lon="6.62049">
        <ele>3277.75</ele>
        <time>2017-05-14T09:13:48Z</time>
      </trkpt>
      <trkpt lat="45.27518" lon="6.62052">
        <ele>3279.67</ele>
        <time>2017-05-14T09:13:55Z</time>
      </trkpt>
      <trkpt lat="45.2752" lon="6.62059">
        <ele>3281.12</ele>
        <time>2017-05-14T09:14:09Z</time>
      </trkpt>
      <trkpt lat="45.27519" lon="6.62065">
        <ele>3280.64</ele>
        <time>2017-05-14T09:14:24Z</time>
      </trkpt>
      <trkpt lat="45.27522" lon="6.62069">
        <ele>3282.56</ele>
        <time>2017-05-14T09:14:35Z</time>
      </trkpt>
      <trkpt lat="45.27523" lon="6.62073">
        <ele>3283.52</ele>
        <time>2017-05-14T09:14:40Z</time>
      </trkpt>
      <trkpt lat="45.27523" lon="6.62073">
        <ele>3284.96</ele>
        <time>2017-05-14T09:32:23Z</time>
      </trkpt>
      <trkpt lat="45.27529" lon="6.62105">
        <ele>3290.73</ele>
        <time>2017-05-14T09:36:01Z</time>
      </trkpt>
      <trkpt lat="45.27531" lon="6.62109">
        <ele>3291.69</ele>
        <time>2017-05-14T09:36:07Z</time>
      </trkpt>
      <trkpt lat="45.27532" lon="6.62111">
        <ele>3290.25</ele>
        <time>2017-05-14T09:36:09Z</time>
      </trkpt>
      <trkpt lat="45.27534" lon="6.62119">
        <ele>3293.61</ele>
        <time>2017-05-14T09:36:21Z</time>
      </trkpt>
      <trkpt lat="45.27537" lon="6.62127">
        <ele>3294.58</ele>
        <time>2017-05-14T09:36:35Z</time>
      </trkpt>
      <trkpt lat="45.27539" lon="6.62132">
        <ele>3297.94</ele>
        <time>2017-05-14T09:36:41Z</time>
      </trkpt>
      <trkpt lat="45.27539" lon="6.62132">
        <ele>3294.09</ele>
        <time>2017-05-14T09:36:42Z</time>
      </trkpt>
      <trkpt lat="45.2754" lon="6.62137">
        <ele>3296.98</ele>
        <time>2017-05-14T09:36:46Z</time>
      </trkpt>
      <trkpt lat="45.27542" lon="6.62141">
        <ele>3296.02</ele>
        <time>2017-05-14T09:36:52Z</time>
      </trkpt>
      <trkpt lat="45.27544" lon="6.62142">
        <ele>3298.9</ele>
        <time>2017-05-14T09:36:56Z</time>
      </trkpt>
      <trkpt lat="45.27548" lon="6.62148">
        <ele>3297.94</ele>
        <time>2017-05-14T09:37:09Z</time>
      </trkpt>
      <trkpt lat="45.27551" lon="6.6215">
        <ele>3301.3</ele>
        <time>2017-05-14T09:37:17Z</time>
      </trkpt>
      <trkpt lat="45.27552" lon="6.6215">
        <ele>3301.3</ele>
        <time>2017-05-14T09:37:18Z</time>
      </trkpt>
      <trkpt lat="45.27556" lon="6.62154">
        <ele>3302.27</ele>
        <time>2017-05-14T09:37:31Z</time>
      </trkpt>
      <trkpt lat="45.27557" lon="6.62165">
        <ele>3303.71</ele>
        <time>2017-05-14T09:37:46Z</time>
      </trkpt>
      <trkpt lat="45.27553" lon="6.62176">
        <ele>3307.55</ele>
        <time>2017-05-14T09:38:03Z</time>
      </trkpt>
      <trkpt lat="45.27554" lon="6.62183">
        <ele>3306.59</ele>
        <time>2017-05-14T09:38:16Z</time>
      </trkpt>
      <trkpt lat="45.27555" lon="6.62189">
        <ele>3309.96</ele>
        <time>2017-05-14T09:38:29Z</time>
      </trkpt>
      <trkpt lat="45.27557" lon="6.62196">
        <ele>3310.92</ele>
        <time>2017-05-14T09:38:41Z</time>
      </trkpt>
      <trkpt lat="45.27559" lon="6.62202">
        <ele>3313.32</ele>
        <time>2017-05-14T09:38:52Z</time>
      </trkpt>
      <trkpt lat="45.2756" lon="6.62209">
        <ele>3313.32</ele>
        <time>2017-05-14T09:39:05Z</time>
      </trkpt>
      <trkpt lat="45.27559" lon="6.62219">
        <ele>3313.8</ele>
        <time>2017-05-14T09:39:19Z</time>
      </trkpt>
      <trkpt lat="45.27559" lon="6.62223">
        <ele>3314.76</ele>
        <time>2017-05-14T09:39:22Z</time>
      </trkpt>
      <trkpt lat="45.27559" lon="6.62231">
        <ele>3317.17</ele>
        <time>2017-05-14T09:39:36Z</time>
      </trkpt>
      <trkpt lat="45.2756" lon="6.62241">
        <ele>3317.65</ele>
        <time>2017-05-14T09:39:50Z</time>
      </trkpt>
      <trkpt lat="45.2756" lon="6.62243">
        <ele>3319.09</ele>
        <time>2017-05-14T09:39:54Z</time>
      </trkpt>
      <trkpt lat="45.27562" lon="6.62251">
        <ele>3319.09</ele>
        <time>2017-05-14T09:40:11Z</time>
      </trkpt>
      <trkpt lat="45.27562" lon="6.62263">
        <ele>3318.61</ele>
        <time>2017-05-14T09:40:24Z</time>
      </trkpt>
      <trkpt lat="45.27564" lon="6.62274">
        <ele>3319.57</ele>
        <time>2017-05-14T09:40:38Z</time>
      </trkpt>
      <trkpt lat="45.27564" lon="6.62277">
        <ele>3321.49</ele>
        <time>2017-05-14T09:40:42Z</time>
      </trkpt>
      <trkpt lat="45.27564" lon="6.62293">
        <ele>3321.97</ele>
        <time>2017-05-14T09:41:00Z</time>
      </trkpt>
      <trkpt lat="45.27564" lon="6.62308">
        <ele>3323.42</ele>
        <time>2017-05-14T09:41:16Z</time>
      </trkpt>
      <trkpt lat="45.27564" lon="6.62313">
        <ele>3322.93</ele>
        <time>2017-05-14T09:41:26Z</time>
      </trkpt>
      <trkpt lat="45.27566" lon="6.62325">
        <ele>3324.86</ele>
        <time>2017-05-14T09:41:41Z</time>
      </trkpt>
      <trkpt lat="45.27567" lon="6.62329">
        <ele>3325.82</ele>
        <time>2017-05-14T09:41:48Z</time>
      </trkpt>
      <trkpt lat="45.2757" lon="6.62342">
        <ele>3325.82</ele>
        <time>2017-05-14T09:42:02Z</time>
      </trkpt>
      <trkpt lat="45.2757" lon="6.62345">
        <ele>3327.26</ele>
        <time>2017-05-14T09:42:05Z</time>
      </trkpt>
      <trkpt lat="45.27573" lon="6.62357">
        <ele>3327.74</ele>
        <time>2017-05-14T09:42:21Z</time>
      </trkpt>
      <trkpt lat="45.27576" lon="6.62373">
        <ele>3330.14</ele>
        <time>2017-05-14T09:42:37Z</time>
      </trkpt>
      <trkpt lat="45.27577" lon="6.62385">
        <ele>3331.11</ele>
        <time>2017-05-14T09:42:49Z</time>
      </trkpt>
      <trkpt lat="45.27577" lon="6.62394">
        <ele>3330.14</ele>
        <time>2017-05-14T09:43:03Z</time>
      </trkpt>
      <trkpt lat="45.27577" lon="6.62406">
        <ele>3333.51</ele>
        <time>2017-05-14T09:43:17Z</time>
      </trkpt>
      <trkpt lat="45.27577" lon="6.62425">
        <ele>3333.99</ele>
        <time>2017-05-14T09:43:37Z</time>
      </trkpt>
      <trkpt lat="45.27577" lon="6.62443">
        <ele>3334.47</ele>
        <time>2017-05-14T09:43:56Z</time>
      </trkpt>
      <trkpt lat="45.27577" lon="6.62444">
        <ele>3336.39</ele>
        <time>2017-05-14T09:43:58Z</time>
      </trkpt>
      <trkpt lat="45.27579" lon="6.62452">
        <ele>3336.87</ele>
        <time>2017-05-14T09:44:06Z</time>
      </trkpt>
      <trkpt lat="45.27583" lon="6.62466">
        <ele>3337.83</ele>
        <time>2017-05-14T09:44:22Z</time>
      </trkpt>
      <trkpt lat="45.27587" lon="6.6248">
        <ele>3338.32</ele>
        <time>2017-05-14T09:44:37Z</time>
      </trkpt>
      <trkpt lat="45.27591" lon="6.62497">
        <ele>3340.24</ele>
        <time>2017-05-14T09:44:56Z</time>
      </trkpt>
      <trkpt lat="45.27593" lon="6.6251">
        <ele>3341.68</ele>
        <time>2017-05-14T09:45:11Z</time>
      </trkpt>
      <trkpt lat="45.27596" lon="6.62523">
        <ele>3342.64</ele>
        <time>2017-05-14T09:45:25Z</time>
      </trkpt>
      <trkpt lat="45.27599" lon="6.62535">
        <ele>3343.6</ele>
        <time>2017-05-14T09:45:41Z</time>
      </trkpt>
      <trkpt lat="45.27601" lon="6.62548">
        <ele>3345.04</ele>
        <time>2017-05-14T09:45:58Z</time>
      </trkpt>
      <trkpt lat="45.27604" lon="6.6256">
        <ele>3345.52</ele>
        <time>2017-05-14T09:46:13Z</time>
      </trkpt>
      <trkpt lat="45.27607" lon="6.62571">
        <ele>3346.97</ele>
        <time>2017-05-14T09:46:29Z</time>
      </trkpt>
      <trkpt lat="45.2761" lon="6.62583">
        <ele>3348.89</ele>
        <time>2017-05-14T09:46:43Z</time>
      </trkpt>
      <trkpt lat="45.27615" lon="6.62597">
        <ele>3349.85</ele>
        <time>2017-05-14T09:47:04Z</time>
      </trkpt>
      <trkpt lat="45.27618" lon="6.62606">
        <ele>3352.74</ele>
        <time>2017-05-14T09:47:16Z</time>
      </trkpt>
      <trkpt lat="45.2762" lon="6.62608">
        <ele>3352.25</ele>
        <time>2017-05-14T09:47:23Z</time>
      </trkpt>
      <trkpt lat="45.27622" lon="6.62617">
        <ele>3353.7</ele>
        <time>2017-05-14T09:47:37Z</time>
      </trkpt>
      <trkpt lat="45.27625" lon="6.62623">
        <ele>3354.66</ele>
        <time>2017-05-14T09:47:49Z</time>
      </trkpt>
      <trkpt lat="45.27626" lon="6.6263">
        <ele>3356.58</ele>
        <time>2017-05-14T09:48:02Z</time>
      </trkpt>
      <trkpt lat="45.2763" lon="6.62637">
        <ele>3356.58</ele>
        <time>2017-05-14T09:48:16Z</time>
      </trkpt>
      <trkpt lat="45.27632" lon="6.62639">
        <ele>3359.95</ele>
        <time>2017-05-14T09:48:25Z</time>
      </trkpt>
      <trkpt lat="45.27632" lon="6.62643">
        <ele>3359.46</ele>
        <time>2017-05-14T09:48:36Z</time>
      </trkpt>
      <trkpt lat="45.27635" lon="6.62647">
        <ele>3361.39</ele>
        <time>2017-05-14T09:48:48Z</time>
      </trkpt>
      <trkpt lat="45.27637" lon="6.62649">
        <ele>3360.43</ele>
        <time>2017-05-14T09:48:55Z</time>
      </trkpt>
      <trkpt lat="45.27639" lon="6.62651">
        <ele>3362.83</ele>
        <time>2017-05-14T09:49:03Z</time>
      </trkpt>
      <trkpt lat="45.27643" lon="6.62655">
        <ele>3363.79</ele>
        <time>2017-05-14T09:49:14Z</time>
      </trkpt>
      <trkpt lat="45.27646" lon="6.62658">
        <ele>3364.75</ele>
        <time>2017-05-14T09:49:26Z</time>
      </trkpt>
      <trkpt lat="45.27649" lon="6.62662">
        <ele>3366.19</ele>
        <time>2017-05-14T09:49:38Z</time>
      </trkpt>
      <trkpt lat="45.27653" lon="6.62665">
        <ele>3367.15</ele>
        <time>2017-05-14T09:49:50Z</time>
      </trkpt>
      <trkpt lat="45.27656" lon="6.62667">
        <ele>3367.64</ele>
        <time>2017-05-14T09:50:01Z</time>
      </trkpt>
      <trkpt lat="45.27659" lon="6.62671">
        <ele>3370.04</ele>
        <time>2017-05-14T09:50:13Z</time>
      </trkpt>
      <trkpt lat="45.27664" lon="6.62673">
        <ele>3371</ele>
        <time>2017-05-14T09:50:25Z</time>
      </trkpt>
      <trkpt lat="45.27668" lon="6.62675">
        <ele>3372.44</ele>
        <time>2017-05-14T09:50:38Z</time>
      </trkpt>
      <trkpt lat="45.27672" lon="6.62675">
        <ele>3373.4</ele>
        <time>2017-05-14T09:50:50Z</time>
      </trkpt>
      <trkpt lat="45.27673" lon="6.62675">
        <ele>3373.88</ele>
        <time>2017-05-14T09:51:03Z</time>
      </trkpt>
      <trkpt lat="45.27675" lon="6.62674">
        <ele>3378.21</ele>
        <time>2017-05-14T09:51:14Z</time>
      </trkpt>
      <trkpt lat="45.27676" lon="6.62674">
        <ele>3373.4</ele>
        <time>2017-05-14T09:51:15Z</time>
      </trkpt>
      <trkpt lat="45.27675" lon="6.62675">
        <ele>3377.25</ele>
        <time>2017-05-14T09:51:17Z</time>
      </trkpt>
      <trkpt lat="45.27675" lon="6.62675">
        <ele>3376.77</ele>
        <time>2017-05-14T09:51:18Z</time>
      </trkpt>
      <trkpt lat="45.27673" lon="6.62681">
        <ele>3376.29</ele>
        <time>2017-05-14T09:51:31Z</time>
      </trkpt>
      <trkpt lat="45.2767" lon="6.62685">
        <ele>3378.69</ele>
        <time>2017-05-14T09:51:39Z</time>
      </trkpt>
      <trkpt lat="45.27666" lon="6.62691">
        <ele>3379.17</ele>
        <time>2017-05-14T09:51:51Z</time>
      </trkpt>
      <trkpt lat="45.27662" lon="6.62697">
        <ele>3380.13</ele>
        <time>2017-05-14T09:52:05Z</time>
      </trkpt>
      <trkpt lat="45.27662" lon="6.62698">
        <ele>3381.57</ele>
        <time>2017-05-14T09:52:08Z</time>
      </trkpt>
      <trkpt lat="45.2766" lon="6.627">
        <ele>3382.54</ele>
        <time>2017-05-14T09:52:24Z</time>
      </trkpt>
      <trkpt lat="45.27662" lon="6.62702">
        <ele>3383.02</ele>
        <time>2017-05-14T09:52:33Z</time>
      </trkpt>
      <trkpt lat="45.27663" lon="6.62702">
        <ele>3382.06</ele>
        <time>2017-05-14T09:52:35Z</time>
      </trkpt>
      <trkpt lat="45.27667" lon="6.62704">
        <ele>3382.54</ele>
        <time>2017-05-14T09:52:46Z</time>
      </trkpt>
      <trkpt lat="45.27672" lon="6.62704">
        <ele>3381.09</ele>
        <time>2017-05-14T09:52:58Z</time>
      </trkpt>
      <trkpt lat="45.27672" lon="6.62704">
        <ele>3385.9</ele>
        <time>2017-05-14T09:52:59Z</time>
      </trkpt>
      <trkpt lat="45.2767" lon="6.62709">
        <ele>3385.9</ele>
        <time>2017-05-14T09:53:10Z</time>
      </trkpt>
      <trkpt lat="45.27665" lon="6.62715">
        <ele>3387.34</ele>
        <time>2017-05-14T09:53:22Z</time>
      </trkpt>
      <trkpt lat="45.27661" lon="6.62719">
        <ele>3389.27</ele>
        <time>2017-05-14T09:53:33Z</time>
      </trkpt>
      <trkpt lat="45.27658" lon="6.62722">
        <ele>3389.75</ele>
        <time>2017-05-14T09:53:45Z</time>
      </trkpt>
      <trkpt lat="45.27654" lon="6.62726">
        <ele>3391.19</ele>
        <time>2017-05-14T09:53:56Z</time>
      </trkpt>
      <trkpt lat="45.27651" lon="6.62729">
        <ele>3391.19</ele>
        <time>2017-05-14T09:54:08Z</time>
      </trkpt>
      <trkpt lat="45.2765" lon="6.6273">
        <ele>3392.63</ele>
        <time>2017-05-14T09:54:10Z</time>
      </trkpt>
      <trkpt lat="45.27646" lon="6.62734">
        <ele>3393.59</ele>
        <time>2017-05-14T09:54:22Z</time>
      </trkpt>
      <trkpt lat="45.27643" lon="6.62736">
        <ele>3394.07</ele>
        <time>2017-05-14T09:54:31Z</time>
      </trkpt>
      <trkpt lat="45.27642" lon="6.62737">
        <ele>3395.99</ele>
        <time>2017-05-14T09:54:35Z</time>
      </trkpt>
      <trkpt lat="45.27637" lon="6.6274">
        <ele>3395.99</ele>
        <time>2017-05-14T09:54:47Z</time>
      </trkpt>
      <trkpt lat="45.27636" lon="6.62741">
        <ele>3397.44</ele>
        <time>2017-05-14T09:54:50Z</time>
      </trkpt>
      <trkpt lat="45.27636" lon="6.62741">
        <ele>3396.48</ele>
        <time>2017-05-14T09:54:52Z</time>
      </trkpt>
      <trkpt lat="45.27631" lon="6.62744">
        <ele>3396.96</ele>
        <time>2017-05-14T09:55:05Z</time>
      </trkpt>
      <trkpt lat="45.27628" lon="6.62747">
        <ele>3400.32</ele>
        <time>2017-05-14T09:55:12Z</time>
      </trkpt>
      <trkpt lat="45.27626" lon="6.62748">
        <ele>3398.88</ele>
        <time>2017-05-14T09:55:23Z</time>
      </trkpt>
      <trkpt lat="45.27623" lon="6.62751">
        <ele>3399.84</ele>
        <time>2017-05-14T09:55:35Z</time>
      </trkpt>
      <trkpt lat="45.27621" lon="6.62749">
        <ele>3399.84</ele>
        <time>2017-05-14T09:55:50Z</time>
      </trkpt>
      <trkpt lat="45.27619" lon="6.62753">
        <ele>3399.84</ele>
        <time>2017-05-14T09:56:09Z</time>
      </trkpt>
      <trkpt lat="45.27618" lon="6.62753">
        <ele>3402.72</ele>
        <time>2017-05-14T09:56:15Z</time>
      </trkpt>
      <trkpt lat="45.27618" lon="6.62753">
        <ele>3403.2</ele>
        <time>2017-05-14T09:56:16Z</time>
      </trkpt>
      <trkpt lat="45.27618" lon="6.62753">
        <ele>3399.84</ele>
        <time>2017-05-14T09:56:20Z</time>
      </trkpt>
      <trkpt lat="45.27623" lon="6.62756">
        <ele>3402.24</ele>
        <time>2017-05-14T09:56:31Z</time>
      </trkpt>
      <trkpt lat="45.27627" lon="6.62759">
        <ele>3405.13</ele>
        <time>2017-05-14T09:56:43Z</time>
      </trkpt>
      <trkpt lat="45.27632" lon="6.62761">
        <ele>3406.57</ele>
        <time>2017-05-14T09:56:54Z</time>
      </trkpt>
      <trkpt lat="45.27636" lon="6.62762">
        <ele>3408.01</ele>
        <time>2017-05-14T09:57:06Z</time>
      </trkpt>
      <trkpt lat="45.27636" lon="6.62763">
        <ele>3408.01</ele>
        <time>2017-05-14T09:57:07Z</time>
      </trkpt>
      <trkpt lat="45.27639" lon="6.62764">
        <ele>3407.53</ele>
        <time>2017-05-14T09:57:17Z</time>
      </trkpt>
      <trkpt lat="45.2764" lon="6.62765">
        <ele>3409.93</ele>
        <time>2017-05-14T09:57:21Z</time>
      </trkpt>
      <trkpt lat="45.27641" lon="6.62765">
        <ele>3408.49</ele>
        <time>2017-05-14T09:57:23Z</time>
      </trkpt>
      <trkpt lat="45.27641" lon="6.62765">
        <ele>3408.49</ele>
        <time>2017-05-14T09:57:44Z</time>
      </trkpt>
      <trkpt lat="45.27642" lon="6.62766">
        <ele>3412.34</ele>
        <time>2017-05-14T09:57:50Z</time>
      </trkpt>
      <trkpt lat="45.27642" lon="6.62765">
        <ele>3411.38</ele>
        <time>2017-05-14T09:57:51Z</time>
      </trkpt>
      <trkpt lat="45.27642" lon="6.62765">
        <ele>3409.45</ele>
        <time>2017-05-14T09:57:53Z</time>
      </trkpt>
      <trkpt lat="45.27639" lon="6.62768">
        <ele>3410.89</ele>
        <time>2017-05-14T09:58:06Z</time>
      </trkpt>
      <trkpt lat="45.27641" lon="6.62768">
        <ele>3411.38</ele>
        <time>2017-05-14T09:58:18Z</time>
      </trkpt>
      <trkpt lat="45.27646" lon="6.6277">
        <ele>3411.86</ele>
        <time>2017-05-14T09:58:30Z</time>
      </trkpt>
      <trkpt lat="45.27651" lon="6.6277">
        <ele>3412.82</ele>
        <time>2017-05-14T09:58:41Z</time>
      </trkpt>
      <trkpt lat="45.27655" lon="6.6277">
        <ele>3415.22</ele>
        <time>2017-05-14T09:58:55Z</time>
      </trkpt>
      <trkpt lat="45.27657" lon="6.62772">
        <ele>3417.14</ele>
        <time>2017-05-14T09:59:11Z</time>
      </trkpt>
      <trkpt lat="45.27657" lon="6.62772">
        <ele>3413.78</ele>
        <time>2017-05-14T09:59:12Z</time>
      </trkpt>
      <trkpt lat="45.27657" lon="6.62772">
        <ele>3415.22</ele>
        <time>2017-05-14T09:59:13Z</time>
      </trkpt>
      <trkpt lat="45.27652" lon="6.62774">
        <ele>3416.18</ele>
        <time>2017-05-14T09:59:26Z</time>
      </trkpt>
      <trkpt lat="45.27647" lon="6.62778">
        <ele>3419.55</ele>
        <time>2017-05-14T09:59:37Z</time>
      </trkpt>
      <trkpt lat="45.27645" lon="6.62779">
        <ele>3417.62</ele>
        <time>2017-05-14T09:59:40Z</time>
      </trkpt>
      <trkpt lat="45.27645" lon="6.62779">
        <ele>3417.14</ele>
        <time>2017-05-14T09:59:51Z</time>
      </trkpt>
      <trkpt lat="45.27643" lon="6.6278">
        <ele>3420.99</ele>
        <time>2017-05-14T10:00:00Z</time>
      </trkpt>
      <trkpt lat="45.27643" lon="6.6278">
        <ele>3419.07</ele>
        <time>2017-05-14T10:00:01Z</time>
      </trkpt>
      <trkpt lat="45.27646" lon="6.62781">
        <ele>3419.55</ele>
        <time>2017-05-14T10:00:09Z</time>
      </trkpt>
      <trkpt lat="45.2765" lon="6.62782">
        <ele>3420.03</ele>
        <time>2017-05-14T10:00:21Z</time>
      </trkpt>
      <trkpt lat="45.2765" lon="6.62783">
        <ele>3423.39</ele>
        <time>2017-05-14T10:00:26Z</time>
      </trkpt>
      <trkpt lat="45.2765" lon="6.62783">
        <ele>3421.95</ele>
        <time>2017-05-14T10:00:27Z</time>
      </trkpt>
      <trkpt lat="45.2765" lon="6.62784">
        <ele>3420.51</ele>
        <time>2017-05-14T10:00:29Z</time>
      </trkpt>
      <trkpt lat="45.27647" lon="6.62787">
        <ele>3422.91</ele>
        <time>2017-05-14T10:00:40Z</time>
      </trkpt>
      <trkpt lat="45.27647" lon="6.62786">
        <ele>3421.47</ele>
        <time>2017-05-14T10:00:42Z</time>
      </trkpt>
      <trkpt lat="45.27648" lon="6.62787">
        <ele>3424.83</ele>
        <time>2017-05-14T10:00:50Z</time>
      </trkpt>
      <trkpt lat="45.27648" lon="6.62787">
        <ele>3420.99</ele>
        <time>2017-05-14T10:00:56Z</time>
      </trkpt>
      <trkpt lat="45.2765" lon="6.62788">
        <ele>3424.35</ele>
        <time>2017-05-14T10:01:17Z</time>
      </trkpt>
      <trkpt lat="45.2765" lon="6.62788">
        <ele>3419.55</ele>
        <time>2017-05-14T10:01:18Z</time>
      </trkpt>
      <trkpt lat="45.2765" lon="6.62788">
        <ele>3424.35</ele>
        <time>2017-05-14T10:01:20Z</time>
      </trkpt>
      <trkpt lat="45.27648" lon="6.62789">
        <ele>3423.87</ele>
        <time>2017-05-14T10:01:30Z</time>
      </trkpt>
      <trkpt lat="45.27645" lon="6.62792">
        <ele>3425.8</ele>
        <time>2017-05-14T10:01:41Z</time>
      </trkpt>
      <trkpt lat="45.27644" lon="6.62792">
        <ele>3425.8</ele>
        <time>2017-05-14T10:01:42Z</time>
      </trkpt>
      <trkpt lat="45.27641" lon="6.62794">
        <ele>3426.76</ele>
        <time>2017-05-14T10:01:54Z</time>
      </trkpt>
      <trkpt lat="45.27639" lon="6.62796">
        <ele>3428.68</ele>
        <time>2017-05-14T10:01:59Z</time>
      </trkpt>
      <trkpt lat="45.27637" lon="6.62798">
        <ele>3428.68</ele>
        <time>2017-05-14T10:02:10Z</time>
      </trkpt>
      <trkpt lat="45.27634" lon="6.62799">
        <ele>3430.12</ele>
        <time>2017-05-14T10:02:21Z</time>
      </trkpt>
      <trkpt lat="45.2763" lon="6.628">
        <ele>3431.56</ele>
        <time>2017-05-14T10:02:32Z</time>
      </trkpt>
      <trkpt lat="45.27626" lon="6.62801">
        <ele>3433.97</ele>
        <time>2017-05-14T10:02:44Z</time>
      </trkpt>
      <trkpt lat="45.27622" lon="6.62804">
        <ele>3433.97</ele>
        <time>2017-05-14T10:02:56Z</time>
      </trkpt>
      <trkpt lat="45.2762" lon="6.62806">
        <ele>3437.81</ele>
        <time>2017-05-14T10:03:07Z</time>
      </trkpt>
      <trkpt lat="45.27619" lon="6.62807">
        <ele>3437.81</ele>
        <time>2017-05-14T10:03:11Z</time>
      </trkpt>
      <trkpt lat="45.27615" lon="6.62808">
        <ele>3438.77</ele>
        <time>2017-05-14T10:03:22Z</time>
      </trkpt>
      <trkpt lat="45.27613" lon="6.62811">
        <ele>3437.81</ele>
        <time>2017-05-14T10:03:34Z</time>
      </trkpt>
      <trkpt lat="45.2761" lon="6.62816">
        <ele>3437.81</ele>
        <time>2017-05-14T10:03:48Z</time>
      </trkpt>
      <trkpt lat="45.27607" lon="6.62825">
        <ele>3437.81</ele>
        <time>2017-05-14T10:04:02Z</time>
      </trkpt>
      <trkpt lat="45.27607" lon="6.62828">
        <ele>3438.29</ele>
        <time>2017-05-14T10:04:28Z</time>
      </trkpt>
      <trkpt lat="45.27605" lon="6.6283">
        <ele>3438.77</ele>
        <time>2017-05-14T10:04:43Z</time>
      </trkpt>
      <trkpt lat="45.27604" lon="6.62831">
        <ele>3438.77</ele>
        <time>2017-05-14T10:05:08Z</time>
      </trkpt>
      <trkpt lat="45.27603" lon="6.62837">
        <ele>3439.25</ele>
        <time>2017-05-14T10:05:26Z</time>
      </trkpt>
      <trkpt lat="45.27597" lon="6.62846">
        <ele>3441.66</ele>
        <time>2017-05-14T10:05:39Z</time>
      </trkpt>
      <trkpt lat="45.27592" lon="6.62856">
        <ele>3442.14</ele>
        <time>2017-05-14T10:05:53Z</time>
      </trkpt>
      <trkpt lat="45.27587" lon="6.62866">
        <ele>3443.1</ele>
        <time>2017-05-14T10:06:06Z</time>
      </trkpt>
      <trkpt lat="45.27584" lon="6.62874">
        <ele>3444.54</ele>
        <time>2017-05-14T10:06:20Z</time>
      </trkpt>
      <trkpt lat="45.27583" lon="6.62878">
        <ele>3445.98</ele>
        <time>2017-05-14T10:06:26Z</time>
      </trkpt>
      <trkpt lat="45.27581" lon="6.62886">
        <ele>3446.46</ele>
        <time>2017-05-14T10:06:38Z</time>
      </trkpt>
      <trkpt lat="45.27581" lon="6.62892">
        <ele>3447.91</ele>
        <time>2017-05-14T10:06:51Z</time>
      </trkpt>
      <trkpt lat="45.27582" lon="6.62899">
        <ele>3449.35</ele>
        <time>2017-05-14T10:07:04Z</time>
      </trkpt>
      <trkpt lat="45.27583" lon="6.62903">
        <ele>3449.35</ele>
        <time>2017-05-14T10:07:10Z</time>
      </trkpt>
      <trkpt lat="45.27584" lon="6.62907">
        <ele>3452.23</ele>
        <time>2017-05-14T10:07:19Z</time>
      </trkpt>
      <trkpt lat="45.27585" lon="6.62914">
        <ele>3452.23</ele>
        <time>2017-05-14T10:07:30Z</time>
      </trkpt>
      <trkpt lat="45.27585" lon="6.62914">
        <ele>3451.75</ele>
        <time>2017-05-14T10:07:32Z</time>
      </trkpt>
      <trkpt lat="45.27586" lon="6.62916">
        <ele>3453.19</ele>
        <time>2017-05-14T10:07:35Z</time>
      </trkpt>
      <trkpt lat="45.27586" lon="6.6292">
        <ele>3455.12</ele>
        <time>2017-05-14T10:07:47Z</time>
      </trkpt>
      <trkpt lat="45.27586" lon="6.62921">
        <ele>3457.04</ele>
        <time>2017-05-14T10:07:49Z</time>
      </trkpt>
      <trkpt lat="45.27587" lon="6.62924">
        <ele>3455.12</ele>
        <time>2017-05-14T10:07:55Z</time>
      </trkpt>
      <trkpt lat="45.27587" lon="6.6293">
        <ele>3457.04</ele>
        <time>2017-05-14T10:08:06Z</time>
      </trkpt>
      <trkpt lat="45.27586" lon="6.62934">
        <ele>3458</ele>
        <time>2017-05-14T10:08:15Z</time>
      </trkpt>
      <trkpt lat="45.27585" lon="6.6294">
        <ele>3458.48</ele>
        <time>2017-05-14T10:08:26Z</time>
      </trkpt>
      <trkpt lat="45.27585" lon="6.62944">
        <ele>3459.44</ele>
        <time>2017-05-14T10:08:35Z</time>
      </trkpt>
      <trkpt lat="45.27584" lon="6.62949">
        <ele>3458.48</ele>
        <time>2017-05-14T10:08:46Z</time>
      </trkpt>
      <trkpt lat="45.27584" lon="6.62953">
        <ele>3459.44</ele>
        <time>2017-05-14T10:08:57Z</time>
      </trkpt>
      <trkpt lat="45.27586" lon="6.62952">
        <ele>3460.88</ele>
        <time>2017-05-14T10:09:21Z</time>
      </trkpt>
      <trkpt lat="45.27583" lon="6.62957">
        <ele>3459.92</ele>
        <time>2017-05-14T10:09:47Z</time>
      </trkpt>
      <trkpt lat="45.27583" lon="6.62966">
        <ele>3461.84</ele>
        <time>2017-05-14T10:10:00Z</time>
      </trkpt>
      <trkpt lat="45.27585" lon="6.62971">
        <ele>3463.77</ele>
        <time>2017-05-14T10:10:12Z</time>
      </trkpt>
      <trkpt lat="45.27586" lon="6.62976">
        <ele>3463.77</ele>
        <time>2017-05-14T10:10:24Z</time>
      </trkpt>
      <trkpt lat="45.27585" lon="6.62977">
        <ele>3465.21</ele>
        <time>2017-05-14T10:10:33Z</time>
      </trkpt>
      <trkpt lat="45.27585" lon="6.62978">
        <ele>3461.36</ele>
        <time>2017-05-14T10:10:34Z</time>
      </trkpt>
      <trkpt lat="45.27585" lon="6.62978">
        <ele>3464.25</ele>
        <time>2017-05-14T10:10:35Z</time>
      </trkpt>
      <trkpt lat="45.27584" lon="6.62979">
        <ele>3464.25</ele>
        <time>2017-05-14T10:10:50Z</time>
      </trkpt>
      <trkpt lat="45.27582" lon="6.62974">
        <ele>3465.21</ele>
        <time>2017-05-14T10:11:01Z</time>
      </trkpt>
      <trkpt lat="45.27582" lon="6.62974">
        <ele>3466.17</ele>
        <time>2017-05-14T10:11:03Z</time>
      </trkpt>
      <trkpt lat="45.2758" lon="6.62971">
        <ele>3467.13</ele>
        <time>2017-05-14T10:11:13Z</time>
      </trkpt>
      <trkpt lat="45.27577" lon="6.62969">
        <ele>3468.09</ele>
        <time>2017-05-14T10:11:25Z</time>
      </trkpt>
      <trkpt lat="45.27578" lon="6.62968">
        <ele>3468.57</ele>
        <time>2017-05-14T10:11:47Z</time>
      </trkpt>
      <trkpt lat="45.27574" lon="6.62965">
        <ele>3469.05</ele>
        <time>2017-05-14T10:11:59Z</time>
      </trkpt>
      <trkpt lat="45.27571" lon="6.62961">
        <ele>3471.46</ele>
        <time>2017-05-14T10:12:10Z</time>
      </trkpt>
      <trkpt lat="45.2757" lon="6.6296">
        <ele>3471.94</ele>
        <time>2017-05-14T10:12:11Z</time>
      </trkpt>
      <trkpt lat="45.27568" lon="6.62957">
        <ele>3474.34</ele>
        <time>2017-05-14T10:12:23Z</time>
      </trkpt>
      <trkpt lat="45.27568" lon="6.62956">
        <ele>3472.9</ele>
        <time>2017-05-14T10:12:39Z</time>
      </trkpt>
      <trkpt lat="45.27566" lon="6.62954">
        <ele>3473.38</ele>
        <time>2017-05-14T10:12:46Z</time>
      </trkpt>
      <trkpt lat="45.27565" lon="6.62951">
        <ele>3474.34</ele>
        <time>2017-05-14T10:12:59Z</time>
      </trkpt>
      <trkpt lat="45.27565" lon="6.62953">
        <ele>3475.78</ele>
        <time>2017-05-14T10:13:11Z</time>
      </trkpt>
      <trkpt lat="45.27564" lon="6.62959">
        <ele>3475.78</ele>
        <time>2017-05-14T10:13:22Z</time>
      </trkpt>
      <trkpt lat="45.27563" lon="6.62963">
        <ele>3478.67</ele>
        <time>2017-05-14T10:13:29Z</time>
      </trkpt>
      <trkpt lat="45.27562" lon="6.62966">
        <ele>3478.19</ele>
        <time>2017-05-14T10:13:45Z</time>
      </trkpt>
      <trkpt lat="45.27562" lon="6.6297">
        <ele>3477.71</ele>
        <time>2017-05-14T10:13:55Z</time>
      </trkpt>
      <trkpt lat="45.27547" lon="6.62965">
        <ele>3486.36</ele>
        <time>2017-05-14T10:34:28Z</time>
      </trkpt>
      <trkpt lat="45.27545" lon="6.62964">
        <ele>3486.84</ele>
        <time>2017-05-14T10:34:40Z</time>
      </trkpt>
      <trkpt lat="45.27543" lon="6.62964">
        <ele>3487.32</ele>
        <time>2017-05-14T10:34:52Z</time>
      </trkpt>
      <trkpt lat="45.27544" lon="6.62962">
        <ele>3489.24</ele>
        <time>2017-05-14T10:35:03Z</time>
      </trkpt>
      <trkpt lat="45.27544" lon="6.62961">
        <ele>3489.72</ele>
        <time>2017-05-14T10:35:15Z</time>
      </trkpt>
      <trkpt lat="45.27543" lon="6.62959">
        <ele>3491.17</ele>
        <time>2017-05-14T10:35:28Z</time>
      </trkpt>
      <trkpt lat="45.27542" lon="6.62956">
        <ele>3491.17</ele>
        <time>2017-05-14T10:35:41Z</time>
      </trkpt>
      <trkpt lat="45.27542" lon="6.62953">
        <ele>3491.17</ele>
        <time>2017-05-14T10:35:54Z</time>
      </trkpt>
      <trkpt lat="45.2754" lon="6.62954">
        <ele>3492.13</ele>
        <time>2017-05-14T10:36:08Z</time>
      </trkpt>
      <trkpt lat="45.27538" lon="6.62955">
        <ele>3493.57</ele>
        <time>2017-05-14T10:36:22Z</time>
      </trkpt>
      <trkpt lat="45.27537" lon="6.62955">
        <ele>3493.57</ele>
        <time>2017-05-14T10:36:39Z</time>
      </trkpt>
      <trkpt lat="45.27535" lon="6.62954">
        <ele>3495.49</ele>
        <time>2017-05-14T10:36:51Z</time>
      </trkpt>
      <trkpt lat="45.27533" lon="6.62954">
        <ele>3495.49</ele>
        <time>2017-05-14T10:37:05Z</time>
      </trkpt>
      <trkpt lat="45.27531" lon="6.62951">
        <ele>3496.93</ele>
        <time>2017-05-14T10:37:18Z</time>
      </trkpt>
      <trkpt lat="45.27529" lon="6.62952">
        <ele>3496.93</ele>
        <time>2017-05-14T10:37:33Z</time>
      </trkpt>
      <trkpt lat="45.27529" lon="6.62951">
        <ele>3499.34</ele>
        <time>2017-05-14T10:37:36Z</time>
      </trkpt>
      <trkpt lat="45.27529" lon="6.62948">
        <ele>3498.38</ele>
        <time>2017-05-14T10:37:46Z</time>
      </trkpt>
      <trkpt lat="45.27529" lon="6.62945">
        <ele>3499.82</ele>
        <time>2017-05-14T10:38:00Z</time>
      </trkpt>
      <trkpt lat="45.27527" lon="6.62944">
        <ele>3499.34</ele>
        <time>2017-05-14T10:38:16Z</time>
      </trkpt>
      <trkpt lat="45.27527" lon="6.62942">
        <ele>3501.74</ele>
        <time>2017-05-14T10:38:27Z</time>
      </trkpt>
      <trkpt lat="45.27523" lon="6.62943">
        <ele>3501.26</ele>
        <time>2017-05-14T10:38:37Z</time>
      </trkpt>
      <trkpt lat="45.27521" lon="6.6295">
        <ele>3503.18</ele>
        <time>2017-05-14T10:38:52Z</time>
      </trkpt>
      <trkpt lat="45.2752" lon="6.62956">
        <ele>3502.7</ele>
        <time>2017-05-14T10:39:08Z</time>
      </trkpt>
      <trkpt lat="45.27516" lon="6.62959">
        <ele>3504.62</ele>
        <time>2017-05-14T10:39:24Z</time>
      </trkpt>
      <trkpt lat="45.27513" lon="6.62962">
        <ele>3505.58</ele>
        <time>2017-05-14T10:39:39Z</time>
      </trkpt>
      <trkpt lat="45.27513" lon="6.62962">
        <ele>3505.1</ele>
        <time>2017-05-14T10:39:52Z</time>
      </trkpt>
      <trkpt lat="45.27514" lon="6.62961">
        <ele>3505.1</ele>
        <time>2017-05-14T10:40:06Z</time>
      </trkpt>
      <trkpt lat="45.27511" lon="6.6296">
        <ele>3506.07</ele>
        <time>2017-05-14T10:40:18Z</time>
      </trkpt>
      <trkpt lat="45.27506" lon="6.62958">
        <ele>3507.99</ele>
        <time>2017-05-14T10:40:31Z</time>
      </trkpt>
      <trkpt lat="45.27504" lon="6.62954">
        <ele>3508.95</ele>
        <time>2017-05-14T10:40:42Z</time>
      </trkpt>
      <trkpt lat="45.275" lon="6.62946">
        <ele>3509.91</ele>
        <time>2017-05-14T10:40:57Z</time>
      </trkpt>
      <trkpt lat="45.27494" lon="6.62944">
        <ele>3510.87</ele>
        <time>2017-05-14T10:41:08Z</time>
      </trkpt>
      <trkpt lat="45.27491" lon="6.62942">
        <ele>3511.83</ele>
        <time>2017-05-14T10:41:18Z</time>
      </trkpt>
      <trkpt lat="45.27487" lon="6.62938">
        <ele>3513.76</ele>
        <time>2017-05-14T10:41:30Z</time>
      </trkpt>
      <trkpt lat="45.27483" lon="6.62936">
        <ele>3513.28</ele>
        <time>2017-05-14T10:41:42Z</time>
      </trkpt>
      <trkpt lat="45.2748" lon="6.62935">
        <ele>3514.72</ele>
        <time>2017-05-14T10:41:53Z</time>
      </trkpt>
      <trkpt lat="45.27478" lon="6.62936">
        <ele>3515.68</ele>
        <time>2017-05-14T10:42:00Z</time>
      </trkpt>
      <trkpt lat="45.27472" lon="6.62935">
        <ele>3516.16</ele>
        <time>2017-05-14T10:42:15Z</time>
      </trkpt>
      <trkpt lat="45.27472" lon="6.62935">
        <ele>3516.64</ele>
        <time>2017-05-14T10:42:29Z</time>
      </trkpt>
      <trkpt lat="45.27474" lon="6.62937">
        <ele>3515.68</ele>
        <time>2017-05-14T10:42:41Z</time>
      </trkpt>
      <trkpt lat="45.27475" lon="6.62937">
        <ele>3516.16</ele>
        <time>2017-05-14T10:42:56Z</time>
      </trkpt>
      <trkpt lat="45.27474" lon="6.62938">
        <ele>3516.16</ele>
        <time>2017-05-14T10:43:17Z</time>
      </trkpt>
      <trkpt lat="45.27475" lon="6.62935">
        <ele>3516.16</ele>
        <time>2017-05-14T10:43:51Z</time>
      </trkpt>
      <trkpt lat="45.27477" lon="6.62935">
        <ele>3516.16</ele>
        <time>2017-05-14T10:44:11Z</time>
      </trkpt>
      <trkpt lat="45.27474" lon="6.62935">
        <ele>3516.16</ele>
        <time>2017-05-14T10:44:38Z</time>
      </trkpt>
      <trkpt lat="45.27474" lon="6.62935">
        <ele>3516.16</ele>
        <time>2017-05-14T10:44:54Z</time>
      </trkpt>
      <trkpt lat="45.27476" lon="6.62937">
        <ele>3517.12</ele>
        <time>2017-05-14T10:45:01Z</time>
      </trkpt>
      <trkpt lat="45.27477" lon="6.62936">
        <ele>3516.16</ele>
        <time>2017-05-14T10:45:28Z</time>
      </trkpt>
      <trkpt lat="45.27476" lon="6.62935">
        <ele>3516.16</ele>
        <time>2017-05-14T10:45:52Z</time>
      </trkpt>
      <trkpt lat="45.27475" lon="6.62937">
        <ele>3515.68</ele>
        <time>2017-05-14T10:46:14Z</time>
      </trkpt>
      <trkpt lat="45.27474" lon="6.62936">
        <ele>3515.68</ele>
        <time>2017-05-14T10:46:36Z</time>
      </trkpt>
      <trkpt lat="45.27474" lon="6.62934">
        <ele>3514.72</ele>
        <time>2017-05-14T10:47:07Z</time>
      </trkpt>
      <trkpt lat="45.27475" lon="6.62934">
        <ele>3516.16</ele>
        <time>2017-05-14T10:47:31Z</time>
      </trkpt>
      <trkpt lat="45.27476" lon="6.62935">
        <ele>3515.68</ele>
        <time>2017-05-14T10:47:49Z</time>
      </trkpt>
      <trkpt lat="45.27479" lon="6.62936">
        <ele>3513.76</ele>
        <time>2017-05-14T10:48:00Z</time>
      </trkpt>
      <trkpt lat="45.27486" lon="6.62938">
        <ele>3512.31</ele>
        <time>2017-05-14T10:48:12Z</time>
      </trkpt>
      <trkpt lat="45.27493" lon="6.62944">
        <ele>3510.39</ele>
        <time>2017-05-14T10:48:25Z</time>
      </trkpt>
      <trkpt lat="45.27494" lon="6.62944">
        <ele>3510.39</ele>
        <time>2017-05-14T10:48:41Z</time>
      </trkpt>
      <trkpt lat="45.27496" lon="6.62946">
        <ele>3509.91</ele>
        <time>2017-05-14T10:48:55Z</time>
      </trkpt>
      <trkpt lat="45.27498" lon="6.62947">
        <ele>3509.43</ele>
        <time>2017-05-14T10:48:58Z</time>
      </trkpt>
      <trkpt lat="45.27506" lon="6.62954">
        <ele>3506.55</ele>
        <time>2017-05-14T10:49:10Z</time>
      </trkpt>
      <trkpt lat="45.27513" lon="6.62959">
        <ele>3503.66</ele>
        <time>2017-05-14T10:49:22Z</time>
      </trkpt>
      <trkpt lat="45.27519" lon="6.62955">
        <ele>3501.74</ele>
        <time>2017-05-14T10:49:34Z</time>
      </trkpt>
      <trkpt lat="45.27522" lon="6.62948">
        <ele>3501.26</ele>
        <time>2017-05-14T10:49:47Z</time>
      </trkpt>
      <trkpt lat="45.27526" lon="6.62945">
        <ele>3498.86</ele>
        <time>2017-05-14T10:49:58Z</time>
      </trkpt>
      <trkpt lat="45.2753" lon="6.62949">
        <ele>3495.97</ele>
        <time>2017-05-14T10:50:08Z</time>
      </trkpt>
      <trkpt lat="45.27531" lon="6.62951">
        <ele>3495.01</ele>
        <time>2017-05-14T10:50:14Z</time>
      </trkpt>
      <trkpt lat="45.27535" lon="6.62955">
        <ele>3492.61</ele>
        <time>2017-05-14T10:50:26Z</time>
      </trkpt>
      <trkpt lat="45.27541" lon="6.62955">
        <ele>3490.2</ele>
        <time>2017-05-14T10:50:38Z</time>
      </trkpt>
      <trkpt lat="45.27543" lon="6.6296">
        <ele>3487.8</ele>
        <time>2017-05-14T10:50:50Z</time>
      </trkpt>
      <trkpt lat="45.27546" lon="6.62962">
        <ele>3485.4</ele>
        <time>2017-05-14T10:50:58Z</time>
      </trkpt>
      <trkpt lat="45.27549" lon="6.62962">
        <ele>3484.44</ele>
        <time>2017-05-14T10:51:10Z</time>
      </trkpt>
      <trkpt lat="45.27552" lon="6.62966">
        <ele>3481.55</ele>
        <time>2017-05-14T10:51:24Z</time>
      </trkpt>
      <trkpt lat="45.27554" lon="6.62966">
        <ele>3475.3</ele>
        <time>2017-05-14T10:57:10Z</time>
      </trkpt>
      <trkpt lat="45.27561" lon="6.62967">
        <ele>3473.86</ele>
        <time>2017-05-14T11:01:24Z</time>
      </trkpt>
      <trkpt lat="45.27562" lon="6.62968">
        <ele>3473.38</ele>
        <time>2017-05-14T11:01:26Z</time>
      </trkpt>
      <trkpt lat="45.27568" lon="6.62969">
        <ele>3470.02</ele>
        <time>2017-05-14T11:01:32Z</time>
      </trkpt>
      <trkpt lat="45.27576" lon="6.62968">
        <ele>3465.21</ele>
        <time>2017-05-14T11:01:35Z</time>
      </trkpt>
      <trkpt lat="45.27579" lon="6.6296">
        <ele>3462.81</ele>
        <time>2017-05-14T11:01:39Z</time>
      </trkpt>
      <trkpt lat="45.27583" lon="6.6296">
        <ele>3458.48</ele>
        <time>2017-05-14T11:01:41Z</time>
      </trkpt>
      <trkpt lat="45.27587" lon="6.62958">
        <ele>3457.52</ele>
        <time>2017-05-14T11:01:43Z</time>
      </trkpt>
      <trkpt lat="45.27587" lon="6.62955">
        <ele>3455.12</ele>
        <time>2017-05-14T11:01:44Z</time>
      </trkpt>
      <trkpt lat="45.27587" lon="6.62952">
        <ele>3454.15</ele>
        <time>2017-05-14T11:01:46Z</time>
      </trkpt>
      <trkpt lat="45.27589" lon="6.62955">
        <ele>3453.19</ele>
        <time>2017-05-14T11:02:00Z</time>
      </trkpt>
      <trkpt lat="45.27598" lon="6.62947">
        <ele>3450.79</ele>
        <time>2017-05-14T11:02:05Z</time>
      </trkpt>
      <trkpt lat="45.27599" lon="6.62927">
        <ele>3447.43</ele>
        <time>2017-05-14T11:02:09Z</time>
      </trkpt>
      <trkpt lat="45.27598" lon="6.62915">
        <ele>3446.46</ele>
        <time>2017-05-14T11:02:11Z</time>
      </trkpt>
      <trkpt lat="45.27598" lon="6.62908">
        <ele>3445.98</ele>
        <time>2017-05-14T11:02:12Z</time>
      </trkpt>
      <trkpt lat="45.27597" lon="6.62879">
        <ele>3441.18</ele>
        <time>2017-05-14T11:02:15Z</time>
      </trkpt>
      <trkpt lat="45.27597" lon="6.62861">
        <ele>3438.29</ele>
        <time>2017-05-14T11:02:17Z</time>
      </trkpt>
      <trkpt lat="45.27599" lon="6.62839">
        <ele>3437.33</ele>
        <time>2017-05-14T11:02:21Z</time>
      </trkpt>
      <trkpt lat="45.276" lon="6.62829">
        <ele>3436.37</ele>
        <time>2017-05-14T11:02:23Z</time>
      </trkpt>
      <trkpt lat="45.27605" lon="6.62813">
        <ele>3433.49</ele>
        <time>2017-05-14T11:02:30Z</time>
      </trkpt>
      <trkpt lat="45.27607" lon="6.62815">
        <ele>3432.04</ele>
        <time>2017-05-14T11:02:50Z</time>
      </trkpt>
      <trkpt lat="45.27607" lon="6.62814">
        <ele>3431.56</ele>
        <time>2017-05-14T11:03:04Z</time>
      </trkpt>
      <trkpt lat="45.27617" lon="6.62808">
        <ele>3429.16</ele>
        <time>2017-05-14T11:03:09Z</time>
      </trkpt>
      <trkpt lat="45.27621" lon="6.62806">
        <ele>3427.24</ele>
        <time>2017-05-14T11:03:11Z</time>
      </trkpt>
      <trkpt lat="45.27627" lon="6.62802">
        <ele>3425.8</ele>
        <time>2017-05-14T11:03:14Z</time>
      </trkpt>
      <trkpt lat="45.27633" lon="6.628">
        <ele>3423.39</ele>
        <time>2017-05-14T11:03:17Z</time>
      </trkpt>
      <trkpt lat="45.27636" lon="6.62797">
        <ele>3421.47</ele>
        <time>2017-05-14T11:03:21Z</time>
      </trkpt>
      <trkpt lat="45.27634" lon="6.62787">
        <ele>3417.62</ele>
        <time>2017-05-14T11:03:24Z</time>
      </trkpt>
      <trkpt lat="45.27632" lon="6.62784">
        <ele>3416.18</ele>
        <time>2017-05-14T11:03:26Z</time>
      </trkpt>
      <trkpt lat="45.27635" lon="6.62778">
        <ele>3412.82</ele>
        <time>2017-05-14T11:03:28Z</time>
      </trkpt>
      <trkpt lat="45.27639" lon="6.62776">
        <ele>3410.89</ele>
        <time>2017-05-14T11:03:31Z</time>
      </trkpt>
      <trkpt lat="45.27638" lon="6.62767">
        <ele>3406.57</ele>
        <time>2017-05-14T11:03:34Z</time>
      </trkpt>
      <trkpt lat="45.27636" lon="6.62766">
        <ele>3405.13</ele>
        <time>2017-05-14T11:03:36Z</time>
      </trkpt>
      <trkpt lat="45.2763" lon="6.62763">
        <ele>3402.72</ele>
        <time>2017-05-14T11:03:45Z</time>
      </trkpt>
      <trkpt lat="45.27631" lon="6.62762">
        <ele>3403.2</ele>
        <time>2017-05-14T11:03:54Z</time>
      </trkpt>
      <trkpt lat="45.27634" lon="6.6275">
        <ele>3398.88</ele>
        <time>2017-05-14T11:03:59Z</time>
      </trkpt>
      <trkpt lat="45.27634" lon="6.62746">
        <ele>3395.51</ele>
        <time>2017-05-14T11:04:00Z</time>
      </trkpt>
      <trkpt lat="45.27631" lon="6.62744">
        <ele>3393.59</ele>
        <time>2017-05-14T11:04:02Z</time>
      </trkpt>
      <trkpt lat="45.27629" lon="6.62743">
        <ele>3392.63</ele>
        <time>2017-05-14T11:04:04Z</time>
      </trkpt>
      <trkpt lat="45.27621" lon="6.62737">
        <ele>3390.23</ele>
        <time>2017-05-14T11:04:09Z</time>
      </trkpt>
      <trkpt lat="45.27617" lon="6.62735">
        <ele>3386.86</ele>
        <time>2017-05-14T11:04:13Z</time>
      </trkpt>
      <trkpt lat="45.27617" lon="6.62735">
        <ele>3386.38</ele>
        <time>2017-05-14T11:04:14Z</time>
      </trkpt>
      <trkpt lat="45.27614" lon="6.62734">
        <ele>3385.42</ele>
        <time>2017-05-14T11:04:26Z</time>
      </trkpt>
      <trkpt lat="45.27613" lon="6.62735">
        <ele>3385.9</ele>
        <time>2017-05-14T11:04:34Z</time>
      </trkpt>
      <trkpt lat="45.27613" lon="6.62731">
        <ele>3383.98</ele>
        <time>2017-05-14T11:04:44Z</time>
      </trkpt>
      <trkpt lat="45.27611" lon="6.62729">
        <ele>3382.54</ele>
        <time>2017-05-14T11:04:56Z</time>
      </trkpt>
      <trkpt lat="45.27613" lon="6.62729">
        <ele>3382.06</ele>
        <time>2017-05-14T11:05:13Z</time>
      </trkpt>
      <trkpt lat="45.27615" lon="6.62726">
        <ele>3382.54</ele>
        <time>2017-05-14T11:05:32Z</time>
      </trkpt>
      <trkpt lat="45.27612" lon="6.62729">
        <ele>3382.54</ele>
        <time>2017-05-14T11:06:03Z</time>
      </trkpt>
      <trkpt lat="45.27612" lon="6.62726">
        <ele>3382.54</ele>
        <time>2017-05-14T11:06:28Z</time>
      </trkpt>
      <trkpt lat="45.27613" lon="6.62725">
        <ele>3383.5</ele>
        <time>2017-05-14T11:06:57Z</time>
      </trkpt>
      <trkpt lat="45.27615" lon="6.62728">
        <ele>3382.54</ele>
        <time>2017-05-14T11:07:29Z</time>
      </trkpt>
      <trkpt lat="45.27613" lon="6.62729">
        <ele>3382.54</ele>
        <time>2017-05-14T11:07:59Z</time>
      </trkpt>
      <trkpt lat="45.27613" lon="6.62729">
        <ele>3382.06</ele>
        <time>2017-05-14T11:08:01Z</time>
      </trkpt>
      <trkpt lat="45.27607" lon="6.62723">
        <ele>3381.09</ele>
        <time>2017-05-14T11:08:05Z</time>
      </trkpt>
      <trkpt lat="45.276" lon="6.62714">
        <ele>3378.69</ele>
        <time>2017-05-14T11:08:10Z</time>
      </trkpt>
      <trkpt lat="45.27607" lon="6.62701">
        <ele>3374.85</ele>
        <time>2017-05-14T11:08:14Z</time>
      </trkpt>
      <trkpt lat="45.27602" lon="6.62695">
        <ele>3371</ele>
        <time>2017-05-14T11:08:16Z</time>
      </trkpt>
      <trkpt lat="45.27598" lon="6.62679">
        <ele>3368.12</ele>
        <time>2017-05-14T11:08:19Z</time>
      </trkpt>
      <trkpt lat="45.27596" lon="6.62667">
        <ele>3364.27</ele>
        <time>2017-05-14T11:08:21Z</time>
      </trkpt>
      <trkpt lat="45.27592" lon="6.62654">
        <ele>3359.95</ele>
        <time>2017-05-14T11:08:23Z</time>
      </trkpt>
      <trkpt lat="45.27589" lon="6.62642">
        <ele>3356.1</ele>
        <time>2017-05-14T11:08:25Z</time>
      </trkpt>
      <trkpt lat="45.27585" lon="6.62618">
        <ele>3352.25</ele>
        <time>2017-05-14T11:08:28Z</time>
      </trkpt>
      <trkpt lat="45.27583" lon="6.62609">
        <ele>3351.77</ele>
        <time>2017-05-14T11:08:29Z</time>
      </trkpt>
      <trkpt lat="45.27581" lon="6.62586">
        <ele>3347.45</ele>
        <time>2017-05-14T11:08:31Z</time>
      </trkpt>
      <trkpt lat="45.27573" lon="6.62557">
        <ele>3342.16</ele>
        <time>2017-05-14T11:08:34Z</time>
      </trkpt>
      <trkpt lat="45.2757" lon="6.62549">
        <ele>3340.72</ele>
        <time>2017-05-14T11:08:35Z</time>
      </trkpt>
      <trkpt lat="45.27563" lon="6.62526">
        <ele>3339.28</ele>
        <time>2017-05-14T11:08:38Z</time>
      </trkpt>
      <trkpt lat="45.27552" lon="6.62503">
        <ele>3334.95</ele>
        <time>2017-05-14T11:08:42Z</time>
      </trkpt>
      <trkpt lat="45.27548" lon="6.62498">
        <ele>3334.95</ele>
        <time>2017-05-14T11:08:43Z</time>
      </trkpt>
      <trkpt lat="45.27547" lon="6.62476">
        <ele>3331.59</ele>
        <time>2017-05-14T11:08:48Z</time>
      </trkpt>
      <trkpt lat="45.27547" lon="6.62477">
        <ele>3331.11</ele>
        <time>2017-05-14T11:09:01Z</time>
      </trkpt>
      <trkpt lat="45.27546" lon="6.62476">
        <ele>3330.62</ele>
        <time>2017-05-14T11:09:21Z</time>
      </trkpt>
      <trkpt lat="45.27539" lon="6.62463">
        <ele>3330.62</ele>
        <time>2017-05-14T11:09:27Z</time>
      </trkpt>
      <trkpt lat="45.2754" lon="6.62451">
        <ele>3329.18</ele>
        <time>2017-05-14T11:09:29Z</time>
      </trkpt>
      <trkpt lat="45.27537" lon="6.62441">
        <ele>3327.26</ele>
        <time>2017-05-14T11:09:31Z</time>
      </trkpt>
      <trkpt lat="45.27533" lon="6.62431">
        <ele>3326.3</ele>
        <time>2017-05-14T11:09:33Z</time>
      </trkpt>
      <trkpt lat="45.27525" lon="6.62409">
        <ele>3321.49</ele>
        <time>2017-05-14T11:09:37Z</time>
      </trkpt>
      <trkpt lat="45.27519" lon="6.62391">
        <ele>3318.13</ele>
        <time>2017-05-14T11:09:40Z</time>
      </trkpt>
      <trkpt lat="45.27514" lon="6.62382">
        <ele>3314.76</ele>
        <time>2017-05-14T11:09:42Z</time>
      </trkpt>
      <trkpt lat="45.27512" lon="6.62378">
        <ele>3313.32</ele>
        <time>2017-05-14T11:09:43Z</time>
      </trkpt>
      <trkpt lat="45.27498" lon="6.62363">
        <ele>3307.07</ele>
        <time>2017-05-14T11:09:47Z</time>
      </trkpt>
      <trkpt lat="45.27492" lon="6.62354">
        <ele>3303.71</ele>
        <time>2017-05-14T11:09:49Z</time>
      </trkpt>
      <trkpt lat="45.27485" lon="6.62341">
        <ele>3299.38</ele>
        <time>2017-05-14T11:09:52Z</time>
      </trkpt>
      <trkpt lat="45.27476" lon="6.62333">
        <ele>3295.54</ele>
        <time>2017-05-14T11:09:55Z</time>
      </trkpt>
      <trkpt lat="45.27467" lon="6.62325">
        <ele>3291.21</ele>
        <time>2017-05-14T11:09:58Z</time>
      </trkpt>
      <trkpt lat="45.27467" lon="6.62318">
        <ele>3288.81</ele>
        <time>2017-05-14T11:10:00Z</time>
      </trkpt>
      <trkpt lat="45.27467" lon="6.62313">
        <ele>3287.37</ele>
        <time>2017-05-14T11:10:03Z</time>
      </trkpt>
      <trkpt lat="45.27467" lon="6.62312">
        <ele>3286.4</ele>
        <time>2017-05-14T11:10:18Z</time>
      </trkpt>
      <trkpt lat="45.27467" lon="6.62303">
        <ele>3284.96</ele>
        <time>2017-05-14T11:10:40Z</time>
      </trkpt>
      <trkpt lat="45.27468" lon="6.62288">
        <ele>3284</ele>
        <time>2017-05-14T11:10:45Z</time>
      </trkpt>
      <trkpt lat="45.2747" lon="6.6228">
        <ele>3283.04</ele>
        <time>2017-05-14T11:10:47Z</time>
      </trkpt>
      <trkpt lat="45.27473" lon="6.6226">
        <ele>3281.12</ele>
        <time>2017-05-14T11:10:51Z</time>
      </trkpt>
      <trkpt lat="45.27474" lon="6.62245">
        <ele>3277.75</ele>
        <time>2017-05-14T11:10:54Z</time>
      </trkpt>
      <trkpt lat="45.27474" lon="6.62241">
        <ele>3276.79</ele>
        <time>2017-05-14T11:10:55Z</time>
      </trkpt>
      <trkpt lat="45.27468" lon="6.62235">
        <ele>3272.46</ele>
        <time>2017-05-14T11:10:58Z</time>
      </trkpt>
      <trkpt lat="45.27465" lon="6.62235">
        <ele>3271.98</ele>
        <time>2017-05-14T11:10:59Z</time>
      </trkpt>
      <trkpt lat="45.27462" lon="6.62231">
        <ele>3269.1</ele>
        <time>2017-05-14T11:11:00Z</time>
      </trkpt>
      <trkpt lat="45.2746" lon="6.62214">
        <ele>3264.77</ele>
        <time>2017-05-14T11:11:03Z</time>
      </trkpt>
      <trkpt lat="45.27456" lon="6.62215">
        <ele>3261.41</ele>
        <time>2017-05-14T11:11:05Z</time>
      </trkpt>
      <trkpt lat="45.27457" lon="6.62216">
        <ele>3259.97</ele>
        <time>2017-05-14T11:11:07Z</time>
      </trkpt>
      <trkpt lat="45.27456" lon="6.62216">
        <ele>3260.45</ele>
        <time>2017-05-14T11:11:14Z</time>
      </trkpt>
      <trkpt lat="45.27451" lon="6.62204">
        <ele>3256.6</ele>
        <time>2017-05-14T11:11:18Z</time>
      </trkpt>
      <trkpt lat="45.27446" lon="6.62196">
        <ele>3253.72</ele>
        <time>2017-05-14T11:11:21Z</time>
      </trkpt>
      <trkpt lat="45.27442" lon="6.62202">
        <ele>3249.87</ele>
        <time>2017-05-14T11:11:23Z</time>
      </trkpt>
      <trkpt lat="45.27433" lon="6.62192">
        <ele>3245.55</ele>
        <time>2017-05-14T11:11:26Z</time>
      </trkpt>
      <trkpt lat="45.27427" lon="6.62165">
        <ele>3241.7</ele>
        <time>2017-05-14T11:11:32Z</time>
      </trkpt>
      <trkpt lat="45.27425" lon="6.62158">
        <ele>3240.74</ele>
        <time>2017-05-14T11:11:34Z</time>
      </trkpt>
      <trkpt lat="45.27416" lon="6.62161">
        <ele>3236.42</ele>
        <time>2017-05-14T11:11:37Z</time>
      </trkpt>
      <trkpt lat="45.2741" lon="6.62152">
        <ele>3231.61</ele>
        <time>2017-05-14T11:11:39Z</time>
      </trkpt>
      <trkpt lat="45.27407" lon="6.62136">
        <ele>3228.24</ele>
        <time>2017-05-14T11:11:41Z</time>
      </trkpt>
      <trkpt lat="45.27407" lon="6.62129">
        <ele>3227.76</ele>
        <time>2017-05-14T11:11:42Z</time>
      </trkpt>
      <trkpt lat="45.27407" lon="6.62122">
        <ele>3225.84</ele>
        <time>2017-05-14T11:11:44Z</time>
      </trkpt>
      <trkpt lat="45.27408" lon="6.62122">
        <ele>3225.84</ele>
        <time>2017-05-14T11:11:57Z</time>
      </trkpt>
      <trkpt lat="45.27407" lon="6.62121">
        <ele>3225.84</ele>
        <time>2017-05-14T11:12:02Z</time>
      </trkpt>
      <trkpt lat="45.27404" lon="6.62111">
        <ele>3223.92</ele>
        <time>2017-05-14T11:12:06Z</time>
      </trkpt>
      <trkpt lat="45.27402" lon="6.62101">
        <ele>3222</ele>
        <time>2017-05-14T11:12:10Z</time>
      </trkpt>
      <trkpt lat="45.274" lon="6.62086">
        <ele>3220.07</ele>
        <time>2017-05-14T11:12:15Z</time>
      </trkpt>
      <trkpt lat="45.2739" lon="6.62088">
        <ele>3216.23</ele>
        <time>2017-05-14T11:12:19Z</time>
      </trkpt>
      <trkpt lat="45.27385" lon="6.62079">
        <ele>3212.38</ele>
        <time>2017-05-14T11:12:21Z</time>
      </trkpt>
      <trkpt lat="45.27382" lon="6.62061">
        <ele>3208.54</ele>
        <time>2017-05-14T11:12:25Z</time>
      </trkpt>
      <trkpt lat="45.2738" lon="6.6205">
        <ele>3207.58</ele>
        <time>2017-05-14T11:12:28Z</time>
      </trkpt>
      <trkpt lat="45.27373" lon="6.6205">
        <ele>3203.73</ele>
        <time>2017-05-14T11:12:30Z</time>
      </trkpt>
      <trkpt lat="45.27363" lon="6.62038">
        <ele>3197.96</ele>
        <time>2017-05-14T11:12:33Z</time>
      </trkpt>
      <trkpt lat="45.27355" lon="6.62035">
        <ele>3192.68</ele>
        <time>2017-05-14T11:12:35Z</time>
      </trkpt>
      <trkpt lat="45.27348" lon="6.62025">
        <ele>3188.35</ele>
        <time>2017-05-14T11:12:37Z</time>
      </trkpt>
      <trkpt lat="45.27342" lon="6.62015">
        <ele>3184.98</ele>
        <time>2017-05-14T11:12:39Z</time>
      </trkpt>
      <trkpt lat="45.27325" lon="6.61998">
        <ele>3176.33</ele>
        <time>2017-05-14T11:12:43Z</time>
      </trkpt>
      <trkpt lat="45.27317" lon="6.61978">
        <ele>3172.97</ele>
        <time>2017-05-14T11:12:46Z</time>
      </trkpt>
      <trkpt lat="45.27307" lon="6.61971">
        <ele>3172.01</ele>
        <time>2017-05-14T11:12:48Z</time>
      </trkpt>
      <trkpt lat="45.27303" lon="6.61966">
        <ele>3170.57</ele>
        <time>2017-05-14T11:12:49Z</time>
      </trkpt>
      <trkpt lat="45.27282" lon="6.61932">
        <ele>3167.2</ele>
        <time>2017-05-14T11:12:56Z</time>
      </trkpt>
      <trkpt lat="45.27262" lon="6.61927">
        <ele>3163.84</ele>
        <time>2017-05-14T11:13:00Z</time>
      </trkpt>
      <trkpt lat="45.27247" lon="6.61922">
        <ele>3160.95</ele>
        <time>2017-05-14T11:13:03Z</time>
      </trkpt>
      <trkpt lat="45.27232" lon="6.61914">
        <ele>3156.15</ele>
        <time>2017-05-14T11:13:06Z</time>
      </trkpt>
      <trkpt lat="45.27217" lon="6.61908">
        <ele>3153.74</ele>
        <time>2017-05-14T11:13:09Z</time>
      </trkpt>
      <trkpt lat="45.27203" lon="6.61902">
        <ele>3149.9</ele>
        <time>2017-05-14T11:13:12Z</time>
      </trkpt>
      <trkpt lat="45.27193" lon="6.61891">
        <ele>3145.57</ele>
        <time>2017-05-14T11:13:15Z</time>
      </trkpt>
      <trkpt lat="45.27181" lon="6.6188">
        <ele>3142.69</ele>
        <time>2017-05-14T11:13:18Z</time>
      </trkpt>
      <trkpt lat="45.27172" lon="6.61877">
        <ele>3138.36</ele>
        <time>2017-05-14T11:13:20Z</time>
      </trkpt>
      <trkpt lat="45.27158" lon="6.6187">
        <ele>3134.52</ele>
        <time>2017-05-14T11:13:23Z</time>
      </trkpt>
      <trkpt lat="45.27141" lon="6.61856">
        <ele>3127.79</ele>
        <time>2017-05-14T11:13:27Z</time>
      </trkpt>
      <trkpt lat="45.27141" lon="6.61859">
        <ele>3125.38</ele>
        <time>2017-05-14T11:13:33Z</time>
      </trkpt>
      <trkpt lat="45.2714" lon="6.6186">
        <ele>3126.83</ele>
        <time>2017-05-14T11:13:41Z</time>
      </trkpt>
      <trkpt lat="45.27136" lon="6.61858">
        <ele>3125.38</ele>
        <time>2017-05-14T11:13:43Z</time>
      </trkpt>
      <trkpt lat="45.27118" lon="6.6184">
        <ele>3121.54</ele>
        <time>2017-05-14T11:13:48Z</time>
      </trkpt>
      <trkpt lat="45.27111" lon="6.6183">
        <ele>3120.58</ele>
        <time>2017-05-14T11:13:50Z</time>
      </trkpt>
      <trkpt lat="45.27087" lon="6.61805">
        <ele>3114.33</ele>
        <time>2017-05-14T11:13:55Z</time>
      </trkpt>
      <trkpt lat="45.2707" lon="6.61779">
        <ele>3110</ele>
        <time>2017-05-14T11:14:00Z</time>
      </trkpt>
      <trkpt lat="45.27053" lon="6.61764">
        <ele>3105.68</ele>
        <time>2017-05-14T11:14:04Z</time>
      </trkpt>
      <trkpt lat="45.27038" lon="6.61759">
        <ele>3103.27</ele>
        <time>2017-05-14T11:14:07Z</time>
      </trkpt>
      <trkpt lat="45.27033" lon="6.61758">
        <ele>3102.79</ele>
        <time>2017-05-14T11:14:08Z</time>
      </trkpt>
      <trkpt lat="45.27025" lon="6.61745">
        <ele>3100.87</ele>
        <time>2017-05-14T11:14:10Z</time>
      </trkpt>
      <trkpt lat="45.27017" lon="6.61731">
        <ele>3095.1</ele>
        <time>2017-05-14T11:14:12Z</time>
      </trkpt>
      <trkpt lat="45.27012" lon="6.61728">
        <ele>3092.7</ele>
        <time>2017-05-14T11:14:13Z</time>
      </trkpt>
      <trkpt lat="45.26996" lon="6.6172">
        <ele>3090.78</ele>
        <time>2017-05-14T11:14:16Z</time>
      </trkpt>
      <trkpt lat="45.26987" lon="6.61711">
        <ele>3090.29</ele>
        <time>2017-05-14T11:14:18Z</time>
      </trkpt>
      <trkpt lat="45.26989" lon="6.6169">
        <ele>3089.33</ele>
        <time>2017-05-14T11:14:23Z</time>
      </trkpt>
      <trkpt lat="45.2699" lon="6.61691">
        <ele>3089.33</ele>
        <time>2017-05-14T11:14:41Z</time>
      </trkpt>
      <trkpt lat="45.2699" lon="6.61692">
        <ele>3088.85</ele>
        <time>2017-05-14T11:15:00Z</time>
      </trkpt>
      <trkpt lat="45.2699" lon="6.61694">
        <ele>3089.33</ele>
        <time>2017-05-14T11:15:20Z</time>
      </trkpt>
      <trkpt lat="45.2699" lon="6.61695">
        <ele>3088.85</ele>
        <time>2017-05-14T11:15:45Z</time>
      </trkpt>
      <trkpt lat="45.2699" lon="6.61695">
        <ele>3088.85</ele>
        <time>2017-05-14T11:16:09Z</time>
      </trkpt>
      <trkpt lat="45.2699" lon="6.61695">
        <ele>3088.85</ele>
        <time>2017-05-14T11:16:25Z</time>
      </trkpt>
      <trkpt lat="45.2699" lon="6.61697">
        <ele>3088.85</ele>
        <time>2017-05-14T11:16:38Z</time>
      </trkpt>
      <trkpt lat="45.26996" lon="6.61696">
        <ele>3088.37</ele>
        <time>2017-05-14T11:16:41Z</time>
      </trkpt>
      <trkpt lat="45.27008" lon="6.61682">
        <ele>3085.01</ele>
        <time>2017-05-14T11:16:46Z</time>
      </trkpt>
      <trkpt lat="45.27009" lon="6.61672">
        <ele>3082.12</ele>
        <time>2017-05-14T11:16:48Z</time>
      </trkpt>
      <trkpt lat="45.2701" lon="6.61663">
        <ele>3080.68</ele>
        <time>2017-05-14T11:16:51Z</time>
      </trkpt>
      <trkpt lat="45.27024" lon="6.61653">
        <ele>3075.88</ele>
        <time>2017-05-14T11:16:57Z</time>
      </trkpt>
      <trkpt lat="45.27025" lon="6.61642">
        <ele>3072.51</ele>
        <time>2017-05-14T11:16:59Z</time>
      </trkpt>
      <trkpt lat="45.27032" lon="6.61634">
        <ele>3069.15</ele>
        <time>2017-05-14T11:17:02Z</time>
      </trkpt>
      <trkpt lat="45.27032" lon="6.61624">
        <ele>3064.82</ele>
        <time>2017-05-14T11:17:04Z</time>
      </trkpt>
      <trkpt lat="45.27031" lon="6.6162">
        <ele>3064.34</ele>
        <time>2017-05-14T11:17:05Z</time>
      </trkpt>
      <trkpt lat="45.27029" lon="6.616">
        <ele>3059.53</ele>
        <time>2017-05-14T11:17:09Z</time>
      </trkpt>
      <trkpt lat="45.27028" lon="6.61596">
        <ele>3056.65</ele>
        <time>2017-05-14T11:17:16Z</time>
      </trkpt>
      <trkpt lat="45.27029" lon="6.61596">
        <ele>3057.61</ele>
        <time>2017-05-14T11:17:26Z</time>
      </trkpt>
      <trkpt lat="45.27022" lon="6.61577">
        <ele>3055.21</ele>
        <time>2017-05-14T11:17:33Z</time>
      </trkpt>
      <trkpt lat="45.27009" lon="6.6156">
        <ele>3050.88</ele>
        <time>2017-05-14T11:17:39Z</time>
      </trkpt>
      <trkpt lat="45.26996" lon="6.6155">
        <ele>3048.96</ele>
        <time>2017-05-14T11:17:42Z</time>
      </trkpt>
      <trkpt lat="45.26988" lon="6.61537">
        <ele>3046.56</ele>
        <time>2017-05-14T11:17:45Z</time>
      </trkpt>
      <trkpt lat="45.26988" lon="6.61531">
        <ele>3045.11</ele>
        <time>2017-05-14T11:17:48Z</time>
      </trkpt>
      <trkpt lat="45.26995" lon="6.61528">
        <ele>3040.79</ele>
        <time>2017-05-14T11:17:51Z</time>
      </trkpt>
      <trkpt lat="45.27001" lon="6.61522">
        <ele>3037.42</ele>
        <time>2017-05-14T11:17:54Z</time>
      </trkpt>
      <trkpt lat="45.27005" lon="6.61512">
        <ele>3033.58</ele>
        <time>2017-05-14T11:17:57Z</time>
      </trkpt>
      <trkpt lat="45.27008" lon="6.61506">
        <ele>3028.77</ele>
        <time>2017-05-14T11:18:00Z</time>
      </trkpt>
      <trkpt lat="45.27013" lon="6.61497">
        <ele>3024.93</ele>
        <time>2017-05-14T11:18:03Z</time>
      </trkpt>
      <trkpt lat="45.27019" lon="6.61487">
        <ele>3021.08</ele>
        <time>2017-05-14T11:18:06Z</time>
      </trkpt>
      <trkpt lat="45.27025" lon="6.61479">
        <ele>3017.72</ele>
        <time>2017-05-14T11:18:08Z</time>
      </trkpt>
      <trkpt lat="45.27026" lon="6.61475">
        <ele>3015.79</ele>
        <time>2017-05-14T11:18:09Z</time>
      </trkpt>
      <trkpt lat="45.27032" lon="6.61453">
        <ele>3007.14</ele>
        <time>2017-05-14T11:18:14Z</time>
      </trkpt>
      <trkpt lat="45.27035" lon="6.61438">
        <ele>3003.3</ele>
        <time>2017-05-14T11:18:17Z</time>
      </trkpt>
      <trkpt lat="45.27042" lon="6.61426">
        <ele>2998.49</ele>
        <time>2017-05-14T11:18:20Z</time>
      </trkpt>
      <trkpt lat="45.27043" lon="6.61421">
        <ele>2998.01</ele>
        <time>2017-05-14T11:18:21Z</time>
      </trkpt>
      <trkpt lat="45.27049" lon="6.614">
        <ele>2993.68</ele>
        <time>2017-05-14T11:18:25Z</time>
      </trkpt>
      <trkpt lat="45.27054" lon="6.61392">
        <ele>2991.76</ele>
        <time>2017-05-14T11:18:27Z</time>
      </trkpt>
      <trkpt lat="45.27053" lon="6.61384">
        <ele>2987.91</ele>
        <time>2017-05-14T11:18:29Z</time>
      </trkpt>
      <trkpt lat="45.27049" lon="6.61383">
        <ele>2987.91</ele>
        <time>2017-05-14T11:18:41Z</time>
      </trkpt>
      <trkpt lat="45.27049" lon="6.61382">
        <ele>2987.91</ele>
        <time>2017-05-14T11:18:42Z</time>
      </trkpt>
      <trkpt lat="45.27049" lon="6.61366">
        <ele>2986.47</ele>
        <time>2017-05-14T11:18:48Z</time>
      </trkpt>
      <trkpt lat="45.27045" lon="6.61347">
        <ele>2985.03</ele>
        <time>2017-05-14T11:18:54Z</time>
      </trkpt>
      <trkpt lat="45.27043" lon="6.61344">
        <ele>2984.07</ele>
        <time>2017-05-14T11:18:59Z</time>
      </trkpt>
      <trkpt lat="45.27043" lon="6.61336">
        <ele>2983.59</ele>
        <time>2017-05-14T11:19:02Z</time>
      </trkpt>
      <trkpt lat="45.27052" lon="6.61336">
        <ele>2979.26</ele>
        <time>2017-05-14T11:19:05Z</time>
      </trkpt>
      <trkpt lat="45.27058" lon="6.61341">
        <ele>2977.82</ele>
        <time>2017-05-14T11:19:07Z</time>
      </trkpt>
      <trkpt lat="45.27063" lon="6.61342">
        <ele>2976.38</ele>
        <time>2017-05-14T11:19:09Z</time>
      </trkpt>
      <trkpt lat="45.2707" lon="6.6133">
        <ele>2971.57</ele>
        <time>2017-05-14T11:19:13Z</time>
      </trkpt>
      <trkpt lat="45.27073" lon="6.61321">
        <ele>2968.21</ele>
        <time>2017-05-14T11:19:15Z</time>
      </trkpt>
      <trkpt lat="45.27079" lon="6.6131">
        <ele>2963.4</ele>
        <time>2017-05-14T11:19:18Z</time>
      </trkpt>
      <trkpt lat="45.27075" lon="6.61299">
        <ele>2959.56</ele>
        <time>2017-05-14T11:19:20Z</time>
      </trkpt>
      <trkpt lat="45.27076" lon="6.61294">
        <ele>2958.59</ele>
        <time>2017-05-14T11:19:21Z</time>
      </trkpt>
      <trkpt lat="45.27082" lon="6.61274">
        <ele>2951.87</ele>
        <time>2017-05-14T11:19:25Z</time>
      </trkpt>
      <trkpt lat="45.27085" lon="6.61256">
        <ele>2947.54</ele>
        <time>2017-05-14T11:19:28Z</time>
      </trkpt>
      <trkpt lat="45.27092" lon="6.61236">
        <ele>2944.17</ele>
        <time>2017-05-14T11:19:31Z</time>
      </trkpt>
      <trkpt lat="45.27094" lon="6.61212">
        <ele>2940.33</ele>
        <time>2017-05-14T11:19:34Z</time>
      </trkpt>
      <trkpt lat="45.27101" lon="6.61199">
        <ele>2937.45</ele>
        <time>2017-05-14T11:19:36Z</time>
      </trkpt>
      <trkpt lat="45.27115" lon="6.61166">
        <ele>2930.72</ele>
        <time>2017-05-14T11:19:41Z</time>
      </trkpt>
      <trkpt lat="45.27117" lon="6.61145">
        <ele>2927.35</ele>
        <time>2017-05-14T11:19:44Z</time>
      </trkpt>
      <trkpt lat="45.27126" lon="6.61126">
        <ele>2925.91</ele>
        <time>2017-05-14T11:19:47Z</time>
      </trkpt>
      <trkpt lat="45.27144" lon="6.61084">
        <ele>2918.22</ele>
        <time>2017-05-14T11:19:53Z</time>
      </trkpt>
      <trkpt lat="45.27148" lon="6.61059">
        <ele>2915.34</ele>
        <time>2017-05-14T11:19:56Z</time>
      </trkpt>
      <trkpt lat="45.27158" lon="6.61031">
        <ele>2910.53</ele>
        <time>2017-05-14T11:20:00Z</time>
      </trkpt>
      <trkpt lat="45.27165" lon="6.61012">
        <ele>2908.61</ele>
        <time>2017-05-14T11:20:03Z</time>
      </trkpt>
      <trkpt lat="45.27175" lon="6.60978">
        <ele>2903.32</ele>
        <time>2017-05-14T11:20:09Z</time>
      </trkpt>
      <trkpt lat="45.27176" lon="6.6097">
        <ele>2902.36</ele>
        <time>2017-05-14T11:20:11Z</time>
      </trkpt>
      <trkpt lat="45.27177" lon="6.60972">
        <ele>2900.92</ele>
        <time>2017-05-14T11:20:19Z</time>
      </trkpt>
      <trkpt lat="45.2718" lon="6.60968">
        <ele>2900.92</ele>
        <time>2017-05-14T11:20:33Z</time>
      </trkpt>
      <trkpt lat="45.2718" lon="6.60966">
        <ele>2899.95</ele>
        <time>2017-05-14T11:20:46Z</time>
      </trkpt>
      <trkpt lat="45.27179" lon="6.6097">
        <ele>2899.95</ele>
        <time>2017-05-14T11:21:08Z</time>
      </trkpt>
      <trkpt lat="45.27177" lon="6.60971">
        <ele>2899.95</ele>
        <time>2017-05-14T11:21:30Z</time>
      </trkpt>
      <trkpt lat="45.27178" lon="6.60966">
        <ele>2899.47</ele>
        <time>2017-05-14T11:21:41Z</time>
      </trkpt>
      <trkpt lat="45.27181" lon="6.6095">
        <ele>2898.99</ele>
        <time>2017-05-14T11:21:45Z</time>
      </trkpt>
      <trkpt lat="45.27186" lon="6.60929">
        <ele>2897.07</ele>
        <time>2017-05-14T11:21:48Z</time>
      </trkpt>
      <trkpt lat="45.27191" lon="6.60909">
        <ele>2893.71</ele>
        <time>2017-05-14T11:21:51Z</time>
      </trkpt>
      <trkpt lat="45.27196" lon="6.60889">
        <ele>2889.38</ele>
        <time>2017-05-14T11:21:54Z</time>
      </trkpt>
      <trkpt lat="45.27202" lon="6.6087">
        <ele>2885.53</ele>
        <time>2017-05-14T11:21:57Z</time>
      </trkpt>
      <trkpt lat="45.2721" lon="6.60847">
        <ele>2879.29</ele>
        <time>2017-05-14T11:22:01Z</time>
      </trkpt>
      <trkpt lat="45.27222" lon="6.60834">
        <ele>2875.44</ele>
        <time>2017-05-14T11:22:04Z</time>
      </trkpt>
      <trkpt lat="45.27224" lon="6.60818">
        <ele>2871.11</ele>
        <time>2017-05-14T11:22:06Z</time>
      </trkpt>
      <trkpt lat="45.27233" lon="6.6081">
        <ele>2868.23</ele>
        <time>2017-05-14T11:22:08Z</time>
      </trkpt>
      <trkpt lat="45.27232" lon="6.60795">
        <ele>2862.94</ele>
        <time>2017-05-14T11:22:10Z</time>
      </trkpt>
      <trkpt lat="45.27232" lon="6.60788">
        <ele>2862.46</ele>
        <time>2017-05-14T11:22:11Z</time>
      </trkpt>
      <trkpt lat="45.27235" lon="6.60783">
        <ele>2861.5</ele>
        <time>2017-05-14T11:22:12Z</time>
      </trkpt>
      <trkpt lat="45.27243" lon="6.60769">
        <ele>2855.73</ele>
        <time>2017-05-14T11:22:15Z</time>
      </trkpt>
      <trkpt lat="45.27241" lon="6.60763">
        <ele>2853.81</ele>
        <time>2017-05-14T11:22:16Z</time>
      </trkpt>
      <trkpt lat="45.2725" lon="6.60739">
        <ele>2847.08</ele>
        <time>2017-05-14T11:22:20Z</time>
      </trkpt>
      <trkpt lat="45.2725" lon="6.60725">
        <ele>2843.24</ele>
        <time>2017-05-14T11:22:22Z</time>
      </trkpt>
      <trkpt lat="45.27262" lon="6.60715">
        <ele>2839.39</ele>
        <time>2017-05-14T11:22:25Z</time>
      </trkpt>
      <trkpt lat="45.27262" lon="6.60701">
        <ele>2836.03</ele>
        <time>2017-05-14T11:22:27Z</time>
      </trkpt>
      <trkpt lat="45.27266" lon="6.60697">
        <ele>2834.58</ele>
        <time>2017-05-14T11:22:28Z</time>
      </trkpt>
      <trkpt lat="45.27281" lon="6.60682">
        <ele>2828.34</ele>
        <time>2017-05-14T11:22:32Z</time>
      </trkpt>
      <trkpt lat="45.27285" lon="6.60681">
        <ele>2828.34</ele>
        <time>2017-05-14T11:22:33Z</time>
      </trkpt>
      <trkpt lat="45.27298" lon="6.60678">
        <ele>2823.05</ele>
        <time>2017-05-14T11:22:38Z</time>
      </trkpt>
      <trkpt lat="45.27296" lon="6.60678">
        <ele>2825.45</ele>
        <time>2017-05-14T11:22:50Z</time>
      </trkpt>
      <trkpt lat="45.27298" lon="6.6068">
        <ele>2825.93</ele>
        <time>2017-05-14T11:23:08Z</time>
      </trkpt>
      <trkpt lat="45.27301" lon="6.60681">
        <ele>2825.45</ele>
        <time>2017-05-14T11:23:09Z</time>
      </trkpt>
      <trkpt lat="45.2732" lon="6.60693">
        <ele>2819.68</ele>
        <time>2017-05-14T11:23:13Z</time>
      </trkpt>
      <trkpt lat="45.27341" lon="6.60678">
        <ele>2813.44</ele>
        <time>2017-05-14T11:23:17Z</time>
      </trkpt>
      <trkpt lat="45.27351" lon="6.6066">
        <ele>2810.07</ele>
        <time>2017-05-14T11:23:20Z</time>
      </trkpt>
      <trkpt lat="45.27361" lon="6.6064">
        <ele>2807.67</ele>
        <time>2017-05-14T11:23:23Z</time>
      </trkpt>
      <trkpt lat="45.27376" lon="6.6062">
        <ele>2804.3</ele>
        <time>2017-05-14T11:23:26Z</time>
      </trkpt>
      <trkpt lat="45.27391" lon="6.60591">
        <ele>2800.94</ele>
        <time>2017-05-14T11:23:30Z</time>
      </trkpt>
      <trkpt lat="45.27399" lon="6.60569">
        <ele>2798.05</ele>
        <time>2017-05-14T11:23:33Z</time>
      </trkpt>
      <trkpt lat="45.27421" lon="6.60519">
        <ele>2791.81</ele>
        <time>2017-05-14T11:23:40Z</time>
      </trkpt>
      <trkpt lat="45.27429" lon="6.60497">
        <ele>2788.92</ele>
        <time>2017-05-14T11:23:43Z</time>
      </trkpt>
      <trkpt lat="45.27435" lon="6.60482">
        <ele>2785.08</ele>
        <time>2017-05-14T11:23:45Z</time>
      </trkpt>
      <trkpt lat="45.27438" lon="6.60458">
        <ele>2780.75</ele>
        <time>2017-05-14T11:23:48Z</time>
      </trkpt>
      <trkpt lat="45.27445" lon="6.60436">
        <ele>2776.91</ele>
        <time>2017-05-14T11:23:51Z</time>
      </trkpt>
      <trkpt lat="45.27447" lon="6.60429">
        <ele>2775.46</ele>
        <time>2017-05-14T11:23:52Z</time>
      </trkpt>
      <trkpt lat="45.27457" lon="6.60399">
        <ele>2768.25</ele>
        <time>2017-05-14T11:23:56Z</time>
      </trkpt>
      <trkpt lat="45.27462" lon="6.60394">
        <ele>2765.85</ele>
        <time>2017-05-14T11:23:57Z</time>
      </trkpt>
      <trkpt lat="45.27472" lon="6.60365">
        <ele>2761.04</ele>
        <time>2017-05-14T11:24:01Z</time>
      </trkpt>
      <trkpt lat="45.27474" lon="6.60341">
        <ele>2757.2</ele>
        <time>2017-05-14T11:24:04Z</time>
      </trkpt>
      <trkpt lat="45.27482" lon="6.60326">
        <ele>2754.31</ele>
        <time>2017-05-14T11:24:07Z</time>
      </trkpt>
      <trkpt lat="45.27483" lon="6.60302">
        <ele>2750.47</ele>
        <time>2017-05-14T11:24:10Z</time>
      </trkpt>
      <trkpt lat="45.27485" lon="6.6028">
        <ele>2747.1</ele>
        <time>2017-05-14T11:24:13Z</time>
      </trkpt>
      <trkpt lat="45.27489" lon="6.60255">
        <ele>2743.26</ele>
        <time>2017-05-14T11:24:16Z</time>
      </trkpt>
      <trkpt lat="45.27492" lon="6.60228">
        <ele>2738.93</ele>
        <time>2017-05-14T11:24:19Z</time>
      </trkpt>
      <trkpt lat="45.27501" lon="6.60184">
        <ele>2731.24</ele>
        <time>2017-05-14T11:24:24Z</time>
      </trkpt>
      <trkpt lat="45.27504" lon="6.60167">
        <ele>2729.8</ele>
        <time>2017-05-14T11:24:26Z</time>
      </trkpt>
      <trkpt lat="45.27509" lon="6.6015">
        <ele>2725.96</ele>
        <time>2017-05-14T11:24:28Z</time>
      </trkpt>
      <trkpt lat="45.27518" lon="6.60129">
        <ele>2723.07</ele>
        <time>2017-05-14T11:24:31Z</time>
      </trkpt>
      <trkpt lat="45.27521" lon="6.6011">
        <ele>2719.23</ele>
        <time>2017-05-14T11:24:33Z</time>
      </trkpt>
      <trkpt lat="45.27529" lon="6.60096">
        <ele>2716.82</ele>
        <time>2017-05-14T11:24:35Z</time>
      </trkpt>
      <trkpt lat="45.27541" lon="6.60077">
        <ele>2713.94</ele>
        <time>2017-05-14T11:24:38Z</time>
      </trkpt>
      <trkpt lat="45.2755" lon="6.60069">
        <ele>2712.5</ele>
        <time>2017-05-14T11:24:40Z</time>
      </trkpt>
      <trkpt lat="45.27555" lon="6.60069">
        <ele>2709.61</ele>
        <time>2017-05-14T11:24:43Z</time>
      </trkpt>
      <trkpt lat="45.27554" lon="6.60066">
        <ele>2711.06</ele>
        <time>2017-05-14T11:24:46Z</time>
      </trkpt>
      <trkpt lat="45.27554" lon="6.60065">
        <ele>2710.57</ele>
        <time>2017-05-14T11:24:50Z</time>
      </trkpt>
      <trkpt lat="45.2756" lon="6.60044">
        <ele>2709.13</ele>
        <time>2017-05-14T11:24:56Z</time>
      </trkpt>
      <trkpt lat="45.27559" lon="6.60028">
        <ele>2707.21</ele>
        <time>2017-05-14T11:24:58Z</time>
      </trkpt>
      <trkpt lat="45.27564" lon="6.60014">
        <ele>2703.36</ele>
        <time>2017-05-14T11:25:00Z</time>
      </trkpt>
      <trkpt lat="45.2757" lon="6.59984">
        <ele>2700.96</ele>
        <time>2017-05-14T11:25:04Z</time>
      </trkpt>
      <trkpt lat="45.27583" lon="6.59967">
        <ele>2696.15</ele>
        <time>2017-05-14T11:25:07Z</time>
      </trkpt>
      <trkpt lat="45.27585" lon="6.5996">
        <ele>2695.67</ele>
        <time>2017-05-14T11:25:08Z</time>
      </trkpt>
      <trkpt lat="45.27604" lon="6.59929">
        <ele>2688.94</ele>
        <time>2017-05-14T11:25:13Z</time>
      </trkpt>
      <trkpt lat="45.2761" lon="6.59908">
        <ele>2686.06</ele>
        <time>2017-05-14T11:25:16Z</time>
      </trkpt>
      <trkpt lat="45.27629" lon="6.59898">
        <ele>2682.22</ele>
        <time>2017-05-14T11:25:20Z</time>
      </trkpt>
      <trkpt lat="45.27649" lon="6.59883">
        <ele>2676.93</ele>
        <time>2017-05-14T11:25:25Z</time>
      </trkpt>
      <trkpt lat="45.27664" lon="6.59857">
        <ele>2671.16</ele>
        <time>2017-05-14T11:25:30Z</time>
      </trkpt>
      <trkpt lat="45.27669" lon="6.59845">
        <ele>2668.28</ele>
        <time>2017-05-14T11:25:32Z</time>
      </trkpt>
      <trkpt lat="45.27677" lon="6.59835">
        <ele>2664.91</ele>
        <time>2017-05-14T11:25:34Z</time>
      </trkpt>
      <trkpt lat="45.27675" lon="6.59831">
        <ele>2661.07</ele>
        <time>2017-05-14T11:25:36Z</time>
      </trkpt>
      <trkpt lat="45.27675" lon="6.59831">
        <ele>2661.07</ele>
        <time>2017-05-14T11:25:37Z</time>
      </trkpt>
      <trkpt lat="45.27676" lon="6.59832">
        <ele>2662.03</ele>
        <time>2017-05-14T11:25:48Z</time>
      </trkpt>
      <trkpt lat="45.27683" lon="6.59831">
        <ele>2660.11</ele>
        <time>2017-05-14T11:25:52Z</time>
      </trkpt>
      <trkpt lat="45.27689" lon="6.59823">
        <ele>2659.14</ele>
        <time>2017-05-14T11:25:55Z</time>
      </trkpt>
      <trkpt lat="45.277" lon="6.59811">
        <ele>2655.78</ele>
        <time>2017-05-14T11:25:58Z</time>
      </trkpt>
      <trkpt lat="45.27702" lon="6.59803">
        <ele>2653.38</ele>
        <time>2017-05-14T11:25:59Z</time>
      </trkpt>
      <trkpt lat="45.27714" lon="6.5978">
        <ele>2649.05</ele>
        <time>2017-05-14T11:26:03Z</time>
      </trkpt>
      <trkpt lat="45.27721" lon="6.5977">
        <ele>2645.21</ele>
        <time>2017-05-14T11:26:05Z</time>
      </trkpt>
      <trkpt lat="45.27732" lon="6.59754">
        <ele>2641.36</ele>
        <time>2017-05-14T11:26:08Z</time>
      </trkpt>
      <trkpt lat="45.27743" lon="6.59737">
        <ele>2637.51</ele>
        <time>2017-05-14T11:26:11Z</time>
      </trkpt>
      <trkpt lat="45.27755" lon="6.5972">
        <ele>2634.15</ele>
        <time>2017-05-14T11:26:14Z</time>
      </trkpt>
      <trkpt lat="45.2777" lon="6.59699">
        <ele>2629.82</ele>
        <time>2017-05-14T11:26:18Z</time>
      </trkpt>
      <trkpt lat="45.27782" lon="6.59681">
        <ele>2626.46</ele>
        <time>2017-05-14T11:26:21Z</time>
      </trkpt>
      <trkpt lat="45.27785" lon="6.59669">
        <ele>2624.54</ele>
        <time>2017-05-14T11:26:23Z</time>
      </trkpt>
      <trkpt lat="45.27784" lon="6.59662">
        <ele>2623.09</ele>
        <time>2017-05-14T11:26:33Z</time>
      </trkpt>
      <trkpt lat="45.27785" lon="6.59661">
        <ele>2623.09</ele>
        <time>2017-05-14T11:26:41Z</time>
      </trkpt>
      <trkpt lat="45.27786" lon="6.5966">
        <ele>2621.65</ele>
        <time>2017-05-14T11:26:51Z</time>
      </trkpt>
      <trkpt lat="45.27786" lon="6.59663">
        <ele>2621.65</ele>
        <time>2017-05-14T11:27:09Z</time>
      </trkpt>
      <trkpt lat="45.27786" lon="6.59663">
        <ele>2622.13</ele>
        <time>2017-05-14T11:27:16Z</time>
      </trkpt>
      <trkpt lat="45.27798" lon="6.59664">
        <ele>2619.73</ele>
        <time>2017-05-14T11:27:21Z</time>
      </trkpt>
      <trkpt lat="45.27801" lon="6.59664">
        <ele>2618.77</ele>
        <time>2017-05-14T11:27:23Z</time>
      </trkpt>
      <trkpt lat="45.278" lon="6.59664">
        <ele>2619.25</ele>
        <time>2017-05-14T11:27:35Z</time>
      </trkpt>
      <trkpt lat="45.27799" lon="6.59664">
        <ele>2619.25</ele>
        <time>2017-05-14T11:27:52Z</time>
      </trkpt>
      <trkpt lat="45.27798" lon="6.59663">
        <ele>2619.25</ele>
        <time>2017-05-14T11:28:16Z</time>
      </trkpt>
      <trkpt lat="45.27799" lon="6.59662">
        <ele>2619.25</ele>
        <time>2017-05-14T11:28:34Z</time>
      </trkpt>
      <trkpt lat="45.27798" lon="6.59663">
        <ele>2619.25</ele>
        <time>2017-05-14T11:28:51Z</time>
      </trkpt>
      <trkpt lat="45.278" lon="6.59663">
        <ele>2618.77</ele>
        <time>2017-05-14T11:29:08Z</time>
      </trkpt>
      <trkpt lat="45.27799" lon="6.59662">
        <ele>2618.77</ele>
        <time>2017-05-14T11:29:30Z</time>
      </trkpt>
      <trkpt lat="45.27798" lon="6.59663">
        <ele>2618.29</ele>
        <time>2017-05-14T11:29:47Z</time>
      </trkpt>
      <trkpt lat="45.27798" lon="6.59662">
        <ele>2618.77</ele>
        <time>2017-05-14T11:29:58Z</time>
      </trkpt>
      <trkpt lat="45.27807" lon="6.59656">
        <ele>2617.33</ele>
        <time>2017-05-14T11:30:02Z</time>
      </trkpt>
      <trkpt lat="45.27816" lon="6.59639">
        <ele>2613.96</ele>
        <time>2017-05-14T11:30:06Z</time>
      </trkpt>
      <trkpt lat="45.27826" lon="6.5962">
        <ele>2610.6</ele>
        <time>2017-05-14T11:30:10Z</time>
      </trkpt>
      <trkpt lat="45.27836" lon="6.59606">
        <ele>2606.75</ele>
        <time>2017-05-14T11:30:13Z</time>
      </trkpt>
      <trkpt lat="45.27842" lon="6.59595">
        <ele>2603.39</ele>
        <time>2017-05-14T11:30:15Z</time>
      </trkpt>
      <trkpt lat="45.27848" lon="6.59574">
        <ele>2600.02</ele>
        <time>2017-05-14T11:30:18Z</time>
      </trkpt>
      <trkpt lat="45.2786" lon="6.59558">
        <ele>2595.7</ele>
        <time>2017-05-14T11:30:21Z</time>
      </trkpt>
      <trkpt lat="45.27872" lon="6.59539">
        <ele>2591.85</ele>
        <time>2017-05-14T11:30:24Z</time>
      </trkpt>
      <trkpt lat="45.2788" lon="6.59516">
        <ele>2587.53</ele>
        <time>2017-05-14T11:30:27Z</time>
      </trkpt>
      <trkpt lat="45.27892" lon="6.59497">
        <ele>2584.16</ele>
        <time>2017-05-14T11:30:30Z</time>
      </trkpt>
      <trkpt lat="45.27896" lon="6.59491">
        <ele>2583.2</ele>
        <time>2017-05-14T11:30:31Z</time>
      </trkpt>
      <trkpt lat="45.27917" lon="6.59464">
        <ele>2577.91</ele>
        <time>2017-05-14T11:30:36Z</time>
      </trkpt>
      <trkpt lat="45.27925" lon="6.59453">
        <ele>2575.51</ele>
        <time>2017-05-14T11:30:38Z</time>
      </trkpt>
      <trkpt lat="45.2793" lon="6.59439">
        <ele>2573.59</ele>
        <time>2017-05-14T11:30:40Z</time>
      </trkpt>
      <trkpt lat="45.27943" lon="6.59425">
        <ele>2570.7</ele>
        <time>2017-05-14T11:30:43Z</time>
      </trkpt>
      <trkpt lat="45.27965" lon="6.59411">
        <ele>2565.9</ele>
        <time>2017-05-14T11:30:47Z</time>
      </trkpt>
      <trkpt lat="45.27978" lon="6.59391">
        <ele>2562.05</ele>
        <time>2017-05-14T11:30:52Z</time>
      </trkpt>
      <trkpt lat="45.27976" lon="6.59389">
        <ele>2556.28</ele>
        <time>2017-05-14T11:30:55Z</time>
      </trkpt>
      <trkpt lat="45.27976" lon="6.59389">
        <ele>2558.21</ele>
        <time>2017-05-14T11:30:56Z</time>
      </trkpt>
      <trkpt lat="45.27974" lon="6.59391">
        <ele>2558.69</ele>
        <time>2017-05-14T11:31:15Z</time>
      </trkpt>
      <trkpt lat="45.27974" lon="6.59389">
        <ele>2559.65</ele>
        <time>2017-05-14T11:31:27Z</time>
      </trkpt>
      <trkpt lat="45.27975" lon="6.59388">
        <ele>2559.65</ele>
        <time>2017-05-14T11:31:30Z</time>
      </trkpt>
      <trkpt lat="45.27987" lon="6.59378">
        <ele>2556.76</ele>
        <time>2017-05-14T11:31:35Z</time>
      </trkpt>
      <trkpt lat="45.28011" lon="6.59376">
        <ele>2553.88</ele>
        <time>2017-05-14T11:31:44Z</time>
      </trkpt>
      <trkpt lat="45.28011" lon="6.59375">
        <ele>2553.88</ele>
        <time>2017-05-14T11:31:54Z</time>
      </trkpt>
      <trkpt lat="45.28018" lon="6.59373">
        <ele>2552.92</ele>
        <time>2017-05-14T11:31:58Z</time>
      </trkpt>
      <trkpt lat="45.28023" lon="6.59353">
        <ele>2549.55</ele>
        <time>2017-05-14T11:32:02Z</time>
      </trkpt>
      <trkpt lat="45.28027" lon="6.59349">
        <ele>2547.63</ele>
        <time>2017-05-14T11:32:03Z</time>
      </trkpt>
      <trkpt lat="45.28038" lon="6.59336">
        <ele>2544.27</ele>
        <time>2017-05-14T11:32:06Z</time>
      </trkpt>
      <trkpt lat="45.28053" lon="6.59328">
        <ele>2539.94</ele>
        <time>2017-05-14T11:32:09Z</time>
      </trkpt>
      <trkpt lat="45.28057" lon="6.59316">
        <ele>2538.02</ele>
        <time>2017-05-14T11:32:11Z</time>
      </trkpt>
      <trkpt lat="45.28061" lon="6.59304">
        <ele>2534.17</ele>
        <time>2017-05-14T11:32:13Z</time>
      </trkpt>
      <trkpt lat="45.28065" lon="6.59301">
        <ele>2532.73</ele>
        <time>2017-05-14T11:32:14Z</time>
      </trkpt>
      <trkpt lat="45.28076" lon="6.59287">
        <ele>2526</ele>
        <time>2017-05-14T11:32:19Z</time>
      </trkpt>
      <trkpt lat="45.28075" lon="6.59287">
        <ele>2526</ele>
        <time>2017-05-14T11:32:20Z</time>
      </trkpt>
      <trkpt lat="45.28076" lon="6.59287">
        <ele>2526</ele>
        <time>2017-05-14T11:32:31Z</time>
      </trkpt>
      <trkpt lat="45.28085" lon="6.59256">
        <ele>2522.16</ele>
        <time>2017-05-14T11:32:40Z</time>
      </trkpt>
      <trkpt lat="45.28099" lon="6.59244">
        <ele>2518.31</ele>
        <time>2017-05-14T11:32:44Z</time>
      </trkpt>
      <trkpt lat="45.28111" lon="6.59232">
        <ele>2513.98</ele>
        <time>2017-05-14T11:32:48Z</time>
      </trkpt>
      <trkpt lat="45.28115" lon="6.59217">
        <ele>2511.1</ele>
        <time>2017-05-14T11:32:51Z</time>
      </trkpt>
      <trkpt lat="45.28124" lon="6.59203">
        <ele>2506.29</ele>
        <time>2017-05-14T11:32:54Z</time>
      </trkpt>
      <trkpt lat="45.28134" lon="6.5919">
        <ele>2501.49</ele>
        <time>2017-05-14T11:32:57Z</time>
      </trkpt>
      <trkpt lat="45.28137" lon="6.59177">
        <ele>2498.12</ele>
        <time>2017-05-14T11:32:59Z</time>
      </trkpt>
      <trkpt lat="45.28142" lon="6.59168">
        <ele>2495.24</ele>
        <time>2017-05-14T11:33:01Z</time>
      </trkpt>
      <trkpt lat="45.28149" lon="6.59153">
        <ele>2489.95</ele>
        <time>2017-05-14T11:33:05Z</time>
      </trkpt>
      <trkpt lat="45.28147" lon="6.59154">
        <ele>2488.99</ele>
        <time>2017-05-14T11:33:11Z</time>
      </trkpt>
      <trkpt lat="45.28163" lon="6.59141">
        <ele>2484.66</ele>
        <time>2017-05-14T11:33:17Z</time>
      </trkpt>
      <trkpt lat="45.28166" lon="6.59122">
        <ele>2481.3</ele>
        <time>2017-05-14T11:33:20Z</time>
      </trkpt>
      <trkpt lat="45.28179" lon="6.59112">
        <ele>2478.9</ele>
        <time>2017-05-14T11:33:23Z</time>
      </trkpt>
      <trkpt lat="45.28179" lon="6.59107">
        <ele>2476.49</ele>
        <time>2017-05-14T11:33:24Z</time>
      </trkpt>
      <trkpt lat="45.28183" lon="6.59079">
        <ele>2471.69</ele>
        <time>2017-05-14T11:33:29Z</time>
      </trkpt>
      <trkpt lat="45.28198" lon="6.59047">
        <ele>2466.4</ele>
        <time>2017-05-14T11:33:32Z</time>
      </trkpt>
      <trkpt lat="45.28205" lon="6.59034">
        <ele>2463.52</ele>
        <time>2017-05-14T11:33:33Z</time>
      </trkpt>
      <trkpt lat="45.2822" lon="6.59006">
        <ele>2459.67</ele>
        <time>2017-05-14T11:33:35Z</time>
      </trkpt>
      <trkpt lat="45.28234" lon="6.58978">
        <ele>2455.34</ele>
        <time>2017-05-14T11:33:37Z</time>
      </trkpt>
      <trkpt lat="45.28248" lon="6.5895">
        <ele>2450.54</ele>
        <time>2017-05-14T11:33:39Z</time>
      </trkpt>
      <trkpt lat="45.28267" lon="6.58906">
        <ele>2444.29</ele>
        <time>2017-05-14T11:33:42Z</time>
      </trkpt>
      <trkpt lat="45.28284" lon="6.58866">
        <ele>2440.92</ele>
        <time>2017-05-14T11:33:45Z</time>
      </trkpt>
      <trkpt lat="45.283" lon="6.58818">
        <ele>2437.08</ele>
        <time>2017-05-14T11:33:49Z</time>
      </trkpt>
      <trkpt lat="45.28307" lon="6.58796">
        <ele>2436.12</ele>
        <time>2017-05-14T11:33:51Z</time>
      </trkpt>
      <trkpt lat="45.28319" lon="6.58751">
        <ele>2432.27</ele>
        <time>2017-05-14T11:33:56Z</time>
      </trkpt>
      <trkpt lat="45.28321" lon="6.58745">
        <ele>2432.27</ele>
        <time>2017-05-14T11:33:57Z</time>
      </trkpt>
      <trkpt lat="45.28326" lon="6.58742">
        <ele>2431.79</ele>
        <time>2017-05-14T11:34:00Z</time>
      </trkpt>
      <trkpt lat="45.28335" lon="6.58736">
        <ele>2431.79</ele>
        <time>2017-05-14T11:34:06Z</time>
      </trkpt>
      <trkpt lat="45.28352" lon="6.58708">
        <ele>2429.87</ele>
        <time>2017-05-14T11:34:16Z</time>
      </trkpt>
      <trkpt lat="45.28363" lon="6.58682">
        <ele>2427.47</ele>
        <time>2017-05-14T11:34:20Z</time>
      </trkpt>
      <trkpt lat="45.28369" lon="6.58666">
        <ele>2426.5</ele>
        <time>2017-05-14T11:34:22Z</time>
      </trkpt>
      <trkpt lat="45.28383" lon="6.58641">
        <ele>2424.1</ele>
        <time>2017-05-14T11:34:26Z</time>
      </trkpt>
      <trkpt lat="45.28401" lon="6.58615">
        <ele>2420.26</ele>
        <time>2017-05-14T11:34:31Z</time>
      </trkpt>
      <trkpt lat="45.28409" lon="6.58608">
        <ele>2418.81</ele>
        <time>2017-05-14T11:34:34Z</time>
      </trkpt>
      <trkpt lat="45.28408" lon="6.58607">
        <ele>2418.33</ele>
        <time>2017-05-14T11:34:50Z</time>
      </trkpt>
      <trkpt lat="45.28408" lon="6.58606">
        <ele>2418.33</ele>
        <time>2017-05-14T11:35:06Z</time>
      </trkpt>
      <trkpt lat="45.28412" lon="6.58574">
        <ele>2416.41</ele>
        <time>2017-05-14T11:35:14Z</time>
      </trkpt>
      <trkpt lat="45.28426" lon="6.58558">
        <ele>2413.53</ele>
        <time>2017-05-14T11:35:18Z</time>
      </trkpt>
      <trkpt lat="45.28446" lon="6.58524">
        <ele>2407.76</ele>
        <time>2017-05-14T11:35:24Z</time>
      </trkpt>
      <trkpt lat="45.28449" lon="6.58518">
        <ele>2408.24</ele>
        <time>2017-05-14T11:35:25Z</time>
      </trkpt>
      <trkpt lat="45.28462" lon="6.58505">
        <ele>2404.39</ele>
        <time>2017-05-14T11:35:28Z</time>
      </trkpt>
      <trkpt lat="45.28467" lon="6.58503">
        <ele>2403.43</ele>
        <time>2017-05-14T11:35:29Z</time>
      </trkpt>
      <trkpt lat="45.28479" lon="6.58497">
        <ele>2401.99</ele>
        <time>2017-05-14T11:35:31Z</time>
      </trkpt>
      <trkpt lat="45.28507" lon="6.58489">
        <ele>2399.59</ele>
        <time>2017-05-14T11:35:36Z</time>
      </trkpt>
      <trkpt lat="45.28538" lon="6.58485">
        <ele>2398.15</ele>
        <time>2017-05-14T11:35:47Z</time>
      </trkpt>
      <trkpt lat="45.28568" lon="6.58487">
        <ele>2393.82</ele>
        <time>2017-05-14T11:35:55Z</time>
      </trkpt>
      <trkpt lat="45.2859" lon="6.58489">
        <ele>2390.94</ele>
        <time>2017-05-14T11:35:58Z</time>
      </trkpt>
      <trkpt lat="45.28614" lon="6.58492">
        <ele>2388.05</ele>
        <time>2017-05-14T11:36:02Z</time>
      </trkpt>
      <trkpt lat="45.28636" lon="6.58497">
        <ele>2386.61</ele>
        <time>2017-05-14T11:36:12Z</time>
      </trkpt>
      <trkpt lat="45.28654" lon="6.58495">
        <ele>2386.61</ele>
        <time>2017-05-14T11:36:25Z</time>
      </trkpt>
      <trkpt lat="45.28676" lon="6.58489">
        <ele>2382.76</ele>
        <time>2017-05-14T11:36:29Z</time>
      </trkpt>
      <trkpt lat="45.28698" lon="6.58484">
        <ele>2379.4</ele>
        <time>2017-05-14T11:36:32Z</time>
      </trkpt>
      <trkpt lat="45.28724" lon="6.58473">
        <ele>2376.04</ele>
        <time>2017-05-14T11:36:36Z</time>
      </trkpt>
      <trkpt lat="45.28729" lon="6.5847">
        <ele>2375.55</ele>
        <time>2017-05-14T11:36:37Z</time>
      </trkpt>
      <trkpt lat="45.28761" lon="6.58451">
        <ele>2372.67</ele>
        <time>2017-05-14T11:36:44Z</time>
      </trkpt>
      <trkpt lat="45.28805" lon="6.5843">
        <ele>2369.31</ele>
        <time>2017-05-14T11:36:55Z</time>
      </trkpt>
      <trkpt lat="45.28851" lon="6.58409">
        <ele>2365.46</ele>
        <time>2017-05-14T11:37:07Z</time>
      </trkpt>
      <trkpt lat="45.28855" lon="6.58408">
        <ele>2365.46</ele>
        <time>2017-05-14T11:37:08Z</time>
      </trkpt>
      <trkpt lat="45.28891" lon="6.58393">
        <ele>2362.1</ele>
        <time>2017-05-14T11:37:17Z</time>
      </trkpt>
      <trkpt lat="45.28903" lon="6.58388">
        <ele>2360.65</ele>
        <time>2017-05-14T11:37:20Z</time>
      </trkpt>
      <trkpt lat="45.28907" lon="6.58386">
        <ele>2360.17</ele>
        <time>2017-05-14T11:37:21Z</time>
      </trkpt>
      <trkpt lat="45.28955" lon="6.58368">
        <ele>2355.85</ele>
        <time>2017-05-14T11:37:33Z</time>
      </trkpt>
      <trkpt lat="45.28959" lon="6.58367">
        <ele>2356.33</ele>
        <time>2017-05-14T11:37:34Z</time>
      </trkpt>
      <trkpt lat="45.28999" lon="6.5836">
        <ele>2352.96</ele>
        <time>2017-05-14T11:37:47Z</time>
      </trkpt>
      <trkpt lat="45.29039" lon="6.58358">
        <ele>2352</ele>
        <time>2017-05-14T11:38:01Z</time>
      </trkpt>
      <trkpt lat="45.29065" lon="6.5835">
        <ele>2351.04</ele>
        <time>2017-05-14T11:38:13Z</time>
      </trkpt>
      <trkpt lat="45.29089" lon="6.58339">
        <ele>2347.68</ele>
        <time>2017-05-14T11:38:23Z</time>
      </trkpt>
      <trkpt lat="45.29128" lon="6.58317">
        <ele>2344.31</ele>
        <time>2017-05-14T11:38:37Z</time>
      </trkpt>
      <trkpt lat="45.29159" lon="6.58302">
        <ele>2341.91</ele>
        <time>2017-05-14T11:38:48Z</time>
      </trkpt>
      <trkpt lat="45.29187" lon="6.58285">
        <ele>2338.06</ele>
        <time>2017-05-14T11:38:55Z</time>
      </trkpt>
      <trkpt lat="45.29191" lon="6.58282">
        <ele>2338.06</ele>
        <time>2017-05-14T11:38:56Z</time>
      </trkpt>
      <trkpt lat="45.29217" lon="6.58269">
        <ele>2334.22</ele>
        <time>2017-05-14T11:39:02Z</time>
      </trkpt>
      <trkpt lat="45.29245" lon="6.58254">
        <ele>2330.85</ele>
        <time>2017-05-14T11:39:09Z</time>
      </trkpt>
      <trkpt lat="45.29252" lon="6.5825">
        <ele>2330.37</ele>
        <time>2017-05-14T11:39:11Z</time>
      </trkpt>
      <trkpt lat="45.29255" lon="6.58247">
        <ele>2329.89</ele>
        <time>2017-05-14T11:39:12Z</time>
      </trkpt>
      <trkpt lat="45.29269" lon="6.58244">
        <ele>2327.97</ele>
        <time>2017-05-14T11:39:16Z</time>
      </trkpt>
      <trkpt lat="45.29293" lon="6.5826">
        <ele>2325.57</ele>
        <time>2017-05-14T11:39:29Z</time>
      </trkpt>
      <trkpt lat="45.29313" lon="6.58279">
        <ele>2322.68</ele>
        <time>2017-05-14T11:39:37Z</time>
      </trkpt>
      <trkpt lat="45.29342" lon="6.58288">
        <ele>2320.28</ele>
        <time>2017-05-14T11:39:52Z</time>
      </trkpt>
      <trkpt lat="45.29348" lon="6.58291">
        <ele>2319.32</ele>
        <time>2017-05-14T11:39:54Z</time>
      </trkpt>
      <trkpt lat="45.29357" lon="6.58294">
        <ele>2317.88</ele>
        <time>2017-05-14T11:39:57Z</time>
      </trkpt>
      <trkpt lat="45.29381" lon="6.58305">
        <ele>2314.51</ele>
        <time>2017-05-14T11:40:07Z</time>
      </trkpt>
      <trkpt lat="45.29384" lon="6.58306">
        <ele>2314.51</ele>
        <time>2017-05-14T11:40:08Z</time>
      </trkpt>
      <trkpt lat="45.294" lon="6.583">
        <ele>2312.59</ele>
        <time>2017-05-14T11:40:17Z</time>
      </trkpt>
      <trkpt lat="45.29401" lon="6.583">
        <ele>2313.07</ele>
        <time>2017-05-14T11:40:29Z</time>
      </trkpt>
      <trkpt lat="45.29403" lon="6.58298">
        <ele>2313.55</ele>
        <time>2017-05-14T11:40:44Z</time>
      </trkpt>
      <trkpt lat="45.29403" lon="6.58299">
        <ele>2312.59</ele>
        <time>2017-05-14T11:41:09Z</time>
      </trkpt>
      <trkpt lat="45.29405" lon="6.58299">
        <ele>2313.07</ele>
        <time>2017-05-14T11:41:25Z</time>
      </trkpt>
      <trkpt lat="45.29408" lon="6.58298">
        <ele>2313.07</ele>
        <time>2017-05-14T11:41:48Z</time>
      </trkpt>
      <trkpt lat="45.29407" lon="6.58299">
        <ele>2313.07</ele>
        <time>2017-05-14T11:42:22Z</time>
      </trkpt>
      <trkpt lat="45.29407" lon="6.58298">
        <ele>2312.59</ele>
        <time>2017-05-14T11:42:42Z</time>
      </trkpt>
      <trkpt lat="45.29407" lon="6.583">
        <ele>2313.55</ele>
        <time>2017-05-14T11:43:06Z</time>
      </trkpt>
      <trkpt lat="45.2941" lon="6.58305">
        <ele>2314.51</ele>
        <time>2017-05-14T11:43:19Z</time>
      </trkpt>
      <trkpt lat="45.2941" lon="6.58312">
        <ele>2315.95</ele>
        <time>2017-05-14T11:43:30Z</time>
      </trkpt>
      <trkpt lat="45.2941" lon="6.58319">
        <ele>2315.95</ele>
        <time>2017-05-14T11:43:40Z</time>
      </trkpt>
      <trkpt lat="45.29409" lon="6.58322">
        <ele>2316.91</ele>
        <time>2017-05-14T11:43:57Z</time>
      </trkpt>
      <trkpt lat="45.29411" lon="6.58323">
        <ele>2316.43</ele>
        <time>2017-05-14T11:44:20Z</time>
      </trkpt>
      <trkpt lat="45.29412" lon="6.58327">
        <ele>2316.91</ele>
        <time>2017-05-14T11:44:38Z</time>
      </trkpt>
      <trkpt lat="45.29412" lon="6.58336">
        <ele>2318.36</ele>
        <time>2017-05-14T11:44:49Z</time>
      </trkpt>
      <trkpt lat="45.29412" lon="6.58346">
        <ele>2318.84</ele>
        <time>2017-05-14T11:45:02Z</time>
      </trkpt>
      <trkpt lat="45.29415" lon="6.58351">
        <ele>2318.84</ele>
        <time>2017-05-14T11:45:13Z</time>
      </trkpt>
      <trkpt lat="45.29416" lon="6.58359">
        <ele>2319.32</ele>
        <time>2017-05-14T11:45:25Z</time>
      </trkpt>
      <trkpt lat="45.29417" lon="6.5837">
        <ele>2320.28</ele>
        <time>2017-05-14T11:45:38Z</time>
      </trkpt>
      <trkpt lat="45.29419" lon="6.5838">
        <ele>2321.72</ele>
        <time>2017-05-14T11:45:51Z</time>
      </trkpt>
      <trkpt lat="45.2942" lon="6.58383">
        <ele>2322.2</ele>
        <time>2017-05-14T11:46:03Z</time>
      </trkpt>
      <trkpt lat="45.29419" lon="6.58384">
        <ele>2322.2</ele>
        <time>2017-05-14T11:46:17Z</time>
      </trkpt>
      <trkpt lat="45.2942" lon="6.58383">
        <ele>2321.72</ele>
        <time>2017-05-14T11:46:35Z</time>
      </trkpt>
      <trkpt lat="45.2942" lon="6.58387">
        <ele>2321.72</ele>
        <time>2017-05-14T11:46:51Z</time>
      </trkpt>
      <trkpt lat="45.29425" lon="6.58402">
        <ele>2323.64</ele>
        <time>2017-05-14T11:47:05Z</time>
      </trkpt>
      <trkpt lat="45.29428" lon="6.58406">
        <ele>2323.64</ele>
        <time>2017-05-14T11:47:10Z</time>
      </trkpt>
      <trkpt lat="45.29437" lon="6.58418">
        <ele>2324.61</ele>
        <time>2017-05-14T11:47:25Z</time>
      </trkpt>
      <trkpt lat="45.29445" lon="6.58427">
        <ele>2326.05</ele>
        <time>2017-05-14T11:47:38Z</time>
      </trkpt>
      <trkpt lat="45.29446" lon="6.58429">
        <ele>2326.05</ele>
        <time>2017-05-14T11:47:41Z</time>
      </trkpt>
      <trkpt lat="45.29451" lon="6.58442">
        <ele>2327.01</ele>
        <time>2017-05-14T11:47:54Z</time>
      </trkpt>
      <trkpt lat="45.29453" lon="6.58456">
        <ele>2327.97</ele>
        <time>2017-05-14T11:48:06Z</time>
      </trkpt>
      <trkpt lat="45.29454" lon="6.58461">
        <ele>2328.93</ele>
        <time>2017-05-14T11:48:11Z</time>
      </trkpt>
      <trkpt lat="45.29455" lon="6.58466">
        <ele>2328.45</ele>
        <time>2017-05-14T11:48:15Z</time>
      </trkpt>
      <trkpt lat="45.29458" lon="6.58484">
        <ele>2328.93</ele>
        <time>2017-05-14T11:48:28Z</time>
      </trkpt>
      <trkpt lat="45.2946" lon="6.585">
        <ele>2329.89</ele>
        <time>2017-05-14T11:48:41Z</time>
      </trkpt>
      <trkpt lat="45.2946" lon="6.58504">
        <ele>2330.37</ele>
        <time>2017-05-14T11:48:45Z</time>
      </trkpt>
      <trkpt lat="45.29463" lon="6.58516">
        <ele>2330.37</ele>
        <time>2017-05-14T11:48:55Z</time>
      </trkpt>
      <trkpt lat="45.29466" lon="6.58528">
        <ele>2331.33</ele>
        <time>2017-05-14T11:49:06Z</time>
      </trkpt>
      <trkpt lat="45.29469" lon="6.58534">
        <ele>2331.33</ele>
        <time>2017-05-14T11:49:19Z</time>
      </trkpt>
      <trkpt lat="45.29471" lon="6.58537">
        <ele>2331.81</ele>
        <time>2017-05-14T11:49:24Z</time>
      </trkpt>
      <trkpt lat="45.29483" lon="6.58541">
        <ele>2331.33</ele>
        <time>2017-05-14T11:49:39Z</time>
      </trkpt>
      <trkpt lat="45.29484" lon="6.58541">
        <ele>2331.33</ele>
        <time>2017-05-14T11:49:54Z</time>
      </trkpt>
      <trkpt lat="45.29483" lon="6.58538">
        <ele>2330.85</ele>
        <time>2017-05-14T11:50:13Z</time>
      </trkpt>
      <trkpt lat="45.29485" lon="6.58541">
        <ele>2331.33</ele>
        <time>2017-05-14T11:50:24Z</time>
      </trkpt>
      <trkpt lat="45.29488" lon="6.5854">
        <ele>2331.33</ele>
        <time>2017-05-14T11:50:28Z</time>
      </trkpt>
      <trkpt lat="45.29496" lon="6.58536">
        <ele>2333.26</ele>
        <time>2017-05-14T11:50:40Z</time>
      </trkpt>
      <trkpt lat="45.29504" lon="6.58535">
        <ele>2334.7</ele>
        <time>2017-05-14T11:50:53Z</time>
      </trkpt>
      <trkpt lat="45.29509" lon="6.5854">
        <ele>2336.62</ele>
        <time>2017-05-14T11:51:06Z</time>
      </trkpt>
      <trkpt lat="45.29513" lon="6.58543">
        <ele>2335.66</ele>
        <time>2017-05-14T11:51:18Z</time>
      </trkpt>
      <trkpt lat="45.29516" lon="6.58543">
        <ele>2336.14</ele>
        <time>2017-05-14T11:51:42Z</time>
      </trkpt>
      <trkpt lat="45.29515" lon="6.58543">
        <ele>2335.66</ele>
        <time>2017-05-14T11:51:54Z</time>
      </trkpt>
      <trkpt lat="45.29518" lon="6.58543">
        <ele>2336.14</ele>
        <time>2017-05-14T11:52:19Z</time>
      </trkpt>
      <trkpt lat="45.29516" lon="6.58546">
        <ele>2334.7</ele>
        <time>2017-05-14T11:52:47Z</time>
      </trkpt>
      <trkpt lat="45.29515" lon="6.58546">
        <ele>2336.14</ele>
        <time>2017-05-14T11:52:50Z</time>
      </trkpt>
      <trkpt lat="45.29514" lon="6.58544">
        <ele>2335.66</ele>
        <time>2017-05-14T11:53:21Z</time>
      </trkpt>
      <trkpt lat="45.2951" lon="6.5854">
        <ele>2336.14</ele>
        <time>2017-05-14T11:54:01Z</time>
      </trkpt>
      <trkpt lat="45.2951" lon="6.58538">
        <ele>2336.62</ele>
        <time>2017-05-14T11:54:48Z</time>
      </trkpt>
      <trkpt lat="45.29512" lon="6.58537">
        <ele>2336.62</ele>
        <time>2017-05-14T11:55:16Z</time>
      </trkpt>
      <trkpt lat="45.29511" lon="6.58534">
        <ele>2337.58</ele>
        <time>2017-05-14T11:55:59Z</time>
      </trkpt>
      <trkpt lat="45.29513" lon="6.58535">
        <ele>2338.54</ele>
        <time>2017-05-14T11:56:33Z</time>
      </trkpt>
      <trkpt lat="45.29513" lon="6.58535">
        <ele>2338.06</ele>
        <time>2017-05-14T11:57:06Z</time>
      </trkpt>
      <trkpt lat="45.29516" lon="6.5854">
        <ele>2339.99</ele>
        <time>2017-05-14T11:57:42Z</time>
      </trkpt>
      <trkpt lat="45.29512" lon="6.58542">
        <ele>2339.02</ele>
        <time>2017-05-14T11:58:08Z</time>
      </trkpt>
      <trkpt lat="45.29517" lon="6.58545">
        <ele>2339.99</ele>
        <time>2017-05-14T11:58:36Z</time>
      </trkpt>
      <trkpt lat="45.29515" lon="6.58547">
        <ele>2340.95</ele>
        <time>2017-05-14T11:59:10Z</time>
      </trkpt>
      <trkpt lat="45.29521" lon="6.58545">
        <ele>2341.43</ele>
        <time>2017-05-14T11:59:43Z</time>
      </trkpt>
      <trkpt lat="45.29508" lon="6.5854">
        <ele>2341.43</ele>
        <time>2017-05-14T12:00:13Z</time>
      </trkpt>
      <trkpt lat="45.29505" lon="6.58543">
        <ele>2342.39</ele>
        <time>2017-05-14T12:00:47Z</time>
      </trkpt>
      <trkpt lat="45.29506" lon="6.58539">
        <ele>2342.87</ele>
        <time>2017-05-14T12:01:10Z</time>
      </trkpt>
      <trkpt lat="45.29506" lon="6.58539">
        <ele>2341.43</ele>
        <time>2017-05-14T12:01:13Z</time>
      </trkpt>
    </trkseg>
  </trk>
</gpx>